Provisional Data: Lackawanna River near Forest City, PA


Please select a monitoring station.
Please select start date.
Please select start date.

Toggle Unit: C/F Toggle Unit: C/F
Sample Time Temperature (C) Temperature (F) Specific Conductivity (mS/cm) pH   Turbidity (NTU+) DO (mg/L)
2/8/2023 12:00:00 AM 1.46 34.628 29.533 6.92 98.94 3.48
2/8/2023 12:15:00 AM 1.44 34.592 0.462 6.93 99.24 3.89
2/8/2023 12:30:00 AM 1.41 34.538 8.496 6.92 99.06 3.74
2/8/2023 12:45:00 AM 1.39 34.502 0.502 6.92 98.95 3.77
2/8/2023 1:00:00 AM 1.36 34.448 5.049 6.91 99.47 3.68
2/8/2023 1:15:00 AM 1.33 34.394 2.456 6.92 99.23 3.63
2/8/2023 1:30:00 AM 1.3 34.34 0.657 6.9 99.23 3.63
2/8/2023 1:45:00 AM 1.28 34.304 1.534 6.91 99.31 3.63
2/8/2023 2:00:00 AM 1.25 34.25 50.92 6.91 99.5 3
2/8/2023 2:15:00 AM 1.23 34.214 1.096 6.92 99.13 3.7
2/8/2023 2:30:00 AM 1.21 34.178 1.182 6.94 99.32 3.73
2/8/2023 2:45:00 AM 1.19 34.142 24.667 6.9 99.47 3.38
2/8/2023 3:00:00 AM 1.17 34.106 5.69 6.91 99.34 3.75
2/8/2023 3:15:00 AM 1.16 34.088 21.279 6.92 99.4 3.5
2/8/2023 3:30:00 AM 1.15 34.07 13.953 6.91 99.12 3.61
2/8/2023 3:45:00 AM 1.14 34.052 10.262 6.92 99.14 3.65
2/8/2023 4:00:00 AM 1.13 34.034 0.602 6.9 99 3.81
2/8/2023 4:15:00 AM 1.12 34.016 28.857 6.92 99.21 3.41
2/8/2023 4:30:00 AM 1.11 33.998 47.587 6.91 99.41 3.17
2/8/2023 4:45:00 AM 1.1 33.98 4.366 6.96 99.19 3.84
2/8/2023 5:00:00 AM 1.1 33.98 1.12 6.93 98.62 3.87
2/8/2023 5:15:00 AM 1.09 33.962 1.292 6.93 98.22 3.93
2/8/2023 5:30:00 AM 1.09 33.962 45.913 6.9 98.21 3.5
2/8/2023 5:45:00 AM 1.09 33.962 9.377 6.93 98.6 3.75
2/8/2023 6:00:00 AM 1.08 33.944 49.394 6.95 98.37 3.73
2/8/2023 6:15:00 AM 1.08 33.944 38.152 6.92 98.52 3.52
2/8/2023 6:30:00 AM 1.07 33.926 35.462 6.91 98.25 3.81
2/8/2023 6:45:00 AM 1.07 33.926 46.502 6.92 98.48 3.43
2/8/2023 7:00:00 AM 1.06 33.908 22.586 6.93 98.08 3.99
2/8/2023 7:15:00 AM 1.06 33.908 17.012 6.9 97.97 4.14
2/8/2023 7:30:00 AM 1.05 33.89 22.641 6.92 97.96 3.84
2/8/2023 7:45:00 AM 1.05 33.89 46.24 6.89 98.05 3.55
2/8/2023 8:00:00 AM 1.05 33.89 1.793 6.93 97.88 4.31
2/8/2023 8:15:00 AM 1.05 33.89 35.651 6.91 98.12 3.76
2/8/2023 8:30:00 AM 1.05 33.89 35.853 6.9 97.86 3.72
2/8/2023 8:45:00 AM 1.05 33.89 0.928 6.89 97.83 4.3
2/8/2023 9:00:00 AM 1.05 33.89 16.117 6.94 97.9 4.06
2/8/2023 9:15:00 AM 1.05 33.89 0.553 6.94 97.65 4.36
2/8/2023 9:30:00 AM 1.06 33.908 37.597 6.93 97.78 3.78
2/8/2023 9:45:00 AM 1.07 33.926 10.549 6.92 97.65 4.3
2/8/2023 10:00:00 AM 1.1 33.98 0.567 6.91 97.85 4.5
2/8/2023 10:15:00 AM 1.14 34.052 0.597 6.9 97.75 4.54
2/8/2023 10:30:00 AM 1.18 34.124 0.562 6.9 97.61 4.59
2/8/2023 10:45:00 AM 1.24 34.232 0.658 6.89 97.65 4.6
2/8/2023 11:00:00 AM 1.3 34.34 0.721 6.9 98.17 4.61
2/8/2023 11:15:00 AM 1.37 34.466 0.578 6.92 98.08 4.65
2/8/2023 11:30:00 AM 1.44 34.592 0.66 6.92 98.11 4.64
2/8/2023 11:45:00 AM 1.51 34.718 0.594 6.91 98.3 4.68
2/8/2023 12:00:00 PM 1.59 34.862 0.465 6.92 97.97 4.69
2/8/2023 12:15:00 PM 1.67 35.006 0.503 6.94 97.96 4.76
2/8/2023 12:30:00 PM 1.76 35.168 0.541 6.93 97.74 4.75
2/8/2023 12:45:00 PM 1.85 35.33 0.593 6.94 97.6 4.75
2/8/2023 1:00:00 PM 1.94 35.492 0.491 6.93 97.38 4.76
2/8/2023 1:15:00 PM 2.03 35.654 0.328 6.94 97.41 4.78
2/8/2023 1:30:00 PM 2.12 35.816 0.319 6.95 97.38 4.79
2/8/2023 1:45:00 PM 2.21 35.978 0.593 6.92 97.54 4.76
2/8/2023 2:00:00 PM 2.3 36.14 0.633 6.93 97.78 4.79
2/8/2023 2:15:00 PM 2.38 36.284 0.609 6.94 97.86 4.79
2/8/2023 2:30:00 PM 2.46 36.428 0.506 6.94 97.07 4.79
2/8/2023 2:45:00 PM 2.52 36.536 0.533 6.94 97.03 4.76
2/8/2023 3:00:00 PM 2.58 36.644 0.495 6.94 97.1 4.75
2/8/2023 3:15:00 PM 2.64 36.752 0.483 6.94 97.34 4.72
2/8/2023 3:30:00 PM 2.69 36.842 0.465 6.94 97.37 4.66
2/8/2023 3:45:00 PM 2.74 36.932 0.482 6.92 97.07 4.62
2/8/2023 4:00:00 PM 2.77 36.986 0.489 6.93 96.91 4.63
2/8/2023 4:15:00 PM 2.81 37.058 0.487 6.93 96.95 4.57
2/8/2023 4:30:00 PM 2.83 37.094 0.48 6.94 96.89 4.53
2/8/2023 4:45:00 PM 2.85 37.13 0.48 6.92 96.89 4.47
2/8/2023 5:00:00 PM 2.86 37.148 0.478 6.93 96.99 4.44
2/8/2023 5:15:00 PM 2.86 37.148 0.363 6.96 96.42 4.41
2/8/2023 5:30:00 PM 2.85 37.13 0.44 6.93 96.47 4.4
2/8/2023 5:45:00 PM 2.83 37.094 0.477 6.94 96.71 4.39
2/8/2023 6:00:00 PM 2.81 37.058 40.046 6.94 96.85 3.65
2/8/2023 6:15:00 PM 2.78 37.004 36.783 6.93 96.82 3.74
2/8/2023 6:30:00 PM 2.75 36.95 0.464 6.97 96.87 4.34
2/8/2023 6:45:00 PM 2.72 36.896 17.382 6.94 97.08 4.08
2/8/2023 7:00:00 PM 2.68 36.824 0.624 6.93 97.55 4.42
2/8/2023 7:15:00 PM 2.63 36.734 0.414 6.91 97.53 4.42
2/8/2023 7:30:00 PM 2.59 36.662 0.269 6.93 97.76 4.42
2/8/2023 7:45:00 PM 2.54 36.572 0.344 6.91 97.81 4.43
2/8/2023 8:00:00 PM 2.49 36.482 0.43 6.93 98.28 4.42
2/8/2023 8:15:00 PM 2.45 36.41 0.446 6.93 98.29 4.41
2/8/2023 8:30:00 PM 2.41 36.338 0.452 6.93 98.1 4.43
2/8/2023 8:45:00 PM 2.37 36.266 0.466 6.93 97.96 4.41
2/8/2023 9:00:00 PM 2.34 36.212 0.472 6.94 97.68 4.35
2/8/2023 9:15:00 PM 2.3 36.14 0.389 6.93 97.37 4.33
2/8/2023 9:30:00 PM 2.26 36.068 0.438 6.9 97.27 4.36
2/8/2023 9:45:00 PM 2.23 36.014 0.428 6.91 97.91 4.39
2/8/2023 10:00:00 PM 2.19 35.942 0.434 6.93 97.89 4.36
2/8/2023 10:15:00 PM 2.14 35.852 0.478 6.93 97.88 4.31
2/8/2023 10:30:00 PM 2.1 35.78 0.347 6.93 97.57 4.28
2/8/2023 10:45:00 PM 2.05 35.69 0.337 6.95 97.47 4.28
2/8/2023 11:00:00 PM 2 35.6 0.351 6.95 97.7 4.29
2/8/2023 11:15:00 PM 1.95 35.51 0.43 6.94 97.97 4.31
2/8/2023 11:30:00 PM 1.89 35.402 0.284 6.94 97.53 4.3
2/8/2023 11:45:00 PM 1.84 35.312 0.226 6.94 97.55 4.32
2/9/2023 12:00:00 AM 1.78 35.204 0.231 6.95 97.49 4.27
2/9/2023 12:15:00 AM 1.73 35.114 0.236 6.94 97.55 4.33
2/9/2023 12:30:00 AM 1.67 35.006 0.224 6.94 97.54 4.4
2/9/2023 12:45:00 AM 1.62 34.916 0.282 6.96 97.39 4.36
2/9/2023 1:00:00 AM 1.57 34.826 0.184 6.95 97.47 4.4
2/9/2023 1:15:00 AM 1.52 34.736 0.513 6.93 97.46 4.35
2/9/2023 1:30:00 AM 1.47 34.646 0.441 6.94 97.57 4.35
2/9/2023 1:45:00 AM 1.43 34.574 0.473 6.93 97.57 4.32
2/9/2023 2:00:00 AM 1.38 34.484 0.423 6.93 98.03 4.27
2/9/2023 2:15:00 AM 1.34 34.412 2.028 6.93 98.04 4.26
2/9/2023 2:30:00 AM 1.3 34.34 0.547 6.93 98.27 4.24
2/9/2023 2:45:00 AM 1.27 34.286 0.453 6.94 98.26 4.2
2/9/2023 3:00:00 AM 1.23 34.214 0.39 6.95 98.35 4.18
2/9/2023 3:15:00 AM 1.2 34.16 0.44 6.94 98.13 4.15
2/9/2023 3:30:00 AM 1.17 34.106 0.542 6.93 98.14 4.13
2/9/2023 3:45:00 AM 1.14 34.052 0.283 6.95 97.99 4.11
2/9/2023 4:00:00 AM 1.11 33.998 0.44 6.95 97.91 4.11
2/9/2023 4:15:00 AM 1.08 33.944 0.428 6.93 97.7 4.13
2/9/2023 4:30:00 AM 1.06 33.908 0.426 6.9 97.95 4.1
2/9/2023 4:45:00 AM 1.04 33.872 0.412 6.9 98.02 4.03
2/9/2023 5:00:00 AM 1.02 33.836 0.5 6.94 97.9 4.05
2/9/2023 5:15:00 AM 1 33.8 0.446 6.93 98.09 4
2/9/2023 5:30:00 AM 0.98 33.764 0.407 6.91 98.3 4.06
2/9/2023 5:45:00 AM 0.97 33.746 0.462 6.91 98.17 4.06
2/9/2023 6:00:00 AM 0.95 33.71 0.5 6.93 98.08 4.09
2/9/2023 6:15:00 AM 0.94 33.692 0.647 6.91 98.02 4.09
2/9/2023 6:30:00 AM 0.93 33.674 0.197 6.89 97.82 4.07
2/9/2023 6:45:00 AM 0.92 33.656 0.694 6.91 98.16 4.06
2/9/2023 7:00:00 AM 0.92 33.656 0.742 6.89 98.07 4.11
2/9/2023 7:15:00 AM 0.92 33.656 0.708 6.92 98.09 4.08
2/9/2023 7:30:00 AM 0.92 33.656 0.642 6.91 98.27 4.03
2/9/2023 7:45:00 AM 0.92 33.656 1.327 6.92 98.45 3.98
2/9/2023 8:00:00 AM 0.93 33.674 0.767 6.92 98.75 3.99
2/9/2023 8:15:00 AM 0.93 33.674 0.747 6.94 99.14 3.98
2/9/2023 8:30:00 AM 0.94 33.692 0.512 6.93 99.33 3.97
2/9/2023 8:45:00 AM 0.95 33.71 1.698 6.93 99.38 3.91
2/9/2023 9:00:00 AM 0.96 33.728 0.323 6.94 98.95 3.91
2/9/2023 9:15:00 AM 0.97 33.746 0.495 6.95 98.78 3.94
2/9/2023 9:30:00 AM 0.98 33.764 0.396 6.96 98.81 3.98
2/9/2023 9:45:00 AM 0.99 33.782 5.372 6.95 98.79 3.98
2/9/2023 10:00:00 AM 1.01 33.818 3.508 6.92 98.98 3.92
2/9/2023 10:15:00 AM 1.02 33.836 3.461 6.95 98.79 3.87
2/9/2023 10:30:00 AM 1.04 33.872 4.082 6.94 99.1 3.87
2/9/2023 10:45:00 AM 1.05 33.89 2.328 6.94 99.3 3.94
2/9/2023 11:00:00 AM 1.07 33.926 3.007 6.95 99.39 3.88
2/9/2023 11:15:00 AM 1.09 33.962 4.537 6.95 99.54 3.89
2/9/2023 11:30:00 AM 1.11 33.998 0.651 6.94 99 3.88
2/9/2023 11:45:00 AM 1.14 34.052 0.197 6.93 99.09 3.91
2/9/2023 12:00:00 PM 1.16 34.088 0.236 6.94 99.01 3.93
2/9/2023 12:15:00 PM 1.18 34.124 0.554 6.93 98.85 3.91
2/9/2023 12:30:00 PM 1.2 34.16 1.08 6.9 99.27 3.88
2/9/2023 12:45:00 PM 1.22 34.196 1.139 6.94 99.93 3.82
2/9/2023 1:00:00 PM 1.24 34.232 0.625 6.96 100.33 3.84
2/9/2023 1:15:00 PM 1.26 34.268 0.241 6.96 100.37 3.86
2/9/2023 1:30:00 PM 1.28 34.304 0.776 6.96 100.49 3.89
2/9/2023 1:45:00 PM 1.31 34.358 0.643 6.95 100.28 3.94
2/9/2023 2:00:00 PM 1.34 34.412 0.485 6.94 100.45 3.96
2/9/2023 2:15:00 PM 1.37 34.466 0.769 6.95 100.11 3.94
2/9/2023 2:30:00 PM 1.4 34.52 0.321 6.95 99.96 3.97
2/9/2023 2:45:00 PM 1.43 34.574 0.242 6.96 99.79 3.99
2/9/2023 3:00:00 PM 1.47 34.646 0.368 6.97 99.75 3.96
2/9/2023 3:15:00 PM 1.5 34.7 0.484 6.94 99.6 4.03
2/9/2023 3:30:00 PM 1.52 34.736 0.389 6.95 99.41 4.07
2/9/2023 3:45:00 PM 1.55 34.79 0.228 6.93 99.35 3.98
2/9/2023 4:00:00 PM 1.58 34.844 0.652 6.94 99.73 3.97
2/9/2023 4:15:00 PM 1.62 34.916 0.323 6.95 99.78 3.92
2/9/2023 4:30:00 PM 1.65 34.97 0.197 6.94 99.48 3.89
2/9/2023 4:45:00 PM 1.69 35.042 0.213 6.96 99.37 3.78
2/9/2023 5:00:00 PM 1.72 35.096 0.196 6.94 99.75 3.78
2/9/2023 5:15:00 PM 1.75 35.15 0.436 6.95 99.88 3.72
2/9/2023 5:30:00 PM 1.78 35.204 0.395 6.93 100 3.74
2/9/2023 5:45:00 PM 1.8 35.24 0.488 6.94 99.86 3.65
2/9/2023 6:00:00 PM 1.83 35.294 1.434 6.95 99.91 3.64
2/9/2023 6:15:00 PM 1.85 35.33 0.268 6.97 99.94 3.62
2/9/2023 6:30:00 PM 1.87 35.366 0.509 6.96 99.82 3.59
2/9/2023 6:45:00 PM 1.89 35.402 0.457 6.92 99.59 3.59
2/9/2023 7:00:00 PM 1.91 35.438 0.276 6.93 99.54 3.6
2/9/2023 7:15:00 PM 1.93 35.474 0.255 6.93 99.51 3.59
2/9/2023 7:30:00 PM 1.95 35.51 0.457 6.91 99.48 3.53
2/9/2023 7:45:00 PM 1.96 35.528 0.351 6.94 99.74 3.55
2/9/2023 8:00:00 PM 1.97 35.546 0.962 6.93 99.88 3.56
2/9/2023 8:15:00 PM 1.98 35.564 0.232 6.96 99.96 3.58
2/9/2023 8:30:00 PM 1.99 35.582 0.506 6.97 100.04 3.56
2/9/2023 8:45:00 PM 1.99 35.582 0.247 6.96 100.03 3.57
2/9/2023 9:00:00 PM 2 35.6 0.294 6.97 99.85 3.57
2/9/2023 9:15:00 PM 2 35.6 0.205 6.95 99.84 3.55
2/9/2023 9:30:00 PM 2.01 35.618 0.343 6.95 99.88 3.52
2/9/2023 9:45:00 PM 2.01 35.618 0.194 6.93 99.83 3.57
2/9/2023 10:00:00 PM 2.01 35.618 0.294 6.94 99.56 3.58
2/9/2023 10:15:00 PM 2 35.6 0.256 6.95 99.7 3.52
2/9/2023 10:30:00 PM 2 35.6 0.193 6.97 99.82 3.44
2/9/2023 10:45:00 PM 1.99 35.582 0.267 6.96 99.88 3.41
2/9/2023 11:00:00 PM 1.98 35.564 0.208 6.92 99.95 3.43
2/9/2023 11:15:00 PM 1.98 35.564 0.21 6.94 99.88 3.37
2/9/2023 11:30:00 PM 1.97 35.546 0.247 6.94 99.86 3.43
2/9/2023 11:45:00 PM 1.97 35.546 0.35 6.95 100.03 3.48
2/10/2023 12:00:00 AM 1.97 35.546 0.331 6.94 100.23 3.47
2/10/2023 12:15:00 AM 1.96 35.528 0.402 6.95 100.33 3.48
2/10/2023 12:30:00 AM 1.96 35.528 0.225 6.96 100.43 3.51
2/10/2023 12:45:00 AM 1.96 35.528 0.272 6.95 100.4 3.43
2/10/2023 1:00:00 AM 1.96 35.528 1.067 6.96 100.08 3.39
2/10/2023 1:15:00 AM 1.95 35.51 0.392 6.97 100.09 3.42
2/10/2023 1:30:00 AM 1.95 35.51 0.267 6.95 100.07 3.45
2/10/2023 1:45:00 AM 1.95 35.51 0.26 6.94 99.98 3.47
2/10/2023 2:00:00 AM 1.95 35.51 0.267 6.96 100.17 3.37
2/10/2023 2:15:00 AM 1.96 35.528 0.282 6.92 100.06 3.35
2/10/2023 2:30:00 AM 1.95 35.51 0.261 6.95 100.02 3.41
2/10/2023 2:45:00 AM 1.95 35.51 0.228 6.95 100.1 3.39
2/10/2023 3:00:00 AM 1.94 35.492 0.242 6.96 100.08 3.35
2/10/2023 3:15:00 AM 1.93 35.474 0.227 6.95 100.33 3.27
2/10/2023 3:30:00 AM 1.91 35.438 0.245 6.94 100.33 3.26
2/10/2023 3:45:00 AM 1.89 35.402 0.257 6.95 100.3 3.21
2/10/2023 4:00:00 AM 1.87 35.366 0.245 6.9 99.99 3.13
2/10/2023 4:15:00 AM 1.84 35.312 0.205 6.94 99.87 3.15
2/10/2023 4:30:00 AM 1.81 35.258 0.218 6.94 99.99 3.11
2/10/2023 4:45:00 AM 1.78 35.204 0.253 6.94 100.49 3.07
2/10/2023 5:00:00 AM 1.76 35.168 0.264 6.96 100.56 3.06
2/10/2023 5:15:00 AM 1.74 35.132 0.271 6.95 100.5 3.04
2/10/2023 5:30:00 AM 1.73 35.114 0.254 6.95 100.39 3.01
2/10/2023 5:45:00 AM 1.73 35.114 0.261 6.92 100.3 3.07
2/10/2023 6:00:00 AM 1.73 35.114 0.256 6.95 100.25 3.1
2/10/2023 6:15:00 AM 1.74 35.132 0.235 6.95 100.49 3.11
2/10/2023 6:30:00 AM 1.75 35.15 0.251 6.94 100.59 3.14
2/10/2023 6:45:00 AM 1.76 35.168 0.247 6.95 100.56 3.18
2/10/2023 7:00:00 AM 1.77 35.186 0.274 6.94 100.47 3.19
2/10/2023 7:15:00 AM 1.77 35.186 0.27 6.94 100.45 3.22
2/10/2023 7:30:00 AM 1.78 35.204 0.259 6.94 100.43 3.24
2/10/2023 7:45:00 AM 1.78 35.204 0.239 6.96 100.41 3.31
2/10/2023 8:00:00 AM 1.79 35.222 0.284 6.94 100.46 3.28
2/10/2023 8:15:00 AM 1.79 35.222 0.278 6.92 100.55 3.29
2/10/2023 8:30:00 AM 1.8 35.24 0.274 6.94 100.58 3.29
2/10/2023 8:45:00 AM 1.8 35.24 0.265 6.92 100.56 3.3
2/10/2023 9:00:00 AM 1.8 35.24 0.338 6.95 100.67 3.25
2/10/2023 9:15:00 AM 1.81 35.258 0.262 6.92 100.68 3.32
2/10/2023 9:30:00 AM 1.81 35.258 0.272 6.95 100.59 3.33
2/10/2023 9:45:00 AM 1.82 35.276 0.289 6.94 100.49 3.41
2/10/2023 10:00:00 AM 1.83 35.294 0.261 6.94 100.36 3.44
2/10/2023 10:15:00 AM 1.86 35.348 0.373 6.95 100.23 3.49
2/10/2023 10:30:00 AM 1.88 35.384 0.269 6.93 100.19 3.57
2/10/2023 10:45:00 AM 1.91 35.438 0.361 6.95 100.24 3.62
2/10/2023 11:00:00 AM 1.95 35.51 0.302 6.93 100.62 3.55
2/10/2023 11:15:00 AM 1.98 35.564 0.298 6.96 100.87 3.62
2/10/2023 11:30:00 AM 2.02 35.636 0.5 6.95 101.12 3.69
2/10/2023 11:45:00 AM 2.07 35.726 0.293 6.96 101.12 3.75
2/10/2023 12:00:00 PM 2.11 35.798 0.299 6.95 101.02 3.8
2/10/2023 12:15:00 PM 2.16 35.888 0.236 6.94 101.01 3.82
2/10/2023 12:30:00 PM 2.22 35.996 0.292 6.94 100.92 3.77
2/10/2023 12:45:00 PM 2.27 36.086 0.298 6.92 100.95 3.8
2/10/2023 1:00:00 PM 2.33 36.194 0.265 6.96 100.69 3.82
2/10/2023 1:15:00 PM 2.38 36.284 0.237 6.95 100.68 3.79
2/10/2023 1:30:00 PM 2.44 36.392 0.246 6.95 100.72 3.85
2/10/2023 1:45:00 PM 2.49 36.482 0.317 6.93 100.76 3.83
2/10/2023 2:00:00 PM 2.54 36.572 0.302 6.97 100.72 3.83
2/10/2023 2:15:00 PM 2.57 36.626 0.281 6.96 100.8 3.85
2/10/2023 2:30:00 PM 2.6 36.68 0.285 6.96 100.53 3.87
2/10/2023 2:45:00 PM 2.63 36.734 0.231 6.96 99.97 3.82
2/10/2023 3:00:00 PM 2.65 36.77 0.224 6.96 100.09 3.83
2/10/2023 3:15:00 PM 2.65 36.77 0.29 6.97 100.27 3.87
2/10/2023 3:30:00 PM 2.66 36.788 0.297 6.96 100.17 3.84
2/10/2023 3:45:00 PM 2.66 36.788 0.355 6.97 99.97 3.83
2/10/2023 4:00:00 PM 2.65 36.77 0.326 6.97 100.07 3.85
2/10/2023 4:15:00 PM 2.65 36.77 0.325 6.96 100.04 3.8
2/10/2023 4:30:00 PM 2.65 36.77 0.315 6.96 99.95 3.8
2/10/2023 4:45:00 PM 2.65 36.77 0.354 6.98 99.8 3.81
2/10/2023 5:00:00 PM 2.64 36.752 0.306 6.97 99.87 3.79
2/10/2023 5:15:00 PM 2.62 36.716 0.38 6.97 99.86 3.88
2/10/2023 5:30:00 PM 2.6 36.68 0.701 6.96 99.9 3.84
2/10/2023 5:45:00 PM 2.57 36.626 0.469 6.93 99.8 3.79
2/10/2023 6:00:00 PM 2.54 36.572 0.642 6.96 99.84 3.68
2/10/2023 6:15:00 PM 2.51 36.518 0.283 6.96 99.76 3.73
2/10/2023 6:30:00 PM 2.48 36.464 0.258 6.95 99.87 3.63
2/10/2023 6:45:00 PM 2.44 36.392 0.33 6.97 100.02 3.73
2/10/2023 7:00:00 PM 2.4 36.32 0.262 6.96 99.9 3.68
2/10/2023 7:15:00 PM 2.36 36.248 0.61 6.96 99.95 3.69
2/10/2023 7:30:00 PM 2.33 36.194 0.649 6.98 99.95 3.69
2/10/2023 7:45:00 PM 2.29 36.122 0.362 6.96 99.97 3.71
2/10/2023 8:00:00 PM 2.25 36.05 0.254 6.96 100.21 3.79
2/10/2023 8:15:00 PM 2.22 35.996 0.232 6.96 100.26 3.79
2/10/2023 8:30:00 PM 2.18 35.924 0.265 6.96 100.13 3.72
2/10/2023 8:45:00 PM 2.14 35.852 0.307 6.97 100.03 3.85
2/10/2023 9:00:00 PM 2.1 35.78 0.531 6.96 100.12 3.91
2/10/2023 9:15:00 PM 2.06 35.708 0.256 6.96 100.29 3.95
2/10/2023 9:30:00 PM 2.02 35.636 0.241 6.96 100.35 4.02
2/10/2023 9:45:00 PM 1.99 35.582 2.708 6.95 100.29 3.98
2/10/2023 10:00:00 PM 1.96 35.528 0.338 6.97 100.26 4.1
2/10/2023 10:15:00 PM 1.93 35.474 0.305 6.98 100.24 4.1
2/10/2023 10:30:00 PM 1.9 35.42 0.25 6.98 100.17 4.13
2/10/2023 10:45:00 PM 1.86 35.348 0.279 6.99 100.23 4.15
2/10/2023 11:00:00 PM 1.83 35.294 0.273 6.97 100.2 4.23
2/10/2023 11:15:00 PM 1.8 35.24 0.271 6.97 100.11 4.31
2/10/2023 11:30:00 PM 1.76 35.168 0.336 6.97 100.18 4.39
2/10/2023 11:45:00 PM 1.72 35.096 0.298 6.96 100.17 4.45
2/11/2023 12:00:00 AM 1.69 35.042 0.287 6.96 100.29 4.49
2/11/2023 12:15:00 AM 1.65 34.97 0.275 6.97 100.43 4.52
2/11/2023 12:30:00 AM 1.61 34.898 0.27 6.99 100.56 4.56
2/11/2023 12:45:00 AM 1.58 34.844 0.273 6.98 100.7 4.6
2/11/2023 1:00:00 AM 1.54 34.772 0.268 6.98 100.68 4.66
2/11/2023 1:15:00 AM 1.5 34.7 0.268 6.98 100.79 4.69
2/11/2023 1:30:00 AM 1.47 34.646 0.338 6.97 100.93 4.75
2/11/2023 1:45:00 AM 1.43 34.574 0.329 6.95 101 4.79
2/11/2023 2:00:00 AM 1.39 34.502 0.297 6.98 101.26 4.81
2/11/2023 2:15:00 AM 1.36 34.448 0.269 6.98 101.32 4.86
2/11/2023 2:30:00 AM 1.32 34.376 0.269 6.97 101.49 4.92
2/11/2023 2:45:00 AM 1.29 34.322 0.359 6.99 101.59 5.01
2/11/2023 3:00:00 AM 1.26 34.268 0.494 7 101.82 5.03
2/11/2023 3:15:00 AM 1.24 34.232 0.344 7 101.67 5.07
2/11/2023 3:30:00 AM 1.2 34.16 0.368 6.98 101.69 5.1
2/11/2023 3:45:00 AM 1.17 34.106 0.379 7.01 101.65 5.19
2/11/2023 4:00:00 AM 1.13 34.034 0.32 6.97 101.48 5.22
2/11/2023 4:15:00 AM 1.09 33.962 0.339 6.98 101.34 5.23
2/11/2023 4:30:00 AM 1.06 33.908 0.348 6.99 101.35 5.21
2/11/2023 4:45:00 AM 1.02 33.836 0.292 6.99 101.37 5.23
2/11/2023 5:00:00 AM 0.99 33.782 0.304 6.99 101.45 5.24
2/11/2023 5:15:00 AM 0.96 33.728 1.128 6.97 101.53 5.21
2/11/2023 5:30:00 AM 0.93 33.674 0.375 6.99 101.46 5.21
2/11/2023 5:45:00 AM 0.9 33.62 0.345 6.98 101.46 5.12
2/11/2023 6:00:00 AM 0.87 33.566 0.331 6.98 101.55 5.18
2/11/2023 6:15:00 AM 0.85 33.53 0.3 6.98 101.53 5.19
2/11/2023 6:30:00 AM 0.83 33.494 0.297 6.98 101.53 5.22
2/11/2023 6:45:00 AM 0.82 33.476 0.411 6.99 101.69 5.21
2/11/2023 7:00:00 AM 0.81 33.458 0.268 6.99 101.71 5.18
2/11/2023 7:15:00 AM 0.8 33.44 0.295 7.01 101.73 5.27
2/11/2023 7:30:00 AM 0.8 33.44 0.283 6.99 101.57 5.27
2/11/2023 7:45:00 AM 0.8 33.44 0.286 6.99 101.72 5.32
2/11/2023 8:00:00 AM 0.8 33.44 0.264 7 101.63 5.31
2/11/2023 8:15:00 AM 0.8 33.44 0.654 7 101.62 5.26
2/11/2023 8:30:00 AM 0.79 33.422 1.429 7.01 101.79 5.23
2/11/2023 8:45:00 AM 0.8 33.44 0.263 7.01 101.9 5.23
2/11/2023 9:00:00 AM 0.8 33.44 0.244 7.01 101.82 5.27
2/11/2023 9:15:00 AM 0.8 33.44 0.273 7.01 101.42 5.27
2/11/2023 9:30:00 AM 0.81 33.458 0.268 7.02 101.46 5.27
2/11/2023 9:45:00 AM 0.82 33.476 9.72 7.03 101.59 5.25
2/11/2023 10:00:00 AM 0.84 33.512 0.891 7.02 101.43 5.4
2/11/2023 10:15:00 AM 0.86 33.548 24.126 7 101.17 5.02
2/11/2023 10:30:00 AM 0.89 33.602 0.533 7.04 101.17 5.49
2/11/2023 10:45:00 AM 0.92 33.656 0.301 7.01 101.02 5.52
2/11/2023 11:00:00 AM 0.96 33.728 0.36 7.03 100.79 5.57
2/11/2023 11:15:00 AM 1 33.8 0.338 7.02 100.69 5.54
2/11/2023 11:30:00 AM 1.04 33.872 0.299 7.01 100.68 5.52
2/11/2023 11:45:00 AM 1.08 33.944 0.473 7.01 100.48 5.55
2/11/2023 12:00:00 PM 1.14 34.052 0.474 7.03 100.48 5.59
2/11/2023 12:15:00 PM 1.21 34.178 0.594 7.04 100.74 5.65
2/11/2023 12:30:00 PM 1.28 34.304 0.392 7.04 100.73 5.68
2/11/2023 12:45:00 PM 1.37 34.466 0.361 7.03 100.33 5.74
2/11/2023 1:00:00 PM 1.45 34.61 0.355 7.04 100.32 5.83
2/11/2023 1:15:00 PM 1.54 34.772 0.597 7.04 100.4 5.92
2/11/2023 1:30:00 PM 1.64 34.952 0.702 7.03 100.48 5.94
2/11/2023 1:45:00 PM 1.73 35.114 0.381 7.03 100.62 6.03
2/11/2023 2:00:00 PM 1.82 35.276 0.52 7.02 101.15 6.05
2/11/2023 2:15:00 PM 1.92 35.456 0.526 7.04 101.43 6.03
2/11/2023 2:30:00 PM 2.01 35.618 0.363 7.03 101.68 6.05
2/11/2023 2:45:00 PM 2.1 35.78 0.385 7.04 101.77 6.02
2/11/2023 3:00:00 PM 2.19 35.942 0.52 7.06 102.02 6.02
2/11/2023 3:15:00 PM 2.27 36.086 0.477 7.04 102.27 6.03
2/11/2023 3:30:00 PM 2.34 36.212 0.494 7.03 102.19 6.05
2/11/2023 3:45:00 PM 2.4 36.32 0.621 7.03 101.92 6.08
2/11/2023 4:00:00 PM 2.45 36.41 0.514 7.04 101.74 6.13
2/11/2023 4:15:00 PM 2.49 36.482 0.477 7.02 101.92 6.07
2/11/2023 4:30:00 PM 2.52 36.536 0.609 7.02 101.89 6.02
2/11/2023 4:45:00 PM 2.54 36.572 0.455 7.03 101.96 6.01
2/11/2023 5:00:00 PM 2.55 36.59 0.375 7.01 101.69 6.03
2/11/2023 5:15:00 PM 2.55 36.59 0.366 7.01 101.7 6
2/11/2023 5:30:00 PM 2.53 36.554 0.401 7 102.02 5.98
2/11/2023 5:45:00 PM 2.51 36.518 0.347 7.04 102.25 5.91
2/11/2023 6:00:00 PM 2.49 36.482 0.411 7.04 102.08 5.9
2/11/2023 6:15:00 PM 2.46 36.428 0.522 7.02 102.4 5.89
2/11/2023 6:30:00 PM 2.42 36.356 0.525 7.01 102.31 5.9
2/11/2023 6:45:00 PM 2.38 36.284 0.492 7.03 102.37 5.95
2/11/2023 7:00:00 PM 2.33 36.194 0.535 7.02 102.1 6.04
2/11/2023 7:15:00 PM 2.29 36.122 0.548 7.01 101.62 6.11
2/11/2023 7:30:00 PM 2.25 36.05 0.483 7 102.34 6.14
2/11/2023 7:45:00 PM 2.21 35.978 0.626 7 102.35 6.13
2/11/2023 8:00:00 PM 2.18 35.924 0.501 7.02 102.46 6.11
2/11/2023 8:15:00 PM 2.14 35.852 0.497 7.05 102 6.14
2/11/2023 8:30:00 PM 2.1 35.78 0.592 7.02 102.01 6.14
2/11/2023 8:45:00 PM 2.06 35.708 0.517 7 102.18 6.08
2/11/2023 9:00:00 PM 2.01 35.618 0.732 7.01 102.42 6.11
2/11/2023 9:15:00 PM 1.96 35.528 0.507 7.02 102.41 6.13
2/11/2023 9:30:00 PM 1.91 35.438 0.567 7 102.48 6.11
2/11/2023 9:45:00 PM 1.86 35.348 0.579 7.01 102.48 6.1
2/11/2023 10:00:00 PM 1.8 35.24 0.551 7.01 102.59 6.12
2/11/2023 10:15:00 PM 1.75 35.15 0.566 7 102.57 6.09
2/11/2023 10:30:00 PM 1.71 35.078 0.58 7.01 102.61 6.07
2/11/2023 10:45:00 PM 1.66 34.988 0.647 7.01 102.6 6.04
2/11/2023 11:00:00 PM 1.62 34.916 0.615 6.99 102.66 5.98
2/11/2023 11:15:00 PM 1.58 34.844 0.606 7.01 102.79 5.93
2/11/2023 11:30:00 PM 1.54 34.772 0.52 7.01 103.1 5.86
2/11/2023 11:45:00 PM 1.5 34.7 0.676 7.01 103.02 5.84
2/12/2023 12:00:00 AM 1.47 34.646 0.688 7.01 102.97 5.84
2/12/2023 12:15:00 AM 1.43 34.574 0.643 7 102.95 5.82
2/12/2023 12:30:00 AM 1.41 34.538 0.569 7 103.14 5.73
2/12/2023 12:45:00 AM 1.38 34.484 0.624 7.01 103.3 5.68
2/12/2023 1:00:00 AM 1.35 34.43 0.601 7.01 103.43 5.66
2/12/2023 1:15:00 AM 1.33 34.394 0.677 7.01 103.24 5.64
2/12/2023 1:30:00 AM 1.31 34.358 0.653 7.01 103.17 5.58
2/12/2023 1:45:00 AM 1.29 34.322 0.585 7.03 103.11 5.6
2/12/2023 2:00:00 AM 1.27 34.286 0.558 7.01 103.2 5.63
2/12/2023 2:15:00 AM 1.25 34.25 0.565 7.02 103.23 5.63
2/12/2023 2:30:00 AM 1.23 34.214 0.622 6.99 103.14 5.62
2/12/2023 2:45:00 AM 1.22 34.196 0.555 7.02 103.24 5.57
2/12/2023 3:00:00 AM 1.2 34.16 0.308 7.02 103.11 5.55
2/12/2023 3:15:00 AM 1.19 34.142 0.458 7.01 103.21 5.5
2/12/2023 3:30:00 AM 1.17 34.106 0.431 7.02 103.31 5.46
2/12/2023 3:45:00 AM 1.15 34.07 0.509 7.01 102.99 5.44
2/12/2023 4:00:00 AM 1.13 34.034 0.502 7.01 103.02 5.46
2/12/2023 4:15:00 AM 1.12 34.016 0.427 7.02 102.96 5.43
2/12/2023 4:30:00 AM 1.11 33.998 0.404 7.05 102.98 5.44
2/12/2023 4:45:00 AM 1.1 33.98 0.649 7.03 103.2 5.37
2/12/2023 5:00:00 AM 1.08 33.944 0.943 7.04 103.22 5.35
2/12/2023 5:15:00 AM 1.07 33.926 0.721 7.02 103.27 5.31
2/12/2023 5:30:00 AM 1.06 33.908 0.452 7.03 103.3 5.29
2/12/2023 5:45:00 AM 1.05 33.89 0.453 7.02 103.44 5.22
2/12/2023 6:00:00 AM 1.04 33.872 0.439 7.02 103.58 5.29
2/12/2023 6:15:00 AM 1.03 33.854 0.433 7 103.64 5.26
2/12/2023 6:30:00 AM 1.02 33.836 0.44 7.04 103.65 5.33
2/12/2023 6:45:00 AM 1.01 33.818 0.451 7.04 103.77 5.27
2/12/2023 7:00:00 AM 1 33.8 0.418 7.02 103.7 5.23
2/12/2023 7:15:00 AM 1 33.8 0.415 7.04 103.38 5.21
2/12/2023 7:30:00 AM 0.99 33.782 0.507 7.02 103.51 5.2
2/12/2023 7:45:00 AM 0.98 33.764 0.492 7.01 103.7 5.16
2/12/2023 8:00:00 AM 0.98 33.764 0.485 7.01 103.68 5.15
2/12/2023 8:15:00 AM 0.98 33.764 0.627 7.02 103.81 5.1
2/12/2023 8:30:00 AM 0.98 33.764 0.57 7.01 103.76 5.07
2/12/2023 8:45:00 AM 0.98 33.764 0.527 7.02 103.92 5.09
2/12/2023 9:00:00 AM 0.98 33.764 0.63 7 103.74 5.06
2/12/2023 9:15:00 AM 0.99 33.782 0.631 7.01 103.63 5.05
2/12/2023 9:30:00 AM 1 33.8 0.664 7.01 103.68 5.09
2/12/2023 9:45:00 AM 1.02 33.836 0.753 7.02 103.58 5.06
2/12/2023 10:00:00 AM 1.04 33.872 0.588 7.04 103.32 5.02
2/12/2023 10:15:00 AM 1.07 33.926 0.828 7 103.2 5.04
2/12/2023 10:30:00 AM 1.11 33.998 0.791 7.01 103.32 5.04
2/12/2023 10:45:00 AM 1.16 34.088 0.65 7 103.21 5.07
2/12/2023 11:00:00 AM 1.21 34.178 0.751 7.01 103.23 5.19
2/12/2023 11:15:00 AM 1.28 34.304 0.777 7 103.12 5.1
2/12/2023 11:30:00 AM 1.35 34.43 0.82 7 103.12 5.14
2/12/2023 11:45:00 AM 1.42 34.556 0.789 7.02 103.25 5.19
2/12/2023 12:00:00 PM 1.5 34.7 0.84 7.04 103.49 5.19
2/12/2023 12:15:00 PM 1.58 34.844 0.694 7.02 103.49 5.19
2/12/2023 12:30:00 PM 1.67 35.006 0.954 7.04 103.77 5.23
2/12/2023 12:45:00 PM 1.76 35.168 0.703 7.04 103.42 5.16
2/12/2023 1:00:00 PM 1.86 35.348 0.7 7.03 103.23 5.21
2/12/2023 1:15:00 PM 1.96 35.528 0.976 7.05 103.17 5.17
2/12/2023 1:30:00 PM 2.05 35.69 0.872 7.03 103.3 5.12
2/12/2023 1:45:00 PM 2.14 35.852 0.611 7.03 103.59 5.05
2/12/2023 2:00:00 PM 2.23 36.014 2.188 7.03 103.43 4.96
2/12/2023 2:15:00 PM 2.31 36.158 2.687 7.03 103.65 4.92
2/12/2023 2:30:00 PM 2.38 36.284 2.012 7.03 103.12 4.87
2/12/2023 2:45:00 PM 2.46 36.428 1.072 7.02 102.87 4.87
2/12/2023 3:00:00 PM 2.54 36.572 19.938 7.02 102.88 4.78
2/12/2023 3:15:00 PM 2.61 36.698 0.539 7.01 102.93 4.79
2/12/2023 3:30:00 PM 2.67 36.806 0.948 7 102.93 4.77
2/12/2023 3:45:00 PM 2.73 36.914 3.244 7 102.62 4.8
2/12/2023 4:00:00 PM 2.78 37.004 20.997 7 102.9 4.81
2/12/2023 4:15:00 PM 2.82 37.076 18.723 7.02 102.86 4.45
2/12/2023 4:30:00 PM 2.86 37.148 4.248 7.05 102.7 4.63
2/12/2023 4:45:00 PM 2.88 37.184 14.972 7.01 102.84 4.31
2/12/2023 5:00:00 PM 2.9 37.22 0.523 7.04 102.84 4.54
2/12/2023 5:15:00 PM 2.92 37.256 1.249 7.02 102.74 4.43
2/12/2023 5:30:00 PM 2.92 37.256 1.367 7.02 102.58 4.43
2/12/2023 5:45:00 PM 2.91 37.238 1.944 7.01 102.6 4.43
2/12/2023 6:00:00 PM 2.9 37.22 1.124 7 102.7 4.46
2/12/2023 6:15:00 PM 2.88 37.184 1.568 7 102.73 4.5
2/12/2023 6:30:00 PM 2.86 37.148 0.486 6.99 102.62 4.55
2/12/2023 6:45:00 PM 2.82 37.076 9.54 7.01 102.49 4.4
2/12/2023 7:00:00 PM 2.79 37.022 6.838 7.02 102.09 4.48
2/12/2023 7:15:00 PM 2.76 36.968 1.196 7.03 101.88 4.54
2/12/2023 7:30:00 PM 2.72 36.896 1.352 7.02 102.22 4.57
2/12/2023 7:45:00 PM 2.69 36.842 0.465 7.03 102.36 4.59
2/12/2023 8:00:00 PM 2.66 36.788 5.729 7.02 102.34 4.42
2/12/2023 8:15:00 PM 2.62 36.716 0.597 7 102.67 4.63
2/12/2023 8:30:00 PM 2.58 36.644 4.641 7 102.92 4.49
2/12/2023 8:45:00 PM 2.53 36.554 0.586 7.02 103.11 4.56
2/12/2023 9:00:00 PM 2.49 36.482 0.432 7.01 102.86 4.53
2/12/2023 9:15:00 PM 2.45 36.41 0.459 6.99 102.84 4.54
2/12/2023 9:30:00 PM 2.41 36.338 0.375 7 102.71 4.55
2/12/2023 9:45:00 PM 2.36 36.248 0.455 6.98 102.79 4.52
2/12/2023 10:00:00 PM 2.31 36.158 0.352 7.01 102.59 4.51
2/12/2023 10:15:00 PM 2.27 36.086 0.401 7 102.61 4.49
2/12/2023 10:30:00 PM 2.22 35.996 0.346 6.99 102.61 4.54
2/12/2023 10:45:00 PM 2.18 35.924 0.408 7 102.66 4.57
2/12/2023 11:00:00 PM 2.13 35.834 0.427 6.99 102.81 4.61
2/12/2023 11:15:00 PM 2.09 35.762 0.357 6.99 102.78 4.64
2/12/2023 11:30:00 PM 2.05 35.69 0.365 6.99 102.79 4.63
2/12/2023 11:45:00 PM 2.01 35.618 0.415 6.99 102.62 4.6
2/13/2023 12:00:00 AM 1.98 35.564 0.384 7 102.59 4.57
2/13/2023 12:15:00 AM 1.95 35.51 0.387 7 102.62 4.51
2/13/2023 12:30:00 AM 1.92 35.456 0.355 7 102.4 4.49
2/13/2023 12:45:00 AM 1.9 35.42 0.35 7.02 102.02 4.42
2/13/2023 1:00:00 AM 1.87 35.366 0.381 6.98 102.44 4.45
2/13/2023 1:15:00 AM 1.85 35.33 0.474 7 102.37 4.41
2/13/2023 1:30:00 AM 1.83 35.294 0.447 6.98 102.15 4.36
2/13/2023 1:45:00 AM 1.81 35.258 0.396 6.99 102.36 4.33
2/13/2023 2:00:00 AM 1.79 35.222 0.353 6.99 102.52 4.16
2/13/2023 2:15:00 AM 1.77 35.186 0.371 7 102.37 4.11
2/13/2023 2:30:00 AM 1.76 35.168 0.677 6.98 102.26 4.1
2/13/2023 2:45:00 AM 1.74 35.132 0.458 6.98 101.99 4.07
2/13/2023 3:00:00 AM 1.72 35.096 0.45 6.98 101.78 4.05
2/13/2023 3:15:00 AM 1.7 35.06 0.591 6.99 101.68 3.96
2/13/2023 3:30:00 AM 1.68 35.024 0.628 7.02 101.36 3.91
2/13/2023 3:45:00 AM 1.66 34.988 0.406 6.98 101.6 3.93
2/13/2023 4:00:00 AM 1.65 34.97 0.36 6.97 101.6 3.98
2/13/2023 4:15:00 AM 1.63 34.934 0.376 6.98 101.57 3.95
2/13/2023 4:30:00 AM 1.62 34.916 0.347 6.96 101.77 3.95
2/13/2023 4:45:00 AM 1.6 34.88 0.384 6.98 101.59 3.91
2/13/2023 5:00:00 AM 1.59 34.862 0.361 6.97 101.61 3.91
2/13/2023 5:15:00 AM 1.57 34.826 0.332 6.98 101.57 3.86
2/13/2023 5:30:00 AM 1.56 34.808 0.353 6.98 101.53 3.86
2/13/2023 5:45:00 AM 1.54 34.772 0.358 6.97 101.45 3.69
2/13/2023 6:00:00 AM 1.52 34.736 0.342 6.97 101.45 3.68
2/13/2023 6:15:00 AM 1.5 34.7 0.347 6.98 100.97 3.62
2/13/2023 6:30:00 AM 1.48 34.664 0.473 6.97 101.17 3.59
2/13/2023 6:45:00 AM 1.47 34.646 0.364 6.99 101.03 3.56
2/13/2023 7:00:00 AM 1.45 34.61 0.336 7 101.15 3.51
2/13/2023 7:15:00 AM 1.43 34.574 0.386 7.01 101.17 3.51
2/13/2023 7:30:00 AM 1.41 34.538 0.378 7.01 101.42 3.51
2/13/2023 7:45:00 AM 1.4 34.52 0.34 7 101.45 3.48
2/13/2023 8:00:00 AM 1.38 34.484 0.337 7.01 101.68 3.35
2/13/2023 8:15:00 AM 1.36 34.448 0.34 7 101.93 3.29
2/13/2023 8:30:00 AM 1.35 34.43 0.476 6.98 101.74 3.29
2/13/2023 8:45:00 AM 1.33 34.394 0.329 7 101.76 3.3
2/13/2023 9:00:00 AM 1.32 34.376 0.355 7.03 101.42 3.06
2/13/2023 9:15:00 AM 1.32 34.376 0.345 7.01 101.53 3.06
2/13/2023 9:30:00 AM 1.32 34.376 0.357 7 101.74 3.16
2/13/2023 9:45:00 AM 1.33 34.394 0.33 7.01 101.76 3.21
2/13/2023 10:00:00 AM 1.36 34.448 0.789 7 101.69 3.19
2/13/2023 10:15:00 AM 1.41 34.538 0.437 6.99 101.53 3.11
2/13/2023 10:30:00 AM 1.46 34.628 0.265 7 101.57 3.1
2/13/2023 10:45:00 AM 1.53 34.754 0.225 7 101.51 3.19
2/13/2023 11:00:00 AM 1.61 34.898 0.246 7 101.57 3.42
2/13/2023 11:15:00 AM 1.7 35.06 0.256 7.01 101.76 3.62
2/13/2023 11:30:00 AM 1.81 35.258 0.248 7.02 101.84 3.79
2/13/2023 11:45:00 AM 1.93 35.474 0.279 7.03 101.65 3.91
2/13/2023 12:00:00 PM 2.04 35.672 0.304 7 101.8 4.03
2/13/2023 12:15:00 PM 2.17 35.906 0.265 7.02 102.09 4.09
2/13/2023 12:30:00 PM 2.3 36.14 0.262 7.02 102.25 4.18
2/13/2023 12:45:00 PM 2.43 36.374 0.278 7 102.23 4.09
2/13/2023 1:00:00 PM 2.56 36.608 0.251 7.02 102.16 4.05
2/13/2023 1:15:00 PM 2.7 36.86 0.483 7.01 102.07 4.02
2/13/2023 1:30:00 PM 2.83 37.094 0.346 7.02 102.04 3.97
2/13/2023 1:45:00 PM 2.95 37.31 0.383 7.02 101.93 4.02
2/13/2023 2:00:00 PM 3.07 37.526 0.326 7.01 101.99 4.06
2/13/2023 2:15:00 PM 3.18 37.724 0.302 7.02 101.95 4.01
2/13/2023 2:30:00 PM 3.28 37.904 0.296 7.02 101.75 3.91
2/13/2023 2:45:00 PM 3.37 38.066 0.351 7.02 101.84 3.95
2/13/2023 3:00:00 PM 3.46 38.228 0.356 7.02 101.78 3.83
2/13/2023 3:15:00 PM 3.54 38.372 0.311 7.02 101.77 3.74
2/13/2023 3:30:00 PM 3.6 38.48 0.289 7.01 101.61 3.82
2/13/2023 3:45:00 PM 3.66 38.588 0.245 7 101.86 3.83
2/13/2023 4:00:00 PM 3.72 38.696 0.25 7 101.79 3.74
2/13/2023 4:15:00 PM 3.77 38.786 0.292 6.99 101.66 3.78
2/13/2023 4:30:00 PM 3.8 38.84 0.286 7.01 101.42 3.75
2/13/2023 4:45:00 PM 3.83 38.894 0.257 7.01 101.47 3.6
2/13/2023 5:00:00 PM 3.84 38.912 0.264 7.01 101.63 3.52
2/13/2023 5:15:00 PM 3.84 38.912 0.302 7.03 101.25 3.54
2/13/2023 5:30:00 PM 3.84 38.912 0.272 7.01 101.54 3.48
2/13/2023 5:45:00 PM 3.82 38.876 0.236 7.01 101.6 3.3
2/13/2023 6:00:00 PM 3.8 38.84 0.249 7 101.63 3.33
2/13/2023 6:15:00 PM 3.77 38.786 0.227 7 101.84 3.35
2/13/2023 6:30:00 PM 3.73 38.714 0.199 6.98 102 3.33
2/13/2023 6:45:00 PM 3.69 38.642 0.22 6.98 102.04 3.14
2/13/2023 7:00:00 PM 3.64 38.552 0.227 6.99 101.88 3.06
2/13/2023 7:15:00 PM 3.6 38.48 0.203 6.99 101.67 2.96
2/13/2023 7:30:00 PM 3.55 38.39 0.185 6.98 101.66 3.11
2/13/2023 7:45:00 PM 3.5 38.3 0.179 6.97 101.7 3.07
2/13/2023 8:00:00 PM 3.44 38.192 0.167 7 101.55 3.02
2/13/2023 8:15:00 PM 3.38 38.084 0.175 6.98 101.73 3.03
2/13/2023 8:30:00 PM 3.32 37.976 0.179 6.98 101.74 2.98
2/13/2023 8:45:00 PM 3.26 37.868 0.185 6.97 101.82 3.01
2/13/2023 9:00:00 PM 3.2 37.76 0.167 7 101.77 3.07
2/13/2023 9:15:00 PM 3.15 37.67 0.177 6.98 101.76 3.14
2/13/2023 9:30:00 PM 3.09 37.562 0.179 6.98 101.99 3.11
2/13/2023 9:45:00 PM 3.02 37.436 0.172 6.98 101.96 3.18
2/13/2023 10:00:00 PM 2.96 37.328 0.177 6.96 101.69 3.21
2/13/2023 10:15:00 PM 2.89 37.202 0.19 6.97 101.83 2.99
2/13/2023 10:30:00 PM 2.82 37.076 0.218 6.95 101.82 3.18
2/13/2023 10:45:00 PM 2.74 36.932 0.22 6.99 101.81 3.16
2/13/2023 11:00:00 PM 2.67 36.806 0.19 6.97 101.99 3.24
2/13/2023 11:15:00 PM 2.59 36.662 0.191 6.96 101.8 3.22
2/13/2023 11:30:00 PM 2.52 36.536 0.192 6.96 101.74 3.19
2/13/2023 11:45:00 PM 2.46 36.428 0.237 6.97 101.82 3.19
2/14/2023 12:00:00 AM 2.39 36.302 0.182 6.96 101.84 3.17
2/14/2023 12:15:00 AM 2.33 36.194 0.179 6.97 101.72 3.11
2/14/2023 12:30:00 AM 2.26 36.068 0.194 6.97 101.56 3.07
2/14/2023 12:45:00 AM 2.21 35.978 0.184 6.97 101.54 3.02
2/14/2023 1:00:00 AM 2.16 35.888 0.184 6.97 101.46 2.94
2/14/2023 1:15:00 AM 2.11 35.798 0.184 6.97 101.71 2.85
2/14/2023 1:30:00 AM 2.06 35.708 0.301 7.01 101.78 2.74
2/14/2023 1:45:00 AM 2.02 35.636 0.171 6.97 101.73 2.65
2/14/2023 2:00:00 AM 1.98 35.564 0.49 6.98 101.69 2.53
2/14/2023 2:15:00 AM 1.95 35.51 0.199 6.98 101.75 2.48
2/14/2023 2:30:00 AM 1.93 35.474 0.194 6.96 101.83 2.35
2/14/2023 2:45:00 AM 1.91 35.438 0.188 6.97 101.85 2.44
2/14/2023 3:00:00 AM 1.89 35.402 0.191 6.97 101.85 2.45
2/14/2023 3:15:00 AM 1.87 35.366 0.2 6.95 101.88 2.36
2/14/2023 3:30:00 AM 1.84 35.312 0.177 6.95 102.13 2.22
2/14/2023 3:45:00 AM 1.82 35.276 0.178 6.97 102.11 2.11
2/14/2023 4:00:00 AM 1.8 35.24 0.271 6.95 101.84 1.97
2/14/2023 4:15:00 AM 1.78 35.204 0.188 6.97 101.41 1.85
2/14/2023 4:30:00 AM 1.76 35.168 0.25 6.97 101.48 1.75
2/14/2023 4:45:00 AM 1.74 35.132 0.286 6.97 101.44 1.69
2/14/2023 5:00:00 AM 1.72 35.096 0.244 6.94 101.45 1.59
2/14/2023 5:15:00 AM 1.7 35.06 0.19 6.95 101.4 1.58
2/14/2023 5:30:00 AM 1.67 35.006 0.209 6.94 101.43 1.48
2/14/2023 5:45:00 AM 1.65 34.97 0.187 6.96 101.39 1.39
2/14/2023 6:00:00 AM 1.63 34.934 0.192 6.95 101.49 1.36
2/14/2023 6:15:00 AM 1.61 34.898 0.191 6.95 101.45 1.33
2/14/2023 6:30:00 AM 1.59 34.862 0.242 6.94 101.44 1.32
2/14/2023 6:45:00 AM 1.57 34.826 0.238 6.95 101.45 1.24
2/14/2023 7:00:00 AM 1.55 34.79 0.216 6.96 101.4 1.14
2/14/2023 7:15:00 AM 1.53 34.754 0.185 6.94 101.33 1.16
2/14/2023 7:30:00 AM 1.52 34.736 0.177 6.94 101.38 1.16
2/14/2023 7:45:00 AM 1.51 34.718 0.194 6.93 101.51 1.12
2/14/2023 8:00:00 AM 1.49 34.682 0.193 6.93 101.47 1.01
2/14/2023 8:15:00 AM 1.48 34.664 0.176 6.93 101.52 0.92
2/14/2023 8:30:00 AM 1.47 34.646 0.168 6.93 101.57 0.84
2/14/2023 8:45:00 AM 1.46 34.628 0.189 6.91 101.55 0.73
2/14/2023 9:00:00 AM 1.46 34.628 0.184 6.92 101.68 0.71
2/14/2023 9:15:00 AM 1.47 34.646 0.187 6.91 101.71 0.63
2/14/2023 9:30:00 AM 1.48 34.664 0.183 6.9 101.77 0.66
2/14/2023 9:45:00 AM 1.5 34.7 0.188 6.95 101.36 0.65
2/14/2023 10:00:00 AM 1.54 34.772 0.22 6.91 101.28 0.6
2/14/2023 10:15:00 AM 1.59 34.862 0.223 6.94 101.38 0.62
2/14/2023 10:30:00 AM 1.66 34.988 0.209 6.94 101.39 0.72
2/14/2023 10:45:00 AM 1.74 35.132 0.283 6.94 101.35 0.88
2/14/2023 11:00:00 AM 1.83 35.294 0.268 6.95 101.38 1.01
2/14/2023 11:15:00 AM 1.93 35.474 0.205 6.95 101.5 1.19
2/14/2023 11:30:00 AM 2.05 35.69 0.227 6.95 101.52 1.32
2/14/2023 11:45:00 AM 2.18 35.924 0.166 6.95 101.44 1.44
2/14/2023 12:00:00 PM 2.32 36.176 0.201 6.97 101.53 1.47
2/14/2023 12:15:00 PM 2.46 36.428 0.19 6.97 101.38 1.56
2/14/2023 12:30:00 PM 2.61 36.698 0.17 7 101.35 1.64
2/14/2023 12:45:00 PM 2.76 36.968 0.182 6.96 101.37 1.74
2/14/2023 1:00:00 PM 2.92 37.256 0.189 6.96 101.39 1.92
2/14/2023 1:15:00 PM 3.07 37.526 0.175 6.96 101.55 2.03
2/14/2023 1:30:00 PM 3.22 37.796 0.175 6.95 101.68 2.16
2/14/2023 1:45:00 PM 3.36 38.048 0.189 6.95 101.47 2.19
2/14/2023 2:00:00 PM 3.5 38.3 0.183 6.94 101.71 2.11
2/14/2023 2:15:00 PM 3.63 38.534 0.21 6.96 101.53 2.06
2/14/2023 2:30:00 PM 3.75 38.75 0.209 6.96 101.52 2.03
2/14/2023 2:45:00 PM 3.86 38.948 0.23 6.96 101.37 2.03
2/14/2023 3:00:00 PM 3.96 39.128 0.229 6.96 101.24 1.98
2/14/2023 3:15:00 PM 4.06 39.308 0.233 6.96 101.09 2
2/14/2023 3:30:00 PM 4.16 39.488 0.235 6.95 101.25 1.96
2/14/2023 3:45:00 PM 4.25 39.65 0.243 6.97 101.23 1.9
2/14/2023 4:00:00 PM 4.33 39.794 0.198 6.96 101.43 1.75
2/14/2023 4:15:00 PM 4.39 39.902 0.297 6.97 101.32 1.71
2/14/2023 4:30:00 PM 4.43 39.974 0.248 6.95 101.29 1.7
2/14/2023 4:45:00 PM 4.46 40.028 0.254 6.96 101.19 1.56
2/14/2023 5:00:00 PM 4.49 40.082 0.23 6.95 101.25 1.53
2/14/2023 5:15:00 PM 4.5 40.1 0.203 6.96 101.05 1.54
2/14/2023 5:30:00 PM 4.5 40.1 0.211 6.94 101.01 1.56
2/14/2023 5:45:00 PM 4.49 40.082 0.203 6.97 101.03 1.54
2/14/2023 6:00:00 PM 4.47 40.046 0.199 6.98 100.87 1.68
2/14/2023 6:15:00 PM 4.44 39.992 0.211 7 100.86 1.81
2/14/2023 6:30:00 PM 4.41 39.938 0.204 6.97 100.87 1.8
2/14/2023 6:45:00 PM 4.36 39.848 0.241 6.96 100.88 1.76
2/14/2023 7:00:00 PM 4.31 39.758 0.257 6.96 100.84 1.63
2/14/2023 7:15:00 PM 4.25 39.65 0.274 6.95 100.62 1.53
2/14/2023 7:30:00 PM 4.19 39.542 0.306 6.96 100.81 1.48
2/14/2023 7:45:00 PM 4.12 39.416 0.235 6.95 100.95 1.27
2/14/2023 8:00:00 PM 4.05 39.29 0.227 6.96 100.94 1.13
2/14/2023 8:15:00 PM 3.98 39.164 0.276 6.96 101.04 1.11
2/14/2023 8:30:00 PM 3.92 39.056 0.229 6.96 101.1 1.09
2/14/2023 8:45:00 PM 3.86 38.948 0.216 6.99 101.02 1.02
2/14/2023 9:00:00 PM 3.79 38.822 0.194 6.96 100.94 1.07
2/14/2023 9:15:00 PM 3.72 38.696 0.199 6.96 100.96 1.12
2/14/2023 9:30:00 PM 3.66 38.588 0.206 6.94 101.11 1.26
2/14/2023 9:45:00 PM 3.59 38.462 0.186 6.95 101.17 0.99
2/14/2023 10:00:00 PM 3.52 38.336 0.202 6.96 101.19 1.22
2/14/2023 10:15:00 PM 3.45 38.21 0.192 6.97 101.26 0.96
2/14/2023 10:30:00 PM 3.37 38.066 0.191 6.98 101.13 0.86
2/14/2023 10:45:00 PM 3.3 37.94 0.19 6.96 101.1 0.79
2/14/2023 11:00:00 PM 3.21 37.778 0.191 6.96 101.04 0.75
2/14/2023 11:15:00 PM 3.13 37.634 0.187 6.95 100.83 0.99
2/14/2023 11:30:00 PM 3.06 37.508 0.171 7 100.81 1.06
2/14/2023 11:45:00 PM 2.98 37.364 0.185 6.94 100.86 1.05
2/15/2023 12:00:00 AM 2.91 37.238 0.2 6.94 100.9 1.08
2/15/2023 12:15:00 AM 2.85 37.13 0.211 6.93 100.85 1.06
2/15/2023 12:30:00 AM 2.79 37.022 0.201 6.95 100.88 1.04
2/15/2023 12:45:00 AM 2.73 36.914 0.182 6.95 100.9 1
2/15/2023 1:00:00 AM 2.68 36.824 0.181 6.91 101.1 0.99
2/15/2023 1:15:00 AM 2.64 36.752 0.188 6.94 101.19 0.94
2/15/2023 1:30:00 AM 2.6 36.68 0.212 6.94 101.29 0.92
2/15/2023 1:45:00 AM 2.56 36.608 0.276 6.94 101.44 0.9
2/15/2023 2:00:00 AM 2.53 36.554 0.197 6.93 101.47 0.9
2/15/2023 2:15:00 AM 2.5 36.5 0.219 6.97 101.27 0.87
2/15/2023 2:30:00 AM 2.47 36.446 0.209 6.95 101.31 0.84
2/15/2023 2:45:00 AM 2.45 36.41 0.197 6.94 101.41 0.83
2/15/2023 3:00:00 AM 2.43 36.374 0.185 6.95 101.38 0.86
2/15/2023 3:15:00 AM 2.41 36.338 0.18 6.95 101.58 0.89
2/15/2023 3:30:00 AM 2.4 36.32 0.2 6.96 101.51 0.87
2/15/2023 3:45:00 AM 2.39 36.302 0.204 6.95 101.55 0.85
2/15/2023 4:00:00 AM 2.38 36.284 1.387 6.94 101.47 0.72
2/15/2023 4:15:00 AM 2.38 36.284 1.393 6.96 101.41 0.64
2/15/2023 4:30:00 AM 2.38 36.284 0.742 6.91 101.42 0.61
2/15/2023 4:45:00 AM 2.38 36.284 0.292 6.86 101.53 0.57
2/15/2023 5:00:00 AM 2.39 36.302 0.197 6.94 101.42 0.56
2/15/2023 5:15:00 AM 2.4 36.32 0.247 6.92 101.31 0.55
2/15/2023 5:30:00 AM 2.4 36.32 0.199 6.92 101.49 0.56
2/15/2023 5:45:00 AM 2.42 36.356 0.178 6.92 101.62 0.55
2/15/2023 6:00:00 AM 2.43 36.374 0.211 6.92 101.75 0.56
2/15/2023 6:15:00 AM 2.45 36.41 0.204 6.93 101.82 0.56
2/15/2023 6:30:00 AM 2.46 36.428 0.177 6.93 101.86 0.55
2/15/2023 6:45:00 AM 2.48 36.464 0.166 6.9 101.88 0.54
2/15/2023 7:00:00 AM 2.49 36.482 0.189 6.91 101.89 0.54
2/15/2023 7:15:00 AM 2.5 36.5 0.182 6.91 101.81 0.53
2/15/2023 7:30:00 AM 2.51 36.518 0.177 6.92 101.73 0.52
2/15/2023 7:45:00 AM 2.52 36.536 0.162 6.95 101.64 0.52
2/15/2023 8:00:00 AM 2.52 36.536 0.173 6.93 101.53 0.52
2/15/2023 8:15:00 AM 2.53 36.554 0.172 6.93 101.59 0.53
2/15/2023 8:30:00 AM 2.54 36.572 0.177 6.92 101.61 0.54
2/15/2023 8:45:00 AM 2.55 36.59 0.166 6.92 101.71 0.54
2/15/2023 9:00:00 AM 2.56 36.608 0.169 6.91 101.77 0.55
2/15/2023 9:15:00 AM 2.58 36.644 0.175 6.94 101.74 0.56
2/15/2023 9:30:00 AM 2.6 36.68 0.213 6.93 101.79 0.6
2/15/2023 9:45:00 AM 2.62 36.716 0.225 6.93 101.87 0.65
2/15/2023 10:00:00 AM 2.65 36.77 0.221 6.94 101.71 0.71
2/15/2023 10:15:00 AM 2.69 36.842 0.201 6.93 101.62 0.75
2/15/2023 10:30:00 AM 2.73 36.914 0.205 6.96 101.39 0.82
2/15/2023 10:45:00 AM 2.78 37.004 0.19 6.94 101.34 0.98
2/15/2023 11:00:00 AM 2.85 37.13 0.205 6.94 101.41 1.19
2/15/2023 11:15:00 AM 2.92 37.256 0.189 6.95 101.42 1.44
2/15/2023 11:30:00 AM 3.01 37.418 0.224 6.94 101.34 1.64
2/15/2023 11:45:00 AM 3.1 37.58 0.196 6.95 101.18 1.93
2/15/2023 12:00:00 PM 3.2 37.76 0.223 6.94 101.19 2.16
2/15/2023 12:15:00 PM 3.31 37.958 0.194 6.96 101.11 2.39
2/15/2023 12:30:00 PM 3.42 38.156 0.203 6.93 100.98 2.68
2/15/2023 12:45:00 PM 3.55 38.39 0.192 6.94 100.92 2.9
2/15/2023 1:00:00 PM 3.67 38.606 0.183 6.95 101.02 3.16
2/15/2023 1:15:00 PM 3.81 38.858 0.182 6.96 100.67 3.22
2/15/2023 1:30:00 PM 3.96 39.128 0.234 6.94 100.59 3.23
2/15/2023 1:45:00 PM 4.1 39.38 0.202 6.95 100.53 3.3
2/15/2023 2:00:00 PM 4.24 39.632 0.201 6.93 100.51 3.27
2/15/2023 2:15:00 PM 4.39 39.902 0.235 6.95 100.64 3.26
2/15/2023 2:30:00 PM 4.54 40.172 0.26 6.94 100.42 3.27
2/15/2023 2:45:00 PM 4.69 40.442 0.264 6.96 100.22 3.26
2/15/2023 3:00:00 PM 4.84 40.712 0.269 6.96 100.32 3.25
2/15/2023 3:15:00 PM 4.98 40.964 0.207 6.95 100.1 3.2
2/15/2023 3:30:00 PM 5.1 41.18 0.237 6.94 100.04 3.06
2/15/2023 3:45:00 PM 5.23 41.414 0.208 6.96 99.98 3.09
2/15/2023 4:00:00 PM 5.34 41.612 0.171 6.96 100.25 3.12
2/15/2023 4:15:00 PM 5.44 41.792 0.196 6.95 100.09 3.09
2/15/2023 4:30:00 PM 5.52 41.936 0.197 6.94 100.01 2.98
2/15/2023 4:45:00 PM 5.59 42.062 0.204 6.95 99.98 2.86
2/15/2023 5:00:00 PM 5.66 42.188 0.178 6.95 99.9 2.7
2/15/2023 5:15:00 PM 5.72 42.296 0.171 6.93 100.15 2.56
2/15/2023 5:30:00 PM 5.75 42.35 0.17 6.92 100.3 2.45
2/15/2023 5:45:00 PM 5.77 42.386 0.388 6.93 100.52 2.36
2/15/2023 6:00:00 PM 5.76 42.368 0.181 6.92 100.45 2.35
2/15/2023 6:15:00 PM 5.75 42.35 0.168 6.93 100.17 2.29
2/15/2023 6:30:00 PM 5.73 42.314 0.266 6.93 100.16 2.23
2/15/2023 6:45:00 PM 5.7 42.26 0.169 6.94 100.24 2.29
2/15/2023 7:00:00 PM 5.66 42.188 0.177 6.93 100.05 2.26
2/15/2023 7:15:00 PM 5.62 42.116 0.177 6.92 99.92 2.22
2/15/2023 7:30:00 PM 5.58 42.044 0.169 6.93 100.18 2.19
2/15/2023 7:45:00 PM 5.52 41.936 0.18 6.93 100.15 2.17
2/15/2023 8:00:00 PM 5.46 41.828 0.329 6.92 100.27 2.24
2/15/2023 8:15:00 PM 5.4 41.72 0.19 6.93 100.5 2.18
2/15/2023 8:30:00 PM 5.34 41.612 0.162 6.93 100.3 2.11
2/15/2023 8:45:00 PM 5.28 41.504 0.179 6.94 100.1 2.07
2/15/2023 9:00:00 PM 5.22 41.396 0.181 6.93 100.07 1.92
2/15/2023 9:15:00 PM 5.17 41.306 0.155 6.93 100.3 1.86
2/15/2023 9:30:00 PM 5.11 41.198 0.159 6.94 100.28 1.79
2/15/2023 9:45:00 PM 5.06 41.108 0.156 6.93 100.18 1.78
2/15/2023 10:00:00 PM 5 41 0.18 6.92 99.99 1.82
2/15/2023 10:15:00 PM 4.94 40.892 0.157 6.9 99.95 1.8
2/15/2023 10:30:00 PM 4.88 40.784 0.219 6.91 99.89 1.73
2/15/2023 10:45:00 PM 4.81 40.658 0.301 6.9 100.04 1.68
2/15/2023 11:00:00 PM 4.73 40.514 0.217 6.91 99.73 1.69
2/15/2023 11:15:00 PM 4.66 40.388 0.205 6.92 99.81 1.7
2/15/2023 11:30:00 PM 4.58 40.244 0.236 6.92 99.69 1.63
2/15/2023 11:45:00 PM 4.5 40.1 0.273 6.93 99.85 1.65
2/16/2023 12:00:00 AM 4.42 39.956 0.214 6.93 99.69 1.67
2/16/2023 12:15:00 AM 4.34 39.812 0.245 6.93 99.6 1.56
2/16/2023 12:30:00 AM 4.26 39.668 0.231 6.93 99.51 1.5
2/16/2023 12:45:00 AM 4.18 39.524 1.22 6.92 99.45 1.44
2/16/2023 1:00:00 AM 4.1 39.38 0.214 6.93 99.16 1.45
2/16/2023 1:15:00 AM 4.03 39.254 0.203 6.91 98.98 1.38
2/16/2023 1:30:00 AM 3.95 39.11 0.184 6.91 98.99 1.36
2/16/2023 1:45:00 AM 3.88 38.984 0.241 6.91 99.15 1.32
2/16/2023 2:00:00 AM 3.82 38.876 0.253 6.93 98.84 1.3
2/16/2023 2:15:00 AM 3.75 38.75 0.254 6.92 98.71 1.29
2/16/2023 2:30:00 AM 3.68 38.624 0.233 6.93 98.56 1.25
2/16/2023 2:45:00 AM 3.62 38.516 0.221 6.92 98.48 1.23
2/16/2023 3:00:00 AM 3.57 38.426 0.213 6.94 98.52 1.16
2/16/2023 3:15:00 AM 3.52 38.336 0.193 6.93 98.49 1.09
2/16/2023 3:30:00 AM 3.47 38.246 0.222 6.92 98.41 1.01
2/16/2023 3:45:00 AM 3.42 38.156 0.224 6.9 98.37 0.99
2/16/2023 4:00:00 AM 3.38 38.084 0.228 6.91 98.35 0.98
2/16/2023 4:15:00 AM 3.34 38.012 0.429 6.91 98.43 0.96
2/16/2023 4:30:00 AM 3.3 37.94 0.226 6.91 98.48 0.96
2/16/2023 4:45:00 AM 3.27 37.886 0.624 6.93 98.48 0.94
2/16/2023 5:00:00 AM 3.24 37.832 0.207 6.89 98.47 0.93
2/16/2023 5:15:00 AM 3.21 37.778 0.223 6.93 98.56 0.93
2/16/2023 5:30:00 AM 3.18 37.724 0.297 6.9 98.7 0.93
2/16/2023 5:45:00 AM 3.16 37.688 0.324 6.94 98.87 0.93
2/16/2023 6:00:00 AM 3.14 37.652 0.227 6.92 98.79 0.89
2/16/2023 6:15:00 AM 3.12 37.616 0.302 6.9 98.94 0.86
2/16/2023 6:30:00 AM 3.1 37.58 0.539 6.9 98.83 0.88
2/16/2023 6:45:00 AM 3.09 37.562 0.303 6.91 98.88 0.89
2/16/2023 7:00:00 AM 3.07 37.526 0.176 6.9 98.92 0.9
2/16/2023 7:15:00 AM 3.06 37.508 0.324 6.92 99.01 0.93
2/16/2023 7:30:00 AM 3.05 37.49 0.291 6.91 98.91 0.93
2/16/2023 7:45:00 AM 3.04 37.472 3.052 6.9 98.81 0.93
2/16/2023 8:00:00 AM 3.04 37.472 1.246 6.89 98.79 0.92
2/16/2023 8:15:00 AM 3.03 37.454 0.264 6.88 98.81 0.9
2/16/2023 8:30:00 AM 3.03 37.454 0.3 6.9 98.87 0.88
2/16/2023 8:45:00 AM 3.04 37.472 0.833 6.89 98.81 0.89
2/16/2023 9:00:00 AM 3.05 37.49 0.167 6.89 98.83 0.91
2/16/2023 9:15:00 AM 3.07 37.526 0.394 6.89 98.77 0.91
2/16/2023 9:30:00 AM 3.09 37.562 0.389 6.9 98.78 0.88
2/16/2023 9:45:00 AM 3.12 37.616 0.299 6.88 98.92 0.87
2/16/2023 10:00:00 AM 3.15 37.67 0.278 6.89 98.92 0.88
2/16/2023 10:15:00 AM 3.19 37.742 0.485 6.89 98.97 0.89
2/16/2023 10:30:00 AM 3.24 37.832 0.403 6.91 99 0.92
2/16/2023 10:45:00 AM 3.29 37.922 0.258 6.91 99.26 0.96
2/16/2023 11:00:00 AM 3.35 38.03 0.23 6.92 99.33 1.02
2/16/2023 11:15:00 AM 3.41 38.138 0.468 6.93 99.64 1.06
2/16/2023 11:30:00 AM 3.47 38.246 0.932 6.89 99.36 1.08
2/16/2023 11:45:00 AM 3.54 38.372 0.242 6.9 99.5 1.12
2/16/2023 12:00:00 PM 3.62 38.516 0.479 6.89 99.55 1.19
2/16/2023 12:15:00 PM 3.7 38.66 0.314 6.89 99.59 1.23
2/16/2023 12:30:00 PM 3.78 38.804 0.211 6.9 99.49 1.33
2/16/2023 12:45:00 PM 3.86 38.948 0.303 6.89 99.45 1.5
2/16/2023 1:00:00 PM 3.94 39.092 0.265 6.89 99.32 1.56
2/16/2023 1:15:00 PM 4.01 39.218 0.285 6.9 99.12 1.64
2/16/2023 1:30:00 PM 4.08 39.344 0.274 6.9 99.07 1.67
2/16/2023 1:45:00 PM 4.15 39.47 1.755 6.93 99.06 1.73
2/16/2023 2:00:00 PM 4.21 39.578 0.243 6.94 98.99 1.86
2/16/2023 2:15:00 PM 4.25 39.65 0.314 6.93 98.79 1.92
2/16/2023 2:30:00 PM 4.3 39.74 2.039 6.93 98.75 1.97
2/16/2023 2:45:00 PM 4.34 39.812 0.283 6.91 98.78 1.99
2/16/2023 3:00:00 PM 4.37 39.866 0.25 6.92 98.9 1.95
2/16/2023 3:15:00 PM 4.41 39.938 0.565 6.92 98.81 1.95
2/16/2023 3:30:00 PM 4.44 39.992 0.229 6.92 99.12 2.07
2/16/2023 3:45:00 PM 4.47 40.046 0.483 6.92 98.88 2.13
2/16/2023 4:00:00 PM 4.5 40.1 0.391 6.92 98.74 2.18
2/16/2023 4:15:00 PM 4.52 40.136 1.55 6.92 98.52 2.22
2/16/2023 4:30:00 PM 4.55 40.19 0.214 6.91 98.73 2.21
2/16/2023 4:45:00 PM 4.57 40.226 0.241 6.93 98.97 2.22
2/16/2023 5:00:00 PM 4.58 40.244 0.278 6.94 98.94 2.3
2/16/2023 5:15:00 PM 4.6 40.28 0.326 6.92 98.59 2.31
2/16/2023 5:30:00 PM 4.61 40.298 0.246 6.93 98.41 2.39
2/16/2023 5:45:00 PM 4.62 40.316 0.287 6.92 98.46 2.44
2/16/2023 6:00:00 PM 4.63 40.334 0.256 6.93 98.43 2.45
2/16/2023 6:15:00 PM 4.63 40.334 0.417 6.92 98.4 2.47
2/16/2023 6:30:00 PM 4.64 40.352 0.392 6.91 98.32 2.44
2/16/2023 6:45:00 PM 4.65 40.37 0.81 6.91 98.36 2.49
2/16/2023 7:00:00 PM 4.66 40.388 0.68 6.92 98.39 2.53
2/16/2023 7:15:00 PM 4.66 40.388 4.688 6.91 98.29 2.54
2/16/2023 7:30:00 PM 4.66 40.388 1.516 6.94 98.3 2.52
2/16/2023 7:45:00 PM 4.65 40.37 0.51 6.92 98.23 2.64
2/16/2023 8:00:00 PM 4.64 40.352 0.439 6.92 98.19 2.69
2/16/2023 8:15:00 PM 4.63 40.334 0.491 6.91 98.07 2.71
2/16/2023 8:30:00 PM 4.61 40.298 0.587 6.91 98.3 2.73
2/16/2023 8:45:00 PM 4.59 40.262 0.47 6.91 98.17 2.8
2/16/2023 9:00:00 PM 4.58 40.244 1.024 6.92 98.22 2.82
2/16/2023 9:15:00 PM 4.56 40.208 0.774 6.91 98 2.8
2/16/2023 9:30:00 PM 4.55 40.19 0.49 6.91 98.02 2.99
2/16/2023 9:45:00 PM 4.54 40.172 0.466 6.91 97.91 2.96
2/16/2023 10:00:00 PM 4.53 40.154 0.478 6.9 97.63 2.95
2/16/2023 10:15:00 PM 4.52 40.136 0.946 6.93 97.53 2.9
2/16/2023 10:30:00 PM 4.52 40.136 0.516 6.92 97.36 2.9
2/16/2023 10:45:00 PM 4.51 40.118 1.082 6.92 97.45 2.9
2/16/2023 11:00:00 PM 4.51 40.118 0.39 6.92 97.55 2.91
2/16/2023 11:15:00 PM 4.51 40.118 0.253 6.91 97.53 2.87
2/16/2023 11:30:00 PM 4.52 40.136 0.25 6.92 97.81 2.81
2/16/2023 11:45:00 PM 4.52 40.136 0.245 6.92 98.01 2.79
2/17/2023 12:00:00 AM 4.52 40.136 0.267 6.92 97.96 2.92
2/17/2023 12:15:00 AM 4.52 40.136 0.528 6.91 97.76 2.93
2/17/2023 12:30:00 AM 4.53 40.154 0.915 6.91 97.93 2.91
2/17/2023 12:45:00 AM 4.53 40.154 0.408 6.91 97.96 2.89
2/17/2023 1:00:00 AM 4.52 40.136 0.43 6.93 97.79 2.78
2/17/2023 1:15:00 AM 4.52 40.136 0.31 6.92 97.77 2.72
2/17/2023 1:30:00 AM 4.51 40.118 0.244 6.92 97.72 2.76
2/17/2023 1:45:00 AM 4.51 40.118 0.298 6.92 97.76 2.73
2/17/2023 2:00:00 AM 4.51 40.118 0.316 6.93 97.62 2.78
2/17/2023 2:15:00 AM 4.51 40.118 0.29 6.93 97.41 2.79
2/17/2023 2:30:00 AM 4.51 40.118 0.319 6.92 97.57 2.84
2/17/2023 2:45:00 AM 4.5 40.1 0.563 6.92 97.67 2.84
2/17/2023 3:00:00 AM 4.51 40.118 0.341 6.93 97.47 2.81
2/17/2023 3:15:00 AM 4.51 40.118 0.44 6.94 97.54 2.98
2/17/2023 3:30:00 AM 4.5 40.1 0.232 6.92 97.47 3.01
2/17/2023 3:45:00 AM 4.51 40.118 0.407 6.95 97.5 3.08
2/17/2023 4:00:00 AM 4.51 40.118 0.226 6.92 97.43 3.15
2/17/2023 4:15:00 AM 4.51 40.118 0.258 6.92 97.59 3.24
2/17/2023 4:30:00 AM 4.52 40.136 0.191 6.91 97.6 3.34
2/17/2023 4:45:00 AM 4.53 40.154 0.19 6.9 97.75 3.39
2/17/2023 5:00:00 AM 4.54 40.172 0.212 6.89 97.87 3.37
2/17/2023 5:15:00 AM 4.55 40.19 0.199 6.88 97.94 3.37
2/17/2023 5:30:00 AM 4.55 40.19 0.23 6.89 98.04 3.34
2/17/2023 5:45:00 AM 4.55 40.19 0.225 6.89 97.93 3.33
2/17/2023 6:00:00 AM 4.55 40.19 0.231 6.9 97.98 3.38
2/17/2023 6:15:00 AM 4.54 40.172 0.189 6.91 98.03 3.36
2/17/2023 6:30:00 AM 4.54 40.172 0.204 6.93 98.09 3.35
2/17/2023 6:45:00 AM 4.54 40.172 0.24 6.93 97.9 3.35
2/17/2023 7:00:00 AM 4.54 40.172 0.909 6.92 98.25 3.44
2/17/2023 7:15:00 AM 4.54 40.172 0.262 6.92 98.28 3.55
2/17/2023 7:30:00 AM 4.56 40.208 0.24 6.92 98.48 3.52
2/17/2023 7:45:00 AM 4.57 40.226 0.23 6.92 98.39 3.49
2/17/2023 8:00:00 AM 4.59 40.262 0.295 6.92 98.25 3.52
2/17/2023 8:15:00 AM 4.59 40.262 0.189 6.94 98.21 3.58
2/17/2023 8:30:00 AM 4.6 40.28 0.211 6.91 98.19 3.62
2/17/2023 8:45:00 AM 4.61 40.298 0.195 6.9 98.05 3.64
2/17/2023 9:00:00 AM 4.63 40.334 0.219 6.92 98.08 3.68
2/17/2023 9:15:00 AM 4.65 40.37 0.203 6.95 98.04 3.62
2/17/2023 9:30:00 AM 4.66 40.388 0.227 6.93 97.78 3.49
2/17/2023 9:45:00 AM 4.67 40.406 0.189 6.92 97.79 3.51
2/17/2023 10:00:00 AM 4.69 40.442 0.187 6.93 97.76 3.54
2/17/2023 10:15:00 AM 4.71 40.478 0.153 6.93 97.52 3.88
2/17/2023 10:30:00 AM 4.73 40.514 0.154 6.91 97.52 4.01
2/17/2023 10:45:00 AM 4.74 40.532 0.153 6.89 97.53 4.13
2/17/2023 11:00:00 AM 4.76 40.568 0.148 6.92 97.48 4.21
2/17/2023 11:15:00 AM 4.78 40.604 0.158 6.92 97.39 4.32
2/17/2023 11:30:00 AM 4.8 40.64 0.159 6.92 97.21 4.38
2/17/2023 11:45:00 AM 4.84 40.712 0.161 6.92 97.29 4.44
2/17/2023 12:00:00 PM 4.87 40.766 0.154 6.94 97.36 4.39
2/17/2023 12:15:00 PM 4.89 40.802 0.185 6.92 97.28 4.53
2/17/2023 12:30:00 PM 4.92 40.856 0.154 6.93 97.18 4.57
2/17/2023 12:45:00 PM 4.93 40.874 0.16 6.92 97.14 4.64
2/17/2023 1:00:00 PM 4.94 40.892 0.177 6.92 97.08 4.67
2/17/2023 1:15:00 PM 4.95 40.91 0.182 6.93 97.11 4.76
2/17/2023 1:30:00 PM 4.95 40.91 0.167 6.91 97.18 4.88
2/17/2023 1:45:00 PM 4.94 40.892 0.157 6.92 97.24 4.75
2/17/2023 2:00:00 PM 4.94 40.892 0.152 6.92 97.36 4.76
2/17/2023 2:15:00 PM 4.92 40.856 0.15 6.92 97.34 4.78
2/17/2023 2:30:00 PM 4.91 40.838 0.149 6.91 97.33 4.8
2/17/2023 2:45:00 PM 4.89 40.802 0.148 6.95 97.4 4.64
2/17/2023 3:00:00 PM 4.87 40.766 0.155 6.95 97.31 4.65
2/17/2023 3:15:00 PM 4.84 40.712 0.157 6.92 97.29 4.77
2/17/2023 3:30:00 PM 4.82 40.676 0.173 6.91 97.43 4.73
2/17/2023 3:45:00 PM 4.79 40.622 0.172 6.94 97.53 4.77
2/17/2023 4:00:00 PM 4.76 40.568 0.178 6.91 97.38 4.94
2/17/2023 4:15:00 PM 4.73 40.514 0.173 6.9 97.36 5.08
2/17/2023 4:30:00 PM 4.69 40.442 0.192 6.91 97.47 5.2
2/17/2023 4:45:00 PM 4.64 40.352 0.176 6.91 97.58 5.12
2/17/2023 5:00:00 PM 4.58 40.244 0.187 6.9 97.67 5.3
2/17/2023 5:15:00 PM 4.51 40.118 0.166 6.92 97.47 5.19
2/17/2023 5:30:00 PM 4.44 39.992 0.161 6.95 97.56 5.12
2/17/2023 5:45:00 PM 4.35 39.83 0.164 6.92 97.33 5.03
2/17/2023 6:00:00 PM 4.27 39.686 0.159 6.92 97.33 4.88
2/17/2023 6:15:00 PM 4.17 39.506 0.165 6.92 97.32 4.86
2/17/2023 6:30:00 PM 4.07 39.326 0.173 6.94 97.34 4.82
2/17/2023 6:45:00 PM 3.98 39.164 0.178 6.93 97.34 4.8
2/17/2023 7:00:00 PM 3.88 38.984 0.15 6.91 97.21 4.59
2/17/2023 7:15:00 PM 3.77 38.786 0.152 6.92 97.23 4.6
2/17/2023 7:30:00 PM 3.67 38.606 0.197 6.93 97.09 4.62
2/17/2023 7:45:00 PM 3.56 38.408 0.15 6.95 97.01 4.61
2/17/2023 8:00:00 PM 3.46 38.228 0.15 6.9 97.23 4.45
2/17/2023 8:15:00 PM 3.37 38.066 0.159 6.94 97.07 4.54
2/17/2023 8:30:00 PM 3.27 37.886 0.147 6.94 97.01 4.75
2/17/2023 8:45:00 PM 3.18 37.724 0.144 6.94 97.07 4.84
2/17/2023 9:00:00 PM 3.1 37.58 0.139 6.95 97.17 4.89
2/17/2023 9:15:00 PM 3.03 37.454 0.133 6.93 97.2 4.96
2/17/2023 9:30:00 PM 2.95 37.31 0.137 6.94 97.13 5.02
2/17/2023 9:45:00 PM 2.87 37.166 0.133 6.91 97.4 5.23
2/17/2023 10:00:00 PM 2.81 37.058 0.131 6.92 97.26 5.34
2/17/2023 10:15:00 PM 2.75 36.95 0.137 6.93 97.2 5.44
2/17/2023 10:30:00 PM 2.69 36.842 0.141 6.92 97.26 5.41
2/17/2023 10:45:00 PM 2.65 36.77 0.139 6.92 97.4 5.4
2/17/2023 11:00:00 PM 2.6 36.68 0.138 6.94 97.36 5.48
2/17/2023 11:15:00 PM 2.56 36.608 0.134 6.92 97.14 5.65
2/17/2023 11:30:00 PM 2.52 36.536 0.14 6.9 97.2 5.63
2/17/2023 11:45:00 PM 2.48 36.464 0.142 6.9 97.33 5.59
2/18/2023 12:00:00 AM 2.45 36.41 0.143 6.91 97.43 5.59
2/18/2023 12:15:00 AM 2.41 36.338 0.146 6.92 97.72 5.65
2/18/2023 12:30:00 AM 2.39 36.302 0.146 6.9 97.78 5.69
2/18/2023 12:45:00 AM 2.37 36.266 0.161 6.9 97.76 5.86
2/18/2023 1:00:00 AM 2.34 36.212 0.157 6.92 97.91 5.9
2/18/2023 1:15:00 AM 2.31 36.158 0.157 6.93 98.01 5.97
2/18/2023 1:30:00 AM 2.28 36.104 0.154 6.93 98.3 6.03
2/18/2023 1:45:00 AM 2.25 36.05 0.146 6.94 98.45 6.03
2/18/2023 2:00:00 AM 2.22 35.996 0.158 6.93 98.29 6.01
2/18/2023 2:15:00 AM 2.18 35.924 0.186 6.93 98.05 6.14
2/18/2023 2:30:00 AM 2.13 35.834 0.175 6.94 98.16 6.15
2/18/2023 2:45:00 AM 2.09 35.762 0.169 6.94 98.29 6.29
2/18/2023 3:00:00 AM 2.04 35.672 0.159 6.95 98.25 6.48
2/18/2023 3:15:00 AM 1.99 35.582 0.187 6.94 98.4 6.56
2/18/2023 3:30:00 AM 1.94 35.492 0.275 6.93 98.28 6.49
2/18/2023 3:45:00 AM 1.88 35.384 0.204 6.92 98.21 6.47
2/18/2023 4:00:00 AM 1.82 35.276 0.156 6.91 98.11 6.27
2/18/2023 4:15:00 AM 1.75 35.15 0.17 6.93 98.03 6.15
2/18/2023 4:30:00 AM 1.68 35.024 0.173 6.94 98.2 6.03
2/18/2023 4:45:00 AM 1.62 34.916 0.179 6.94 97.94 5.91
2/18/2023 5:00:00 AM 1.56 34.808 0.204 6.92 97.98 5.94
2/18/2023 5:15:00 AM 1.51 34.718 0.153 6.92 97.99 5.81
2/18/2023 5:30:00 AM 1.45 34.61 0.148 6.92 97.89 5.72
2/18/2023 5:45:00 AM 1.39 34.502 0.188 6.92 97.89 5.5
2/18/2023 6:00:00 AM 1.34 34.412 0.16 6.93 97.73 5.31
2/18/2023 6:15:00 AM 1.3 34.34 0.189 6.93 97.83 5.2
2/18/2023 6:30:00 AM 1.26 34.268 0.152 6.92 97.9 5.09
2/18/2023 6:45:00 AM 1.22 34.196 0.167 6.94 97.78 5.14
2/18/2023 7:00:00 AM 1.18 34.124 0.235 6.93 97.72 5.11
2/18/2023 7:15:00 AM 1.15 34.07 0.207 6.95 98 5.12
2/18/2023 7:30:00 AM 1.12 34.016 0.2 6.93 97.75 5.12
2/18/2023 7:45:00 AM 1.09 33.962 0.223 6.94 97.55 5.09
2/18/2023 8:00:00 AM 1.06 33.908 0.154 6.94 97.51 5.1
2/18/2023 8:15:00 AM 1.03 33.854 0.196 6.95 97.43 5.14
2/18/2023 8:30:00 AM 1 33.8 0.147 6.93 97.42 5.11
2/18/2023 8:45:00 AM 0.98 33.764 0.156 6.94 97.57 5.1
2/18/2023 9:00:00 AM 0.97 33.746 0.167 6.94 97.47 5.18
2/18/2023 9:15:00 AM 0.96 33.728 0.161 6.94 97.46 5.27
2/18/2023 9:30:00 AM 0.96 33.728 0.172 6.95 97.29 5.3
2/18/2023 9:45:00 AM 0.96 33.728 0.166 6.96 97.13 5.43
2/18/2023 10:00:00 AM 0.98 33.764 0.156 6.98 97.16 5.55
2/18/2023 10:15:00 AM 1.02 33.836 0.157 6.97 97.23 5.72
2/18/2023 10:30:00 AM 1.06 33.908 0.151 6.96 97.04 6.02
2/18/2023 10:45:00 AM 1.12 34.016 0.138 6.97 96.92 6.33
2/18/2023 11:00:00 AM 1.18 34.124 0.142 6.99 96.74 6.51
2/18/2023 11:15:00 AM 1.26 34.268 0.145 6.98 96.75 6.6
2/18/2023 11:30:00 AM 1.35 34.43 0.162 6.99 96.8 6.81
2/18/2023 11:45:00 AM 1.45 34.61 0.167 6.98 96.8 6.93
2/18/2023 12:00:00 PM 1.56 34.808 0.159 6.98 96.77 7.03
2/18/2023 12:15:00 PM 1.69 35.042 0.148 6.99 96.86 7.03
2/18/2023 12:30:00 PM 1.81 35.258 0.163 6.98 96.92 7.2
2/18/2023 12:45:00 PM 1.93 35.474 0.154 7 97.1 7.34
2/18/2023 1:00:00 PM 2.05 35.69 0.147 6.98 96.99 7.38
2/18/2023 1:15:00 PM 2.17 35.906 0.157 6.99 96.97 7.29
2/18/2023 1:30:00 PM 2.29 36.122 0.156 6.99 97.02 7.24
2/18/2023 1:45:00 PM 2.42 36.356 0.181 6.98 97.12 7.38
2/18/2023 2:00:00 PM 2.54 36.572 0.155 6.98 97.17 7.29
2/18/2023 2:15:00 PM 2.65 36.77 0.138 6.97 97.23 7.21
2/18/2023 2:30:00 PM 2.75 36.95 0.146 6.97 97.26 7.1
2/18/2023 2:45:00 PM 2.85 37.13 0.144 6.97 97.05 7.02
2/18/2023 3:00:00 PM 2.93 37.274 0.153 6.97 96.97 7.01
2/18/2023 3:15:00 PM 3.01 37.418 0.198 6.98 97.01 7.04
2/18/2023 3:30:00 PM 3.09 37.562 0.159 7.01 97.02 7.07
2/18/2023 3:45:00 PM 3.15 37.67 0.153 6.99 96.96 7.13
2/18/2023 4:00:00 PM 3.22 37.796 0.157 6.99 96.77 7.11
2/18/2023 4:15:00 PM 3.28 37.904 0.173 6.98 96.74 7.16
2/18/2023 4:30:00 PM 3.34 38.012 0.158 6.99 96.61 7.11
2/18/2023 4:45:00 PM 3.39 38.102 0.183 6.98 96.64 7.1
2/18/2023 5:00:00 PM 3.44 38.192 0.19 6.97 96.59 7.1
2/18/2023 5:15:00 PM 3.48 38.264 0.202 6.97 96.58 7.09
2/18/2023 5:30:00 PM 3.51 38.318 0.176 6.98 96.52 7.07
2/18/2023 5:45:00 PM 3.52 38.336 0.179 6.96 96.53 7.1
2/18/2023 6:00:00 PM 3.52 38.336 0.166 6.98 96.49 7.15
2/18/2023 6:15:00 PM 3.51 38.318 0.171 7 96.6 7.28
2/18/2023 6:30:00 PM 3.5 38.3 0.172 6.98 96.48 7.3
2/18/2023 6:45:00 PM 3.48 38.264 0.214 6.97 96.38 7.32
2/18/2023 7:00:00 PM 3.47 38.246 0.161 6.98 96.43 7.37
2/18/2023 7:15:00 PM 3.45 38.21 0.146 6.98 96.5 7.48
2/18/2023 7:30:00 PM 3.43 38.174 0.15 6.99 96.51 7.62
2/18/2023 7:45:00 PM 3.42 38.156 0.156 6.98 96.37 7.56
2/18/2023 8:00:00 PM 3.4 38.12 0.14 7.01 96.33 7.53
2/18/2023 8:15:00 PM 3.39 38.102 0.144 6.99 96.42 7.6
2/18/2023 8:30:00 PM 3.38 38.084 0.145 7 96.42 7.64
2/18/2023 8:45:00 PM 3.37 38.066 0.157 7 96.41 7.6
2/18/2023 9:00:00 PM 3.36 38.048 0.137 7 96.56 7.55
2/18/2023 9:15:00 PM 3.35 38.03 0.144 7 96.45 7.55
2/18/2023 9:30:00 PM 3.33 37.994 0.135 7 96.46 7.5
2/18/2023 9:45:00 PM 3.3 37.94 0.128 7.01 96.47 7.51
2/18/2023 10:00:00 PM 3.28 37.904 0.121 7.01 96.54 7.56
2/18/2023 10:15:00 PM 3.24 37.832 0.121 6.99 96.55 7.54
2/18/2023 10:30:00 PM 3.2 37.76 0.141 6.98 96.47 7.59
2/18/2023 10:45:00 PM 3.16 37.688 0.123 6.98 96.47 7.52
2/18/2023 11:00:00 PM 3.12 37.616 0.128 7 96.45 7.49
2/18/2023 11:15:00 PM 3.07 37.526 0.123 7 96.39 7.4
2/18/2023 11:30:00 PM 3.03 37.454 0.124 6.99 96.39 7.35
2/18/2023 11:45:00 PM 2.99 37.382 0.127 6.97 96.54 7.29
2/19/2023 12:00:00 AM 2.94 37.292 0.129 7 96.39 7.29
2/19/2023 12:15:00 AM 2.9 37.22 0.129 6.99 96.28 7.25
2/19/2023 12:30:00 AM 2.86 37.148 0.133 6.99 96.28 7.28
2/19/2023 12:45:00 AM 2.82 37.076 0.13 6.99 96.51 7.25
2/19/2023 1:00:00 AM 2.79 37.022 0.132 6.98 96.46 7.2
2/19/2023 1:15:00 AM 2.76 36.968 0.135 6.98 96.38 7.19
2/19/2023 1:30:00 AM 2.73 36.914 0.139 6.97 96.25 7.2
2/19/2023 1:45:00 AM 2.7 36.86 0.134 6.97 96.25 7.3
2/19/2023 2:00:00 AM 2.66 36.788 0.141 6.97 96.52 7.39
2/19/2023 2:15:00 AM 2.64 36.752 0.135 6.95 96.52 7.37
2/19/2023 2:30:00 AM 2.62 36.716 0.135 6.99 96.71 7.29
2/19/2023 2:45:00 AM 2.6 36.68 0.135 6.97 96.64 7.27
2/19/2023 3:00:00 AM 2.58 36.644 0.14 6.97 96.8 7.25
2/19/2023 3:15:00 AM 2.57 36.626 0.142 6.97 96.89 7.29
2/19/2023 3:30:00 AM 2.56 36.608 0.157 6.96 96.95 7.24
2/19/2023 3:45:00 AM 2.56 36.608 0.158 6.96 97.03 7.24
2/19/2023 4:00:00 AM 2.56 36.608 0.168 6.98 96.97 7.22
2/19/2023 4:15:00 AM 2.56 36.608 0.17 6.98 97.05 7.22
2/19/2023 4:30:00 AM 2.56 36.608 0.177 6.98 97.09 7.19
2/19/2023 4:45:00 AM 2.56 36.608 0.173 6.98 97.09 7.19
2/19/2023 5:00:00 AM 2.56 36.608 0.167 6.98 97.11 7.18
2/19/2023 5:15:00 AM 2.56 36.608 0.168 7 97.26 7.23
2/19/2023 5:30:00 AM 2.56 36.608 0.172 6.97 97.01 7.25
2/19/2023 5:45:00 AM 2.57 36.626 0.165 6.97 96.93 7.18
2/19/2023 6:00:00 AM 2.58 36.644 0.171 6.98 96.9 7.09
2/19/2023 6:15:00 AM 2.6 36.68 0.158 6.98 96.87 7.11
2/19/2023 6:30:00 AM 2.61 36.698 0.182 6.97 96.86 7.02
2/19/2023 6:45:00 AM 2.63 36.734 0.189 6.98 96.88 6.94
2/19/2023 7:00:00 AM 2.65 36.77 0.208 6.99 96.88 6.86
2/19/2023 7:15:00 AM 2.67 36.806 0.184 6.98 96.78 6.8
2/19/2023 7:30:00 AM 2.68 36.824 0.192 6.98 96.83 6.79
2/19/2023 7:45:00 AM 2.68 36.824 0.186 6.99 96.78 6.78
2/19/2023 8:00:00 AM 2.68 36.824 0.174 7 96.86 6.78
2/19/2023 8:15:00 AM 2.69 36.842 0.171 7 96.86 6.8
2/19/2023 8:30:00 AM 2.69 36.842 0.618 7 96.76 6.83
2/19/2023 8:45:00 AM 2.7 36.86 0.184 6.99 96.76 6.91
2/19/2023 9:00:00 AM 2.71 36.878 0.165 6.98 96.76 6.96
2/19/2023 9:15:00 AM 2.72 36.896 0.198 6.98 96.84 6.95
2/19/2023 9:30:00 AM 2.74 36.932 0.195 7 96.91 6.89
2/19/2023 9:45:00 AM 2.76 36.968 0.187 6.99 96.91 6.91
2/19/2023 10:00:00 AM 2.78 37.004 0.234 6.99 97 6.92
2/19/2023 10:15:00 AM 2.81 37.058 0.247 6.99 96.94 6.95
2/19/2023 10:30:00 AM 2.84 37.112 0.25 6.97 96.94 6.87
2/19/2023 10:45:00 AM 2.87 37.166 0.225 6.99 96.93 6.79
2/19/2023 11:00:00 AM 2.91 37.238 0.24 7 96.79 6.83
2/19/2023 11:15:00 AM 2.96 37.328 0.211 6.99 96.7 6.85
2/19/2023 11:30:00 AM 3.01 37.418 0.198 6.98 96.66 6.84
2/19/2023 11:45:00 AM 3.05 37.49 0.206 6.98 96.73 6.83
2/19/2023 12:00:00 PM 3.09 37.562 0.176 6.97 96.76 6.83
2/19/2023 12:15:00 PM 3.14 37.652 0.175 6.97 96.68 6.81
2/19/2023 12:30:00 PM 3.2 37.76 0.144 6.98 96.64 6.86
2/19/2023 12:45:00 PM 3.26 37.868 0.144 6.98 96.72 6.88
2/19/2023 1:00:00 PM 3.33 37.994 0.155 6.98 96.77 6.85
2/19/2023 1:15:00 PM 3.39 38.102 0.163 6.99 96.56 6.85
2/19/2023 1:30:00 PM 3.44 38.192 0.148 6.99 96.73 6.87
2/19/2023 1:45:00 PM 3.5 38.3 0.152 6.98 96.57 6.84
2/19/2023 2:00:00 PM 3.54 38.372 0.148 7 96.72 6.96
2/19/2023 2:15:00 PM 3.57 38.426 0.147 6.99 96.84 6.99
2/19/2023 2:30:00 PM 3.6 38.48 0.151 7.01 96.88 7.02
2/19/2023 2:45:00 PM 3.64 38.552 0.153 7 96.84 7.12
2/19/2023 3:00:00 PM 3.68 38.624 0.153 7 96.85 7.17
2/19/2023 3:15:00 PM 3.73 38.714 0.156 6.98 96.88 7.12
2/19/2023 3:30:00 PM 3.77 38.786 0.161 6.99 96.88 7.1
2/19/2023 3:45:00 PM 3.82 38.876 0.154 6.99 96.86 7.06
2/19/2023 4:00:00 PM 3.86 38.948 0.171 6.98 96.85 7
2/19/2023 4:15:00 PM 3.9 39.02 0.159 7 96.96 7.02
2/19/2023 4:30:00 PM 3.95 39.11 0.168 7 96.83 7.09
2/19/2023 4:45:00 PM 3.99 39.182 0.17 6.97 96.73 7.08
2/19/2023 5:00:00 PM 4.02 39.236 0.161 6.98 96.81 7.06
2/19/2023 5:15:00 PM 4.05 39.29 0.163 7 97 7.11
2/19/2023 5:30:00 PM 4.07 39.326 0.143 7 96.98 7.14
2/19/2023 5:45:00 PM 4.09 39.362 0.162 7.01 97.06 7.1
2/19/2023 6:00:00 PM 4.11 39.398 0.167 6.96 96.96 7.11
2/19/2023 6:15:00 PM 4.12 39.416 0.167 6.99 96.97 7.13
2/19/2023 6:30:00 PM 4.13 39.434 0.175 6.98 96.85 7.16
2/19/2023 6:45:00 PM 4.14 39.452 0.17 6.98 96.95 6.96
2/19/2023 7:00:00 PM 4.14 39.452 0.177 7 96.94 6.98
2/19/2023 7:15:00 PM 4.13 39.434 0.167 6.97 96.84 6.92
2/19/2023 7:30:00 PM 4.13 39.434 0.18 6.98 96.79 6.95
2/19/2023 7:45:00 PM 4.11 39.398 0.183 6.98 96.83 7.01
2/19/2023 8:00:00 PM 4.09 39.362 0.182 6.99 96.77 6.98
2/19/2023 8:15:00 PM 4.07 39.326 0.172 6.98 96.89 6.99
2/19/2023 8:30:00 PM 4.05 39.29 0.185 6.99 96.89 7
2/19/2023 8:45:00 PM 4.02 39.236 0.147 6.97 96.89 7.07
2/19/2023 9:00:00 PM 3.99 39.182 0.147 6.97 96.91 7.16
2/19/2023 9:15:00 PM 3.96 39.128 0.155 6.97 96.85 7.12
2/19/2023 9:30:00 PM 3.93 39.074 0.175 6.97 96.89 7.06
2/19/2023 9:45:00 PM 3.89 39.002 0.164 7 97.06 7.03
2/19/2023 10:00:00 PM 3.84 38.912 0.144 6.97 96.99 7.05
2/19/2023 10:15:00 PM 3.8 38.84 0.146 6.97 96.86 7
2/19/2023 10:30:00 PM 3.75 38.75 0.147 6.95 96.85 6.97
2/19/2023 10:45:00 PM 3.7 38.66 0.159 6.97 96.83 6.99
2/19/2023 11:00:00 PM 3.66 38.588 0.22 6.95 96.64 6.92
2/19/2023 11:15:00 PM 3.61 38.498 0.182 6.96 96.66 6.82
2/19/2023 11:30:00 PM 3.55 38.39 0.154 6.97 96.65 6.73
2/19/2023 11:45:00 PM 3.5 38.3 0.161 6.97 96.56 6.76
2/20/2023 12:00:00 AM 3.46 38.228 0.165 6.93 96.51 6.72
2/20/2023 12:15:00 AM 3.41 38.138 0.164 6.95 96.46 6.74
2/20/2023 12:30:00 AM 3.36 38.048 0.15 7.01 96.75 6.72
2/20/2023 12:45:00 AM 3.32 37.976 0.187 6.96 96.75 6.67
2/20/2023 1:00:00 AM 3.28 37.904 0.257 6.95 96.71 6.6
2/20/2023 1:15:00 AM 3.25 37.85 0.222 6.95 96.67 6.52
2/20/2023 1:30:00 AM 3.21 37.778 0.29 6.95 96.73 6.5
2/20/2023 1:45:00 AM 3.18 37.724 0.159 6.96 96.63 6.42
2/20/2023 2:00:00 AM 3.15 37.67 0.184 6.96 96.57 6.4
2/20/2023 2:15:00 AM 3.11 37.598 0.188 6.96 96.48 6.39
2/20/2023 2:30:00 AM 3.09 37.562 0.158 6.94 96.67 6.33
2/20/2023 2:45:00 AM 3.06 37.508 0.264 6.94 96.69 6.3
2/20/2023 3:00:00 AM 3.03 37.454 0.233 6.93 96.66 6.29
2/20/2023 3:15:00 AM 3 37.4 0.237 6.96 96.67 6.36
2/20/2023 3:30:00 AM 2.96 37.328 0.291 6.95 96.53 6.35
2/20/2023 3:45:00 AM 2.93 37.274 0.303 6.94 96.56 6.42
2/20/2023 4:00:00 AM 2.9 37.22 0.289 6.98 96.61 6.46
2/20/2023 4:15:00 AM 2.88 37.184 0.268 6.97 96.5 6.41
2/20/2023 4:30:00 AM 2.85 37.13 0.222 6.96 96.4 6.3
2/20/2023 4:45:00 AM 2.82 37.076 0.206 6.95 96.42 6.23
2/20/2023 5:00:00 AM 2.8 37.04 0.161 6.95 96.44 6.21
2/20/2023 5:15:00 AM 2.77 36.986 0.162 6.96 96.5 6.15
2/20/2023 5:30:00 AM 2.75 36.95 0.19 6.97 96.45 6.19
2/20/2023 5:45:00 AM 2.73 36.914 0.142 6.96 96.6 6.19
2/20/2023 6:00:00 AM 2.71 36.878 0.151 6.98 96.61 6.12
2/20/2023 6:15:00 AM 2.7 36.86 0.131 6.94 96.56 6.14
2/20/2023 6:30:00 AM 2.7 36.86 0.127 6.96 96.6 6.03
2/20/2023 6:45:00 AM 2.69 36.842 0.127 6.94 96.57 6.02
2/20/2023 7:00:00 AM 2.68 36.824 0.145 6.94 96.58 6.08
2/20/2023 7:15:00 AM 2.68 36.824 0.152 6.94 96.7 6.09
2/20/2023 7:30:00 AM 2.67 36.806 0.135 6.93 96.83 5.99
2/20/2023 7:45:00 AM 2.66 36.788 0.119 6.96 96.72 5.95
2/20/2023 8:00:00 AM 2.65 36.77 0.117 6.95 96.74 5.89
2/20/2023 8:15:00 AM 2.63 36.734 0.114 6.96 96.69 5.84
2/20/2023 8:30:00 AM 2.63 36.734 0.117 6.95 96.73 5.8
2/20/2023 8:45:00 AM 2.64 36.752 0.119 6.97 96.8 5.81
2/20/2023 9:00:00 AM 2.65 36.77 0.121 6.94 96.63 5.71
2/20/2023 9:15:00 AM 2.66 36.788 0.124 6.96 96.69 5.77
2/20/2023 9:30:00 AM 2.69 36.842 0.117 6.95 96.57 5.64
2/20/2023 9:45:00 AM 2.71 36.878 0.115 6.96 96.55 5.65
2/20/2023 10:00:00 AM 2.74 36.932 0.116 6.96 96.57 5.59
2/20/2023 10:15:00 AM 2.77 36.986 0.117 6.96 96.65 5.7
2/20/2023 10:30:00 AM 2.79 37.022 0.124 6.96 96.71 5.74
2/20/2023 10:45:00 AM 2.81 37.058 0.121 6.96 96.67 5.67
2/20/2023 11:00:00 AM 2.84 37.112 0.126 6.96 96.64 5.68
2/20/2023 11:15:00 AM 2.87 37.166 0.128 6.96 96.7 5.71
2/20/2023 11:30:00 AM 2.91 37.238 0.119 6.97 96.73 5.77
2/20/2023 11:45:00 AM 2.96 37.328 0.122 6.97 96.67 5.7
2/20/2023 12:00:00 PM 3.02 37.436 0.125 6.96 96.66 6.02
2/20/2023 12:15:00 PM 3.09 37.562 0.126 6.98 96.64 6.19
2/20/2023 12:30:00 PM 3.16 37.688 0.126 6.96 96.59 6.52
2/20/2023 12:45:00 PM 3.24 37.832 0.125 6.97 96.6 6.57
2/20/2023 1:00:00 PM 3.32 37.976 0.134 6.95 96.67 6.52
2/20/2023 1:15:00 PM 3.39 38.102 0.125 6.95 96.78 6.54
2/20/2023 1:30:00 PM 3.46 38.228 0.126 6.95 96.73 6.67
2/20/2023 1:45:00 PM 3.52 38.336 0.127 6.94 96.57 6.65
2/20/2023 2:00:00 PM 3.58 38.444 0.139 6.96 96.43 6.63
2/20/2023 2:15:00 PM 3.66 38.588 0.133 6.98 96.43 6.59
2/20/2023 2:30:00 PM 3.75 38.75 0.132 6.97 96.26 6.58
2/20/2023 2:45:00 PM 3.84 38.912 0.138 6.96 96.23 6.58
2/20/2023 3:00:00 PM 3.93 39.074 0.133 6.95 96.35 6.59
2/20/2023 3:15:00 PM 4.04 39.272 0.128 6.94 96.33 6.46
2/20/2023 3:30:00 PM 4.15 39.47 0.125 6.96 96.39 6.39
2/20/2023 3:45:00 PM 4.24 39.632 0.116 6.95 96.43 6.44
2/20/2023 4:00:00 PM 4.33 39.794 0.115 6.95 96.42 6.42
2/20/2023 4:15:00 PM 4.4 39.92 0.115 6.94 96.5 6.43
2/20/2023 4:30:00 PM 4.46 40.028 0.114 6.94 96.53 6.43
2/20/2023 4:45:00 PM 4.51 40.118 0.122 6.95 96.35 6.36
2/20/2023 5:00:00 PM 4.54 40.172 0.115 7 96.5 6.26
2/20/2023 5:15:00 PM 4.57 40.226 0.122 6.95 96.35 6.21
2/20/2023 5:30:00 PM 4.6 40.28 0.131 6.95 96.15 6.23
2/20/2023 5:45:00 PM 4.61 40.298 0.125 6.94 96.15 6.19
2/20/2023 6:00:00 PM 4.62 40.316 0.121 6.94 96.38 6.08
2/20/2023 6:15:00 PM 4.61 40.298 0.112 6.93 96.32 5.88
2/20/2023 6:30:00 PM 4.6 40.28 0.115 6.93 96.18 5.89
2/20/2023 6:45:00 PM 4.59 40.262 0.115 6.95 96.26 5.98
2/20/2023 7:00:00 PM 4.58 40.244 0.109 6.94 96.33 6.61
2/20/2023 7:15:00 PM 4.56 40.208 0.107 6.93 96.45 7.11
2/20/2023 7:30:00 PM 4.55 40.19 0.109 6.93 96.42 7.29
2/20/2023 7:45:00 PM 4.53 40.154 0.107 6.96 96.4 7.45
2/20/2023 8:00:00 PM 4.51 40.118 0.103 6.93 96.34 7.51
2/20/2023 8:15:00 PM 4.5 40.1 0.103 6.94 96.29 7.6
2/20/2023 8:30:00 PM 4.47 40.046 0.106 6.94 96.37 7.73
2/20/2023 8:45:00 PM 4.44 39.992 0.104 6.93 96.35 7.72
2/20/2023 9:00:00 PM 4.41 39.938 0.104 6.94 96.4 7.71
2/20/2023 9:15:00 PM 4.37 39.866 0.108 6.91 96.36 7.8
2/20/2023 9:30:00 PM 4.33 39.794 0.105 6.94 96.37 7.85
2/20/2023 9:45:00 PM 4.29 39.722 0.104 6.93 96.42 7.93
2/20/2023 10:00:00 PM 4.25 39.65 0.099 6.93 96.31 7.98
2/20/2023 10:15:00 PM 4.2 39.56 0.097 6.95 96.36 7.95
2/20/2023 10:30:00 PM 4.15 39.47 0.092 6.95 96.44 7.94
2/20/2023 10:45:00 PM 4.1 39.38 0.096 6.92 96.31 7.98
2/20/2023 11:00:00 PM 4.05 39.29 0.101 6.92 96.36 8.09
2/20/2023 11:15:00 PM 4.01 39.218 0.095 6.92 96.5 8.1
2/20/2023 11:30:00 PM 3.97 39.146 0.103 6.92 96.52 8.09
2/20/2023 11:45:00 PM 3.93 39.074 0.107 6.93 96.63 8.16
2/21/2023 12:00:00 AM 3.89 39.002 0.097 6.93 96.6 8.1
2/21/2023 12:15:00 AM 3.85 38.93 0.097 6.93 96.53 8.15
2/21/2023 12:30:00 AM 3.81 38.858 0.097 6.94 96.56 8.13
2/21/2023 12:45:00 AM 3.78 38.804 0.098 6.94 96.46 8.06
2/21/2023 1:00:00 AM 3.74 38.732 0.098 6.92 96.58 8.12
2/21/2023 1:15:00 AM 3.7 38.66 0.099 6.95 96.77 8.13
2/21/2023 1:30:00 AM 3.65 38.57 0.101 6.93 96.64 8.05
2/21/2023 1:45:00 AM 3.61 38.498 0.102 6.93 96.64 8.19
2/21/2023 2:00:00 AM 3.57 38.426 0.104 6.93 96.68 8.21
2/21/2023 2:15:00 AM 3.52 38.336 0.104 6.94 96.62 8.18
2/21/2023 2:30:00 AM 3.47 38.246 0.104 6.94 96.66 8.22
2/21/2023 2:45:00 AM 3.43 38.174 0.101 6.94 96.66 8.25
2/21/2023 3:00:00 AM 3.38 38.084 0.099 6.94 96.73 8.28
2/21/2023 3:15:00 AM 3.34 38.012 0.099 6.95 96.68 8.2
2/21/2023 3:30:00 AM 3.3 37.94 0.1 6.93 96.71 8.24
2/21/2023 3:45:00 AM 3.26 37.868 0.097 6.93 96.7 8.18
2/21/2023 4:00:00 AM 3.22 37.796 0.097 6.95 96.73 8.18
2/21/2023 4:15:00 AM 3.18 37.724 0.099 6.93 96.67 8.08
2/21/2023 4:30:00 AM 3.15 37.67 0.099 6.93 96.62 8.06
2/21/2023 4:45:00 AM 3.12 37.616 0.101 6.93 96.67 8.03
2/21/2023 5:00:00 AM 3.08 37.544 0.102 6.92 96.72 8.02
2/21/2023 5:15:00 AM 3.05 37.49 0.102 6.93 96.67 7.95
2/21/2023 5:30:00 AM 3.03 37.454 0.101 6.93 96.64 7.97
2/21/2023 5:45:00 AM 3.02 37.436 0.099 6.92 96.65 8.01
2/21/2023 6:00:00 AM 3.01 37.418 0.101 6.94 96.85 7.93
2/21/2023 6:15:00 AM 3.01 37.418 0.108 6.92 96.72 7.79
2/21/2023 6:30:00 AM 3 37.4 0.107 6.92 96.6 7.87
2/21/2023 6:45:00 AM 3 37.4 0.106 6.94 96.72 7.85
2/21/2023 7:00:00 AM 3 37.4 0.101 6.93 96.52 7.83
2/21/2023 7:15:00 AM 2.99 37.382 0.099 6.92 96.52 7.83
2/21/2023 7:30:00 AM 2.98 37.364 0.095 6.92 96.53 7.81
2/21/2023 7:45:00 AM 2.98 37.364 0.096 6.92 96.44 7.76
2/21/2023 8:00:00 AM 2.97 37.346 0.094 6.92 96.36 7.72
2/21/2023 8:15:00 AM 2.96 37.328 0.094 6.92 96.36 7.71
2/21/2023 8:30:00 AM 2.95 37.31 0.095 6.93 96.36 7.67
2/21/2023 8:45:00 AM 2.94 37.292 0.099 6.93 96.43 7.63
2/21/2023 9:00:00 AM 2.93 37.274 0.099 6.93 96.4 7.61
2/21/2023 9:15:00 AM 2.93 37.274 0.099 6.92 96.43 7.51
2/21/2023 9:30:00 AM 2.92 37.256 0.1 6.94 96.43 7.49
2/21/2023 9:45:00 AM 2.92 37.256 0.099 6.93 96.37 7.45
2/21/2023 10:00:00 AM 2.92 37.256 0.102 6.92 96.41 7.48
2/21/2023 10:15:00 AM 2.92 37.256 0.097 6.92 96.6 7.47
2/21/2023 10:30:00 AM 2.92 37.256 0.094 6.92 96.73 7.46
2/21/2023 10:45:00 AM 2.93 37.274 0.094 6.92 96.66 7.51
2/21/2023 11:00:00 AM 2.94 37.292 0.095 6.93 96.51 7.47
2/21/2023 11:15:00 AM 2.96 37.328 0.095 6.93 96.49 7.48
2/21/2023 11:30:00 AM 2.97 37.346 0.095 6.93 96.39 7.49
2/21/2023 11:45:00 AM 2.99 37.382 0.095 6.94 96.41 7.53
2/21/2023 12:00:00 PM 3.02 37.436 0.094 6.92 96.36 7.57
2/21/2023 12:15:00 PM 3.04 37.472 0.097 6.93 96.52 7.63
2/21/2023 12:30:00 PM 3.07 37.526 0.095 6.91 96.28 7.63
2/21/2023 12:45:00 PM 3.11 37.598 0.095 6.93 96.37 7.7
2/21/2023 1:00:00 PM 3.15 37.67 0.094 6.91 96.29 7.71
2/21/2023 1:15:00 PM 3.18 37.724 0.093 6.9 96.3 7.7
2/21/2023 1:30:00 PM 3.22 37.796 0.094 6.92 96.33 7.85
2/21/2023 1:45:00 PM 3.25 37.85 0.093 6.92 96.23 7.9
2/21/2023 2:00:00 PM 3.27 37.886 0.092 6.91 96.22 8.05
2/21/2023 2:15:00 PM 3.3 37.94 0.091 6.92 96.29 8.14
2/21/2023 2:30:00 PM 3.32 37.976 0.093 6.91 96.28 8.13
2/21/2023 2:45:00 PM 3.35 38.03 0.094 6.93 96.28 8.12
2/21/2023 3:00:00 PM 3.37 38.066 0.093 6.97 96.3 8.21
2/21/2023 3:15:00 PM 3.39 38.102 0.093 6.93 96.19 8.34
2/21/2023 3:30:00 PM 3.41 38.138 0.092 6.92 96.3 8.37
2/21/2023 3:45:00 PM 3.43 38.174 0.091 6.91 96.19 8.4
2/21/2023 4:00:00 PM 3.44 38.192 0.09 6.9 96.21 8.43
2/21/2023 4:15:00 PM 3.46 38.228 0.093 6.91 96.23 8.54
2/21/2023 4:30:00 PM 3.46 38.228 0.094 6.92 96.24 8.71
2/21/2023 4:45:00 PM 3.46 38.228 0.094 6.91 96.21 8.79
2/21/2023 5:00:00 PM 3.44 38.192 0.092 6.91 96.24 8.75
2/21/2023 5:15:00 PM 3.43 38.174 0.094 6.9 96.32 8.88
2/21/2023 5:30:00 PM 3.43 38.174 0.093 6.91 96.3 8.94
2/21/2023 5:45:00 PM 3.42 38.156 0.093 6.91 96.22 8.85
2/21/2023 6:00:00 PM 3.41 38.138 0.094 6.91 96.2 8.95
2/21/2023 6:15:00 PM 3.41 38.138 0.093 6.92 96.38 8.92
2/21/2023 6:30:00 PM 3.4 38.12 0.096 6.93 96.34 8.86
2/21/2023 6:45:00 PM 3.39 38.102 0.095 6.92 96.53 8.69
2/21/2023 7:00:00 PM 3.37 38.066 0.095 6.94 96.4 8.69
2/21/2023 7:15:00 PM 3.33 37.994 0.098 6.92 96.51 8.63
2/21/2023 7:30:00 PM 3.3 37.94 0.097 6.93 96.24 8.74
2/21/2023 7:45:00 PM 3.26 37.868 0.096 6.94 96.3 8.78
2/21/2023 8:00:00 PM 3.23 37.814 0.096 6.92 96.25 8.82
2/21/2023 8:15:00 PM 3.2 37.76 0.095 6.93 96.54 8.87
2/21/2023 8:30:00 PM 3.17 37.706 0.097 6.93 96.73 8.92
2/21/2023 8:45:00 PM 3.13 37.634 0.096 6.94 96.81 8.92
2/21/2023 9:00:00 PM 3.09 37.562 0.101 6.94 96.6 9
2/21/2023 9:15:00 PM 3.04 37.472 0.101 6.93 96.62 9.1
2/21/2023 9:30:00 PM 3 37.4 0.098 6.92 96.79 9.19
2/21/2023 9:45:00 PM 2.96 37.328 0.099 6.94 96.96 9.14
2/21/2023 10:00:00 PM 2.9 37.22 0.103 6.91 96.66 9.22
2/21/2023 10:15:00 PM 2.85 37.13 0.1 6.92 96.5 9.27
2/21/2023 10:30:00 PM 2.81 37.058 0.1 6.91 96.73 9.26
2/21/2023 10:45:00 PM 2.75 36.95 0.097 6.92 96.98 9.25
2/21/2023 11:00:00 PM 2.71 36.878 0.102 6.91 97.03 9.34
2/21/2023 11:15:00 PM 2.66 36.788 0.097 6.91 96.79 9.32
2/21/2023 11:30:00 PM 2.61 36.698 0.097 6.91 96.99 9.33
2/21/2023 11:45:00 PM 2.58 36.644 0.093 6.91 97.03 9.25
2/22/2023 12:00:00 AM 2.53 36.554 0.091 6.9 97.19 9.18
2/22/2023 12:15:00 AM 2.49 36.482 0.086 6.92 97.22 9.08
2/22/2023 12:30:00 AM 2.46 36.428 0.085 6.95 97.45 9.11
2/22/2023 12:45:00 AM 2.41 36.338 0.081 6.91 97.49 9.12
2/22/2023 1:00:00 AM 2.38 36.284 0.09 6.91 97.43 9.11
2/22/2023 1:15:00 AM 2.34 36.212 0.092 6.92 97.42 9.1
2/22/2023 1:30:00 AM 2.31 36.158 0.089 6.93 97.11 8.73
2/22/2023 1:45:00 AM 2.28 36.104 0.094 6.92 97.13 8.67
2/22/2023 2:00:00 AM 2.24 36.032 0.09 6.91 97.2 8.7
2/22/2023 2:15:00 AM 2.2 35.96 0.095 6.91 97.16 8.76
2/22/2023 2:30:00 AM 2.17 35.906 0.095 6.93 97.14 9.07
2/22/2023 2:45:00 AM 2.13 35.834 0.094 6.92 97.28 9.08
2/22/2023 3:00:00 AM 2.09 35.762 0.093 6.92 97.35 9.08
2/22/2023 3:15:00 AM 2.06 35.708 0.096 6.91 97.26 9.07
2/22/2023 3:30:00 AM 2.04 35.672 0.092 6.95 97.2 9.01
2/22/2023 3:45:00 AM 2.01 35.618 0.097 6.92 97.18 9
2/22/2023 4:00:00 AM 1.98 35.564 0.096 6.9 97.15 9.02
2/22/2023 4:15:00 AM 1.96 35.528 0.097 6.92 97.14 9.03
2/22/2023 4:30:00 AM 1.94 35.492 0.093 6.92 97.11 9.04
2/22/2023 4:45:00 AM 1.93 35.474 0.094 6.93 96.98 8.99
2/22/2023 5:00:00 AM 1.93 35.474 0.093 6.93 97.02 9.03
2/22/2023 5:15:00 AM 1.92 35.456 0.105 6.94 97.13 9
2/22/2023 5:30:00 AM 1.91 35.438 0.09 6.93 97.1 9.06
2/22/2023 5:45:00 AM 1.9 35.42 0.091 6.93 97.04 9.05
2/22/2023 6:00:00 AM 1.88 35.384 0.092 6.93 97.01 9.07
2/22/2023 6:15:00 AM 1.86 35.348 0.092 6.95 96.96 9.08
2/22/2023 6:30:00 AM 1.83 35.294 0.091 6.9 97.23 9.05
2/22/2023 6:45:00 AM 1.82 35.276 0.09 6.93 97 9.02
2/22/2023 7:00:00 AM 1.81 35.258 0.09 6.93 96.92 9.08
2/22/2023 7:15:00 AM 1.8 35.24 0.089 6.93 96.78 9.14
2/22/2023 7:30:00 AM 1.79 35.222 0.09 6.93 96.65 9.08
2/22/2023 7:45:00 AM 1.78 35.204 0.091 6.93 96.73 9.1
2/22/2023 8:00:00 AM 1.76 35.168 0.091 6.93 96.76 9.11
2/22/2023 8:15:00 AM 1.75 35.15 0.088 6.94 96.69 9.11
2/22/2023 8:30:00 AM 1.75 35.15 0.089 6.92 96.65 9.15
2/22/2023 8:45:00 AM 1.76 35.168 0.089 6.94 96.51 9.11
2/22/2023 9:00:00 AM 1.77 35.186 0.088 6.94 96.51 9.18
2/22/2023 9:15:00 AM 1.79 35.222 0.09 6.93 96.58 9.17
2/22/2023 9:30:00 AM 1.81 35.258 0.09 6.9 96.95 9.22
2/22/2023 9:45:00 AM 1.84 35.312 0.087 6.92 96.84 9.2
2/22/2023 10:00:00 AM 1.88 35.384 0.1 6.93 96.79 9.19
2/22/2023 10:15:00 AM 1.92 35.456 0.088 6.94 96.95 9.18
2/22/2023 10:30:00 AM 1.97 35.546 0.086 6.93 96.94 9.25
2/22/2023 10:45:00 AM 2.02 35.636 0.088 6.94 97.04 9.29
2/22/2023 11:00:00 AM 2.07 35.726 0.086 6.93 97.21 9.33
2/22/2023 11:15:00 AM 2.13 35.834 0.086 6.94 97.19 9.38
2/22/2023 11:30:00 AM 2.18 35.924 0.087 6.94 96.53 9.46
2/22/2023 11:45:00 AM 2.24 36.032 0.086 6.95 96.31 9.51
2/22/2023 12:00:00 PM 2.3 36.14 0.102 6.95 96.46 9.55
2/22/2023 12:15:00 PM 2.35 36.23 0.086 6.93 96.83 9.58
2/22/2023 12:30:00 PM 2.39 36.302 0.088 6.92 96.65 9.6
2/22/2023 12:45:00 PM 2.43 36.374 0.087 6.93 96.45 9.58
2/22/2023 1:00:00 PM 2.45 36.41 0.086 6.94 96.43 9.58
2/22/2023 1:15:00 PM 2.48 36.464 0.087 6.93 96.32 9.55
2/22/2023 1:30:00 PM 2.5 36.5 0.085 6.94 96.29 9.54
2/22/2023 1:45:00 PM 2.52 36.536 0.084 6.93 96.33 9.53
2/22/2023 2:00:00 PM 2.55 36.59 0.085 6.93 96.41 9.53
2/22/2023 2:15:00 PM 2.57 36.626 0.085 6.94 96.3 9.48
2/22/2023 2:30:00 PM 2.59 36.662 0.081 6.97 96.23 9.44
2/22/2023 2:45:00 PM 2.6 36.68 0.082 6.95 96.28 9.43
2/22/2023 3:00:00 PM 2.6 36.68 0.086 6.94 96.53 9.41
2/22/2023 3:15:00 PM 2.59 36.662 0.085 6.94 96.43 9.54
2/22/2023 3:30:00 PM 2.57 36.626 0.089 6.93 96.33 9.61
2/22/2023 3:45:00 PM 2.53 36.554 0.09 6.94 96.33 9.66
2/22/2023 4:00:00 PM 2.49 36.482 0.087 6.93 96.6 9.74
2/22/2023 4:15:00 PM 2.44 36.392 0.088 6.93 96.55 9.77
2/22/2023 4:30:00 PM 2.4 36.32 0.086 6.92 96.65 9.78
2/22/2023 4:45:00 PM 2.36 36.248 0.085 6.92 96.62 9.84
2/22/2023 5:00:00 PM 2.32 36.176 0.085 6.91 96.63 9.89
2/22/2023 5:15:00 PM 2.28 36.104 0.086 6.9 96.65 9.89
2/22/2023 5:30:00 PM 2.24 36.032 0.083 6.9 96.57 9.88
2/22/2023 5:45:00 PM 2.21 35.978 0.083 6.92 96.57 9.89
2/22/2023 6:00:00 PM 2.13 35.834 0.088 6.91 96.39 9.89
2/22/2023 6:15:00 PM 2.08 35.744 0.089 6.91 96.4 9.94
2/22/2023 6:30:00 PM 2.03 35.654 0.086 6.9 96.48 9.96
2/22/2023 6:45:00 PM 1.98 35.564 0.086 6.9 96.72 9.95
2/22/2023 7:00:00 PM 1.95 35.51 0.086 6.9 96.82 9.97
2/22/2023 7:15:00 PM 1.92 35.456 0.086 6.91 96.58 9.99
2/22/2023 7:30:00 PM 1.89 35.402 0.082 6.9 96.74 10
2/22/2023 7:45:00 PM 1.87 35.366 0.086 6.9 96.56 10.01
2/22/2023 8:00:00 PM 1.86 35.348 0.085 6.91 96.64 10.03
2/22/2023 8:15:00 PM 1.86 35.348 0.085 6.91 96.8 10.05
2/22/2023 8:30:00 PM 1.86 35.348 0.086 6.94 97.16 10.06
2/22/2023 8:45:00 PM 1.85 35.33 0.088 6.92 96.83 9.99
2/22/2023 9:00:00 PM 1.85 35.33 0.085 6.91 97.28 9.98
2/22/2023 9:15:00 PM 1.85 35.33 0.086 6.91 97.2 9.96
2/22/2023 9:30:00 PM 1.84 35.312 0.086 6.91 97.01 9.99
2/22/2023 9:45:00 PM 1.84 35.312 0.085 6.9 97.09 9.98
2/22/2023 10:00:00 PM 1.83 35.294 0.086 6.9 96.84 9.97
2/22/2023 10:15:00 PM 1.82 35.276 0.086 6.92 96.78 9.95
2/22/2023 10:30:00 PM 1.81 35.258 0.088 6.91 96.59 9.92
2/22/2023 10:45:00 PM 1.79 35.222 0.087 6.91 96.41 9.88
2/22/2023 11:00:00 PM 1.78 35.204 0.086 6.9 96.32 9.86
2/22/2023 11:15:00 PM 1.77 35.186 0.086 6.92 96.33 9.84
2/22/2023 11:30:00 PM 1.77 35.186 0.086 6.92 96.37 9.82
2/22/2023 11:45:00 PM 1.76 35.168 0.088 6.93 96.39 9.85
2/23/2023 12:00:00 AM 1.76 35.168 0.087 6.93 96.23 9.88
2/23/2023 12:15:00 AM 1.75 35.15 0.085 6.92 96.23 9.92
2/23/2023 12:30:00 AM 1.75 35.15 0.086 6.92 96.05 9.9
2/23/2023 12:45:00 AM 1.74 35.132 0.085 6.92 95.96 9.88
2/23/2023 1:00:00 AM 1.75 35.15 0.083 6.91 96.05 9.9
2/23/2023 1:15:00 AM 1.76 35.168 0.086 6.92 96.2 9.88
2/23/2023 1:30:00 AM 1.77 35.186 0.085 6.92 96.64 9.88
2/23/2023 1:45:00 AM 1.77 35.186 0.085 6.92 96.45 9.9
2/23/2023 2:00:00 AM 1.79 35.222 0.084 6.93 96.48 9.9
2/23/2023 2:15:00 AM 1.8 35.24 0.082 6.91 96.37 9.87
2/23/2023 2:30:00 AM 1.81 35.258 0.082 6.92 96.3 9.87
2/23/2023 2:45:00 AM 1.82 35.276 0.087 6.92 96.34 9.81
2/23/2023 3:00:00 AM 1.83 35.294 0.088 6.92 96.36 9.64
2/23/2023 3:15:00 AM 1.84 35.312 0.091 6.94 96.21 9.63
2/23/2023 3:30:00 AM 1.85 35.33 0.091 6.93 96.09 9.68
2/23/2023 3:45:00 AM 1.87 35.366 0.095 6.9 96.03 9.85
2/23/2023 4:00:00 AM 1.88 35.384 0.095 6.92 95.99 9.68
2/23/2023 4:15:00 AM 1.89 35.402 0.091 6.94 96.06 9.56
2/23/2023 4:30:00 AM 1.9 35.42 0.091 6.95 96.18 9.67
2/23/2023 4:45:00 AM 1.91 35.438 0.097 6.92 96.08 9.76
2/23/2023 5:00:00 AM 1.91 35.438 0.09 6.93 96.2 9.84
2/23/2023 5:15:00 AM 1.92 35.456 0.091 6.94 96 9.76
2/23/2023 5:30:00 AM 1.92 35.456 0.091 6.93 95.95 9.8
2/23/2023 5:45:00 AM 1.93 35.474 0.088 6.93 95.78 9.86
2/23/2023 6:00:00 AM 1.93 35.474 0.09 6.92 95.91 9.87
2/23/2023 6:15:00 AM 1.93 35.474 0.092 6.93 96.02 9.95
2/23/2023 6:30:00 AM 1.93 35.474 0.091 6.92 96.01 10.01
2/23/2023 6:45:00 AM 1.93 35.474 0.09 6.93 96.15 10.06
2/23/2023 7:00:00 AM 1.94 35.492 0.093 6.92 96.04 10.07
2/23/2023 7:15:00 AM 1.95 35.51 0.09 6.93 96.01 10.06
2/23/2023 7:30:00 AM 1.96 35.528 0.09 6.95 96.09 9.84
2/23/2023 7:45:00 AM 1.97 35.546 0.09 6.94 96.12 9.98
2/23/2023 8:00:00 AM 2 35.6 0.09 6.96 96.16 9.92
2/23/2023 8:15:00 AM 2.03 35.654 0.09 6.96 96.08 9.95
2/23/2023 8:30:00 AM 2.06 35.708 0.093 6.95 96.17 9.9
2/23/2023 8:45:00 AM 2.08 35.744 0.093 6.95 96.04 9.88
2/23/2023 9:00:00 AM 2.11 35.798 0.094 6.96 96.29 9.86
2/23/2023 9:15:00 AM 2.14 35.852 0.092 6.97 96.15 9.94
2/23/2023 9:30:00 AM 2.15 35.87 0.093 6.96 96.05 9.91
2/23/2023 9:45:00 AM 2.16 35.888 0.094 6.96 96.06 9.87
2/23/2023 10:00:00 AM 2.17 35.906 0.094 6.95 96.08 9.85
2/23/2023 10:15:00 AM 2.19 35.942 0.094 6.96 96.26 9.84
2/23/2023 10:30:00 AM 2.21 35.978 0.095 6.94 96.07 9.78
2/23/2023 10:45:00 AM 2.23 36.014 0.095 6.96 96.28 9.81
2/23/2023 11:00:00 AM 2.25 36.05 0.098 6.97 96.05 10.03
2/23/2023 11:15:00 AM 2.27 36.086 0.094 6.94 96.47 10.02
2/23/2023 11:30:00 AM 2.29 36.122 0.095 6.96 96.22 10.03
2/23/2023 11:45:00 AM 2.32 36.176 0.093 6.95 96.12 10.03
2/23/2023 12:00:00 PM 2.35 36.23 0.095 6.96 96.09 10.08
2/23/2023 12:15:00 PM 2.38 36.284 0.094 6.92 96.23 10.06
2/23/2023 12:30:00 PM 2.41 36.338 0.094 6.94 95.92 10.09
2/23/2023 12:45:00 PM 2.45 36.41 0.095 6.94 95.76 10.09
2/23/2023 1:00:00 PM 2.49 36.482 0.095 6.91 95.87 10.13
2/23/2023 1:15:00 PM 2.54 36.572 0.095 6.93 95.79 10.12
2/23/2023 1:30:00 PM 2.59 36.662 0.098 6.92 95.89 10.01
2/23/2023 1:45:00 PM 2.64 36.752 0.098 6.91 96.07 10.04
2/23/2023 2:00:00 PM 2.7 36.86 0.101 6.97 96 10
2/23/2023 2:15:00 PM 2.76 36.968 0.096 6.96 95.94 10.14
2/23/2023 2:30:00 PM 2.82 37.076 0.104 6.91 95.89 10.28
2/23/2023 2:45:00 PM 2.89 37.202 0.103 6.95 96 10.21
2/23/2023 3:00:00 PM 2.97 37.346 0.097 6.9 95.83 10.2
2/23/2023 3:15:00 PM 3.04 37.472 0.097 6.91 96.03 10.21
2/23/2023 3:30:00 PM 3.11 37.598 0.097 6.94 96.03 10.23
2/23/2023 3:45:00 PM 3.17 37.706 0.099 6.96 95.94 10.24
2/23/2023 4:00:00 PM 3.23 37.814 0.099 6.93 96.29 10.17
2/23/2023 4:15:00 PM 3.29 37.922 0.098 6.95 96.02 10.31
2/23/2023 4:30:00 PM 3.35 38.03 0.101 6.93 96.44 10.22
2/23/2023 4:45:00 PM 3.39 38.102 0.103 6.93 96.38 10.26
2/23/2023 5:00:00 PM 3.43 38.174 0.102 6.9 96.2 10.2
2/23/2023 5:15:00 PM 3.46 38.228 0.099 6.9 96.1 10.29
2/23/2023 5:30:00 PM 3.49 38.282 0.098 6.9 96.18 10.29
2/23/2023 5:45:00 PM 3.51 38.318 0.1 6.9 95.95 10.21
2/23/2023 6:00:00 PM 3.52 38.336 0.108 6.93 96.05 10.2
2/23/2023 6:15:00 PM 3.53 38.354 0.106 6.93 95.96 10.11
2/23/2023 6:30:00 PM 3.54 38.372 0.101 6.9 96.07 10.13
2/23/2023 6:45:00 PM 3.54 38.372 0.107 6.96 96.15 10.14
2/23/2023 7:00:00 PM 3.54 38.372 0.107 6.95 96.26 10.12
2/23/2023 7:15:00 PM 3.53 38.354 0.111 6.93 96.3 10.09
2/23/2023 7:30:00 PM 3.52 38.336 0.111 6.95 96.38 10.1
2/23/2023 7:45:00 PM 3.5 38.3 0.108 6.95 96.23 10.06
2/23/2023 8:00:00 PM 3.48 38.264 0.102 6.94 96.56 10.05
2/23/2023 8:15:00 PM 3.46 38.228 0.101 6.91 96.43 10.09
2/23/2023 8:30:00 PM 3.43 38.174 0.104 6.93 96.6 10.05
2/23/2023 8:45:00 PM 3.4 38.12 0.104 6.94 96.58 10.05
2/23/2023 9:00:00 PM 3.37 38.066 0.105 6.95 96.4 9.98
2/23/2023 9:15:00 PM 3.34 38.012 0.101 6.96 96.47 9.92
2/23/2023 9:30:00 PM 3.31 37.958 0.102 6.96 96.7 9.94
2/23/2023 9:45:00 PM 3.28 37.904 0.101 6.95 96.43 9.91
2/23/2023 10:00:00 PM 3.26 37.868 0.099 6.95 96.41 9.87
2/23/2023 10:15:00 PM 3.23 37.814 0.101 6.94 96.63 9.95
2/23/2023 10:30:00 PM 3.21 37.778 0.103 6.95 96.66 9.94
2/23/2023 10:45:00 PM 3.18 37.724 0.106 6.94 96.63 9.96
2/23/2023 11:00:00 PM 3.16 37.688 0.106 6.92 96.62 9.92
2/23/2023 11:15:00 PM 3.15 37.67 0.105 6.95 96.65 9.92
2/23/2023 11:30:00 PM 3.14 37.652 0.105 6.96 96.56 9.95
2/23/2023 11:45:00 PM 3.12 37.616 0.104 6.96 96.6 9.91
2/24/2023 12:00:00 AM 3.12 37.616 0.107 6.93 96.63 9.89
2/24/2023 12:15:00 AM 3.11 37.598 0.107 6.95 96.46 9.84
2/24/2023 12:30:00 AM 3.1 37.58 0.105 6.96 96.27 9.77
2/24/2023 12:45:00 AM 3.1 37.58 0.107 6.96 96.18 9.77
2/24/2023 1:00:00 AM 3.1 37.58 0.102 6.94 96.34 9.84
2/24/2023 1:15:00 AM 3.1 37.58 0.102 6.93 96.4 9.83
2/24/2023 1:30:00 AM 3.11 37.598 0.103 6.93 96.38 9.93
2/24/2023 1:45:00 AM 3.11 37.598 0.104 6.95 96.41 9.85
2/24/2023 2:00:00 AM 3.12 37.616 0.105 6.93 96.49 9.87
2/24/2023 2:15:00 AM 3.12 37.616 0.109 6.93 96.51 9.83
2/24/2023 2:30:00 AM 3.12 37.616 0.114 6.94 96.45 9.76
2/24/2023 2:45:00 AM 3.12 37.616 0.112 6.94 96.36 9.71
2/24/2023 3:00:00 AM 3.11 37.598 0.112 6.93 96.42 9.66
2/24/2023 3:15:00 AM 3.1 37.58 0.113 6.95 96.38 9.63
2/24/2023 3:30:00 AM 3.09 37.562 0.11 6.94 96.58 9.64
2/24/2023 3:45:00 AM 3.08 37.544 0.109 6.96 96.67 9.56
2/24/2023 4:00:00 AM 3.07 37.526 0.11 6.97 96.63 9.56
2/24/2023 4:15:00 AM 3.05 37.49 0.112 6.97 96.69 9.53
2/24/2023 4:30:00 AM 3.03 37.454 0.113 6.96 96.6 9.55
2/24/2023 4:45:00 AM 3.01 37.418 0.117 6.95 96.62 9.59
2/24/2023 5:00:00 AM 2.98 37.364 0.117 6.93 96.77 9.64
2/24/2023 5:15:00 AM 2.95 37.31 0.123 6.95 96.73 9.69
2/24/2023 5:30:00 AM 2.92 37.256 0.123 6.95 96.67 9.73
2/24/2023 5:45:00 AM 2.88 37.184 0.114 6.96 96.69 9.69
2/24/2023 6:00:00 AM 2.84 37.112 0.113 6.93 96.59 9.69
2/24/2023 6:15:00 AM 2.81 37.058 0.114 6.98 96.64 9.69
2/24/2023 6:30:00 AM 2.79 37.022 0.113 6.96 96.52 9.68
2/24/2023 6:45:00 AM 2.76 36.968 0.116 6.99 96.45 9.69
2/24/2023 7:00:00 AM 2.74 36.932 0.118 6.99 96.32 9.75
2/24/2023 7:15:00 AM 2.73 36.914 0.11 6.99 96.35 9.73
2/24/2023 7:30:00 AM 2.7 36.86 0.112 6.98 96.61 9.74
2/24/2023 7:45:00 AM 2.67 36.806 0.106 6.98 96.56 9.79
2/24/2023 8:00:00 AM 2.63 36.734 0.111 6.96 96.73 9.83
2/24/2023 8:15:00 AM 2.58 36.644 0.09 6.96 96.87 9.82
2/24/2023 8:30:00 AM 2.53 36.554 0.097 6.97 96.8 9.89
2/24/2023 8:45:00 AM 2.48 36.464 0.097 6.97 96.91 9.93
2/24/2023 9:00:00 AM 2.43 36.374 0.098 6.96 96.95 9.97
2/24/2023 9:15:00 AM 2.39 36.302 0.102 6.98 96.9 9.95
2/24/2023 9:30:00 AM 2.35 36.23 0.103 6.98 96.92 9.98
2/24/2023 9:45:00 AM 2.31 36.158 0.098 6.96 96.96 10.02
2/24/2023 10:00:00 AM 2.27 36.086 0.102 6.96 96.95 10.12
2/24/2023 10:15:00 AM 2.23 36.014 0.103 6.97 96.83 10.2
2/24/2023 10:30:00 AM 2.19 35.942 0.105 6.95 96.92 10.21
2/24/2023 10:45:00 AM 2.16 35.888 0.107 6.96 97.04 10.2
2/24/2023 11:00:00 AM 2.14 35.852 0.106 6.95 96.91 10.21
2/24/2023 11:15:00 AM 2.12 35.816 0.103 6.95 96.89 10.26
2/24/2023 11:30:00 AM 2.1 35.78 0.108 6.94 97.01 10.34
2/24/2023 11:45:00 AM 2.1 35.78 0.102 6.96 97.06 10.42
2/24/2023 12:00:00 PM 2.12 35.816 0.099 6.94 97.29 10.56
2/24/2023 12:15:00 PM 2.13 35.834 0.098 6.95 97.17 10.58
2/24/2023 12:30:00 PM 2.15 35.87 0.099 6.95 97 10.55
2/24/2023 12:45:00 PM 2.16 35.888 0.103 6.97 97.05 10.61
2/24/2023 1:00:00 PM 2.18 35.924 0.153 6.95 97.3 10.61
2/24/2023 1:15:00 PM 2.21 35.978 0.151 6.96 97.09 10.65
2/24/2023 1:30:00 PM 2.24 36.032 0.155 6.96 97.21 10.73
2/24/2023 1:45:00 PM 2.27 36.086 0.138 6.96 97.26 10.84
2/24/2023 2:00:00 PM 2.3 36.14 0.138 6.96 97.38 10.85
2/24/2023 2:15:00 PM 2.33 36.194 0.146 6.96 97.48 10.9
2/24/2023 2:30:00 PM 2.36 36.248 0.149 6.97 97.4 10.93
2/24/2023 2:45:00 PM 2.4 36.32 0.153 6.96 97.4 11
2/24/2023 3:00:00 PM 2.43 36.374 0.141 6.97 97.49 10.99
2/24/2023 3:15:00 PM 2.45 36.41 0.149 6.96 97.44 11.12
2/24/2023 3:30:00 PM 2.46 36.428 0.15 6.96 97.44 11.18
2/24/2023 3:45:00 PM 2.48 36.464 0.152 6.97 97.48 11.22
2/24/2023 4:00:00 PM 2.48 36.464 0.15 6.96 97.44 11.3
2/24/2023 4:15:00 PM 2.48 36.464 0.136 6.96 97.39 11.26
2/24/2023 4:30:00 PM 2.48 36.464 0.143 6.96 97.44 11.23
2/24/2023 4:45:00 PM 2.46 36.428 0.154 6.97 97.42 11.28
2/24/2023 5:00:00 PM 2.44 36.392 0.149 6.97 97.42 11.27
2/24/2023 5:15:00 PM 2.42 36.356 0.142 6.97 97.51 11.28
2/24/2023 5:30:00 PM 2.39 36.302 0.137 6.96 97.45 11.28
2/24/2023 5:45:00 PM 2.35 36.23 0.14 6.95 97.68 11.36
2/24/2023 6:00:00 PM 2.3 36.14 0.144 6.96 97.63 11.32
2/24/2023 6:15:00 PM 2.25 36.05 0.138 6.97 97.51 11.24
2/24/2023 6:30:00 PM 2.18 35.924 0.156 6.96 97.54 11.25
2/24/2023 6:45:00 PM 2.11 35.798 0.155 6.95 97.53 11.19
2/24/2023 7:00:00 PM 2.03 35.654 0.151 6.97 97.54 11.18
2/24/2023 7:15:00 PM 1.95 35.51 0.152 6.96 97.74 11.14
2/24/2023 7:30:00 PM 1.87 35.366 0.158 6.97 97.91 11.14
2/24/2023 7:45:00 PM 1.8 35.24 0.152 6.96 97.74 11.18
2/24/2023 8:00:00 PM 1.72 35.096 0.161 6.96 97.85 11.19
2/24/2023 8:15:00 PM 1.65 34.97 0.159 6.97 97.71 11.2
2/24/2023 8:30:00 PM 1.57 34.826 0.16 6.96 97.83 11.29
2/24/2023 8:45:00 PM 1.5 34.7 0.162 6.95 97.69 11.27
2/24/2023 9:00:00 PM 1.44 34.592 0.155 6.95 97.67 11.36
2/24/2023 9:15:00 PM 1.39 34.502 0.16 6.95 97.7 11.32
2/24/2023 9:30:00 PM 1.35 34.43 0.165 6.96 97.58 11.34
2/24/2023 9:45:00 PM 1.31 34.358 0.126 6.94 97.62 11.39
2/24/2023 10:00:00 PM 1.29 34.322 0.156 6.95 97.51 11.31
2/24/2023 10:15:00 PM 1.27 34.286 0.159 6.94 97.49 11.33
2/24/2023 10:30:00 PM 1.24 34.232 0.155 6.95 97.48 11.25
2/24/2023 10:45:00 PM 1.22 34.196 0.157 6.95 97.33 11.28
2/24/2023 11:00:00 PM 1.19 34.142 0.149 6.96 97.35 11.24
2/24/2023 11:15:00 PM 1.17 34.106 0.142 6.96 97.47 11.24
2/24/2023 11:30:00 PM 1.15 34.07 0.143 6.95 97.53 11.29
2/24/2023 11:45:00 PM 1.12 34.016 0.143 6.95 97.47 11.28
2/25/2023 12:00:00 AM 1.09 33.962 0.144 6.96 97.34 11.32
2/25/2023 12:15:00 AM 1.05 33.89 0.139 6.96 97.39 11.33
2/25/2023 12:30:00 AM 1.01 33.818 0.155 6.96 97.48 11.31
2/25/2023 12:45:00 AM 0.97 33.746 0.139 6.97 97.29 11.28
2/25/2023 1:00:00 AM 0.91 33.638 0.142 6.95 97.44 11.3
2/25/2023 1:15:00 AM 0.87 33.566 0.144 6.96 97.42 11.31
2/25/2023 1:30:00 AM 0.82 33.476 0.157 6.96 97.28 11.38
2/25/2023 1:45:00 AM 0.77 33.386 0.154 6.96 97.4 11.42
2/25/2023 2:00:00 AM 0.73 33.314 0.153 6.95 97.41 11.48
2/25/2023 2:15:00 AM 0.7 33.26 0.158 6.96 97.39 11.56
2/25/2023 2:30:00 AM 0.67 33.206 0.143 6.96 97.47 11.6
2/25/2023 2:45:00 AM 0.64 33.152 0.143 6.97 97.51 11.65
2/25/2023 3:00:00 AM 0.62 33.116 0.141 6.99 97.41 11.62
2/25/2023 3:15:00 AM 0.6 33.08 0.136 6.97 97.59 11.74
2/25/2023 3:30:00 AM 0.58 33.044 0.129 6.98 97.49 11.78
2/25/2023 3:45:00 AM 0.57 33.026 0.119 6.97 97.51 11.81
2/25/2023 4:00:00 AM 0.56 33.008 0.109 6.97 97.56 11.83
2/25/2023 4:15:00 AM 0.55 32.99 0.11 6.97 97.57 11.86
2/25/2023 4:30:00 AM 0.54 32.972 0.111 6.97 97.48 11.89
2/25/2023 4:45:00 AM 0.53 32.954 0.113 6.97 97.61 11.92
2/25/2023 5:00:00 AM 0.52 32.936 0.11 6.97 97.51 11.92
2/25/2023 5:15:00 AM 0.5 32.9 0.11 6.98 97.5 11.9
2/25/2023 5:30:00 AM 0.49 32.882 0.128 6.98 97.58 11.86
2/25/2023 5:45:00 AM 0.48 32.864 0.108 6.97 97.6 11.86
2/25/2023 6:00:00 AM 0.47 32.846 0.109 6.97 97.63 11.82
2/25/2023 6:15:00 AM 0.47 32.846 0.112 6.98 97.67 11.88
2/25/2023 6:30:00 AM 0.46 32.828 0.124 6.99 97.59 11.91
2/25/2023 6:45:00 AM 0.46 32.828 0.107 6.98 97.56 11.91
2/25/2023 7:00:00 AM 0.45 32.81 0.107 6.98 97.62 11.92
2/25/2023 7:15:00 AM 0.45 32.81 0.111 6.98 97.46 11.92
2/25/2023 7:30:00 AM 0.44 32.792 0.115 6.98 97.52 11.9
2/25/2023 7:45:00 AM 0.44 32.792 0.106 6.98 97.51 11.91
2/25/2023 8:00:00 AM 0.43 32.774 0.107 6.98 97.68 11.9
2/25/2023 8:15:00 AM 0.43 32.774 0.107 6.98 97.65 11.9
2/25/2023 8:30:00 AM 0.43 32.774 0.107 6.98 97.57 11.9
2/25/2023 8:45:00 AM 0.43 32.774 0.115 6.98 97.54 11.9
2/25/2023 9:00:00 AM 0.44 32.792 0.108 6.98 97.61 11.88
2/25/2023 9:15:00 AM 0.45 32.81 0.113 6.98 97.56 11.84
2/25/2023 9:30:00 AM 0.46 32.828 0.107 6.98 97.57 11.87
2/25/2023 9:45:00 AM 0.48 32.864 0.103 6.98 97.43 11.86
2/25/2023 10:00:00 AM 0.52 32.936 0.114 6.98 97.52 11.89
2/25/2023 10:15:00 AM 0.55 32.99 0.109 6.99 97.48 11.86
2/25/2023 10:30:00 AM 0.6 33.08 0.105 6.97 97.45 11.88
2/25/2023 10:45:00 AM 0.64 33.152 0.106 6.97 97.49 11.85
2/25/2023 11:00:00 AM 0.68 33.224 0.105 6.97 97.53 11.82
2/25/2023 11:15:00 AM 0.72 33.296 0.105 6.98 97.67 11.84
2/25/2023 11:30:00 AM 0.76 33.368 0.108 7 97.68 11.78
2/25/2023 11:45:00 AM 0.79 33.422 0.107 6.98 97.62 11.84
2/25/2023 12:00:00 PM 0.83 33.494 0.104 6.98 97.64 11.82
2/25/2023 12:15:00 PM 0.89 33.602 0.101 6.98 97.71 11.8
2/25/2023 12:30:00 PM 0.95 33.71 0.1 6.98 97.74 11.75
2/25/2023 12:45:00 PM 1 33.8 0.098 6.99 97.55 11.79
2/25/2023 1:00:00 PM 1.06 33.908 0.104 6.98 97.51 11.78
2/25/2023 1:15:00 PM 1.11 33.998 0.098 6.99 97.62 11.7
2/25/2023 1:30:00 PM 1.16 34.088 0.091 6.98 97.67 11.78
2/25/2023 1:45:00 PM 1.22 34.196 0.099 6.99 97.72 11.78
2/25/2023 2:00:00 PM 1.28 34.304 0.098 6.98 97.79 11.77
2/25/2023 2:15:00 PM 1.34 34.412 0.093 6.99 97.94 11.75
2/25/2023 2:30:00 PM 1.4 34.52 0.097 6.99 97.78 11.74
2/25/2023 2:45:00 PM 1.47 34.646 0.113 6.99 97.57 11.75
2/25/2023 3:00:00 PM 1.54 34.772 0.107 6.99 97.6 11.74
2/25/2023 3:15:00 PM 1.61 34.898 0.106 6.98 97.73 11.74
2/25/2023 3:30:00 PM 1.67 35.006 0.106 6.98 97.9 11.74
2/25/2023 3:45:00 PM 1.73 35.114 0.106 6.99 97.72 11.68
2/25/2023 4:00:00 PM 1.79 35.222 0.113 6.99 97.85 11.68
2/25/2023 4:15:00 PM 1.84 35.312 0.109 6.99 97.74 11.68
2/25/2023 4:30:00 PM 1.9 35.42 0.11 6.99 97.69 11.73
2/25/2023 4:45:00 PM 1.95 35.51 0.112 6.98 97.72 11.72
2/25/2023 5:00:00 PM 1.99 35.582 0.108 6.98 97.77 11.73
2/25/2023 5:15:00 PM 2.03 35.654 0.119 6.98 97.98 11.71
2/25/2023 5:30:00 PM 2.08 35.744 0.112 6.98 97.94 11.72
2/25/2023 5:45:00 PM 2.12 35.816 0.114 6.98 97.97 11.7
2/25/2023 6:00:00 PM 2.15 35.87 0.114 6.97 97.89 11.7
2/25/2023 6:15:00 PM 2.17 35.906 0.119 6.98 97.97 11.68
2/25/2023 6:30:00 PM 2.18 35.924 0.121 6.98 97.95 11.6
2/25/2023 6:45:00 PM 2.18 35.924 0.112 6.97 98.04 11.71
2/25/2023 7:00:00 PM 2.18 35.924 0.108 6.98 97.88 11.7
2/25/2023 7:15:00 PM 2.17 35.906 0.114 6.99 98.12 11.68
2/25/2023 7:30:00 PM 2.16 35.888 0.11 6.99 97.93 11.7
2/25/2023 7:45:00 PM 2.15 35.87 0.111 6.98 98.07 11.67
2/25/2023 8:00:00 PM 2.13 35.834 0.109 6.98 97.93 11.69
2/25/2023 8:15:00 PM 2.11 35.798 0.107 6.98 97.7 11.69
2/25/2023 8:30:00 PM 2.08 35.744 0.113 6.98 97.88 11.63
2/25/2023 8:45:00 PM 2.05 35.69 0.114 6.97 97.95 11.61
2/25/2023 9:00:00 PM 2.02 35.636 0.114 6.97 97.83 11.59
2/25/2023 9:15:00 PM 1.99 35.582 0.115 6.98 97.88 11.57
2/25/2023 9:30:00 PM 1.96 35.528 0.117 6.98 97.83 11.58
2/25/2023 9:45:00 PM 1.93 35.474 0.111 6.95 97.97 11.53
2/25/2023 10:00:00 PM 1.9 35.42 0.111 6.97 97.99 11.53
2/25/2023 10:15:00 PM 1.87 35.366 0.112 6.99 98.07 11.5
2/25/2023 10:30:00 PM 1.84 35.312 0.108 6.99 97.96 11.48
2/25/2023 10:45:00 PM 1.81 35.258 0.112 6.99 97.99 11.45
2/25/2023 11:00:00 PM 1.77 35.186 0.112 6.99 98.05 11.42
2/25/2023 11:15:00 PM 1.73 35.114 0.108 6.99 98.18 11.43
2/25/2023 11:30:00 PM 1.7 35.06 0.11 6.98 98.36 11.44
2/25/2023 11:45:00 PM 1.66 34.988 0.109 7 98.42 11.41
2/26/2023 12:00:00 AM 1.62 34.916 0.109 7.01 98.47 11.4
2/26/2023 12:15:00 AM 1.58 34.844 0.117 6.99 98.33 11.37
2/26/2023 12:30:00 AM 1.54 34.772 0.114 7 98.22 11.36
2/26/2023 12:45:00 AM 1.5 34.7 0.111 7 97.97 11.37
2/26/2023 1:00:00 AM 1.47 34.646 0.112 7 97.89 11.34
2/26/2023 1:15:00 AM 1.43 34.574 0.111 7 97.87 11.33
2/26/2023 1:30:00 AM 1.4 34.52 0.109 6.97 98.22 11.3
2/26/2023 1:45:00 AM 1.37 34.466 0.112 6.99 98.06 11.29
2/26/2023 2:00:00 AM 1.34 34.412 0.11 6.99 98.22 11.3
2/26/2023 2:15:00 AM 1.31 34.358 0.108 6.98 98.14 11.29
2/26/2023 2:30:00 AM 1.29 34.322 0.11 6.98 98.18 11.25
2/26/2023 2:45:00 AM 1.26 34.268 0.114 6.97 98.19 11.27
2/26/2023 3:00:00 AM 1.24 34.232 0.11 6.99 98.17 11.28
2/26/2023 3:15:00 AM 1.22 34.196 0.111 6.98 98.42 11.25
2/26/2023 3:30:00 AM 1.2 34.16 0.111 7.01 98.22 11.17
2/26/2023 3:45:00 AM 1.18 34.124 0.107 7 98.26 11.18
2/26/2023 4:00:00 AM 1.16 34.088 0.11 7 98.36 11.18
2/26/2023 4:15:00 AM 1.14 34.052 0.107 6.98 98.42 11.26
2/26/2023 4:30:00 AM 1.13 34.034 0.115 6.98 98.3 11.26
2/26/2023 4:45:00 AM 1.12 34.016 0.105 6.98 98.38 11.32
2/26/2023 5:00:00 AM 1.1 33.98 0.105 6.99 98.28 11.38
2/26/2023 5:15:00 AM 1.09 33.962 0.107 6.97 98.51 11.41
2/26/2023 5:30:00 AM 1.08 33.944 0.104 6.96 98.44 11.4
2/26/2023 5:45:00 AM 1.06 33.908 0.104 6.96 98.53 11.42
2/26/2023 6:00:00 AM 1.05 33.89 0.105 6.97 98.26 11.43
2/26/2023 6:15:00 AM 1.03 33.854 0.102 6.97 98.41 11.45
2/26/2023 6:30:00 AM 1.02 33.836 0.103 6.93 98.45 11.45
2/26/2023 6:45:00 AM 1 33.8 0.106 6.93 98.51 11.46
2/26/2023 7:00:00 AM 1 33.8 0.11 6.95 98.79 11.47
2/26/2023 7:15:00 AM 0.99 33.782 0.102 6.92 98.73 11.45
2/26/2023 7:30:00 AM 0.99 33.782 0.101 6.92 98.52 11.43
2/26/2023 7:45:00 AM 1 33.8 0.1 6.95 98.5 11.39
2/26/2023 8:00:00 AM 1 33.8 0.101 6.94 98.24 11.35
2/26/2023 8:15:00 AM 1 33.8 0.1 6.93 98.3 11.37
2/26/2023 8:30:00 AM 1 33.8 0.099 6.93 98.37 11.35
2/26/2023 8:45:00 AM 1.01 33.818 0.102 6.94 98.11 11.34
2/26/2023 9:00:00 AM 1.02 33.836 0.101 6.93 98.44 11.36
2/26/2023 9:15:00 AM 1.03 33.854 0.1 6.95 98.27 11.32
2/26/2023 9:30:00 AM 1.06 33.908 0.099 6.97 98.09 11.31
2/26/2023 9:45:00 AM 1.09 33.962 0.101 6.95 98.05 11.3
2/26/2023 10:00:00 AM 1.12 34.016 0.099 6.92 98.15 11.31
2/26/2023 10:15:00 AM 1.16 34.088 0.1 6.95 98.12 11.29
2/26/2023 10:30:00 AM 1.22 34.196 0.101 6.93 98.27 11.31
2/26/2023 10:45:00 AM 1.29 34.322 0.1 6.96 98.27 11.3
2/26/2023 11:00:00 AM 1.37 34.466 0.103 6.95 98.33 11.28
2/26/2023 11:15:00 AM 1.44 34.592 0.108 6.94 98.34 11.29
2/26/2023 11:30:00 AM 1.52 34.736 0.094 6.97 97.83 11.27
2/26/2023 11:45:00 AM 1.6 34.88 0.102 6.95 98.2 11.24
2/26/2023 12:00:00 PM 1.72 35.096 0.103 6.95 98.29 11.25
2/26/2023 12:15:00 PM 1.82 35.276 0.102 6.98 98.45 11.25
2/26/2023 12:30:00 PM 1.94 35.492 0.102 6.97 98.11 11.23
2/26/2023 12:45:00 PM 2.07 35.726 0.104 7 98.02 11.2
2/26/2023 1:00:00 PM 2.2 35.96 0.103 7 98.11 11.17
2/26/2023 1:15:00 PM 2.35 36.23 0.105 7 98.27 11.12
2/26/2023 1:30:00 PM 2.49 36.482 0.104 7 98.07 11.1
2/26/2023 1:45:00 PM 2.64 36.752 0.103 6.99 98.08 11.08
2/26/2023 2:00:00 PM 2.76 36.968 0.11 6.97 98.18 11.06
2/26/2023 2:15:00 PM 2.89 37.202 0.098 6.98 97.79 11
2/26/2023 2:30:00 PM 2.99 37.382 0.104 6.99 97.52 10.95
2/26/2023 2:45:00 PM 3.09 37.562 0.106 6.99 97.67 10.95
2/26/2023 3:00:00 PM 3.18 37.724 0.108 6.98 97.63 10.92
2/26/2023 3:15:00 PM 3.24 37.832 0.11 7 97.71 10.86
2/26/2023 3:30:00 PM 3.29 37.922 0.114 6.97 97.77 10.85
2/26/2023 3:45:00 PM 3.32 37.976 0.11 6.99 97.91 10.8
2/26/2023 4:00:00 PM 3.35 38.03 0.109 6.99 97.82 10.79
2/26/2023 4:15:00 PM 3.37 38.066 0.112 7 98.13 10.75
2/26/2023 4:30:00 PM 3.4 38.12 0.111 7 98.24 10.76
2/26/2023 4:45:00 PM 3.41 38.138 0.104 7 97.5 10.76
2/26/2023 5:00:00 PM 3.4 38.12 0.114 6.99 97.8 10.77
2/26/2023 5:15:00 PM 3.41 38.138 0.112 7 97.77 10.81
2/26/2023 5:30:00 PM 3.4 38.12 0.106 6.98 97.99 10.79
2/26/2023 5:45:00 PM 3.38 38.084 0.108 6.98 98.05 10.81
2/26/2023 6:00:00 PM 3.36 38.048 0.11 6.99 98.05 10.82
2/26/2023 6:15:00 PM 3.32 37.976 0.112 7 98.01 10.87
2/26/2023 6:30:00 PM 3.28 37.904 0.111 6.98 97.86 10.84
2/26/2023 6:45:00 PM 3.23 37.814 0.111 6.99 97.86 10.9
2/26/2023 7:00:00 PM 3.15 37.67 0.111 6.97 97.89 10.92
2/26/2023 7:15:00 PM 3.08 37.544 0.11 6.98 97.9 10.96
2/26/2023 7:30:00 PM 2.98 37.364 0.11 6.97 97.72 10.97
2/26/2023 7:45:00 PM 2.9 37.22 0.1 6.98 97.73 10.94
2/26/2023 8:00:00 PM 2.82 37.076 0.107 6.98 98.08 10.93
2/26/2023 8:15:00 PM 2.72 36.896 0.108 6.98 98.04 10.94
2/26/2023 8:30:00 PM 2.64 36.752 0.11 6.99 97.88 10.98
2/26/2023 8:45:00 PM 2.57 36.626 0.111 6.99 97.73 10.93
2/26/2023 9:00:00 PM 2.48 36.464 0.109 6.96 97.88 10.95
2/26/2023 9:15:00 PM 2.42 36.356 0.11 6.97 97.94 10.95
2/26/2023 9:30:00 PM 2.35 36.23 0.103 6.96 98 10.94
2/26/2023 9:45:00 PM 2.28 36.104 0.109 6.96 97.96 11.02
2/26/2023 10:00:00 PM 2.21 35.978 0.11 6.98 97.93 11
2/26/2023 10:15:00 PM 2.13 35.834 0.11 6.96 98.14 10.98
2/26/2023 10:30:00 PM 2.07 35.726 0.11 6.97 98.21 10.99
2/26/2023 10:45:00 PM 2.01 35.618 0.111 6.97 98.17 11
2/26/2023 11:00:00 PM 1.94 35.492 0.111 6.97 98.12 10.98
2/26/2023 11:15:00 PM 1.87 35.366 0.108 6.97 98.18 10.97
2/26/2023 11:30:00 PM 1.81 35.258 0.109 6.97 98.27 10.99
2/26/2023 11:45:00 PM 1.75 35.15 0.109 6.96 98.19 10.97
2/27/2023 12:00:00 AM 1.69 35.042 0.11 6.96 98.11 10.98
2/27/2023 12:15:00 AM 1.64 34.952 0.109 6.98 98.28 10.94
2/27/2023 12:30:00 AM 1.6 34.88 0.109 7 98.29 10.97
2/27/2023 12:45:00 AM 1.55 34.79 0.109 6.97 98.56 10.99
2/27/2023 1:00:00 AM 1.51 34.718 0.11 6.98 98.55 11.02
2/27/2023 1:15:00 AM 1.46 34.628 0.11 6.98 98.61 11.01
2/27/2023 1:30:00 AM 1.41 34.538 0.109 6.99 98.4 11.01
2/27/2023 1:45:00 AM 1.37 34.466 0.108 6.99 98.39 11
2/27/2023 2:00:00 AM 1.31 34.358 0.109 6.98 98.25 10.99
2/27/2023 2:15:00 AM 1.26 34.268 0.111 6.98 98.26 10.99
2/27/2023 2:30:00 AM 1.22 34.196 0.11 6.98 98.43 11.01
2/27/2023 2:45:00 AM 1.18 34.124 0.11 7 98.3 10.97
2/27/2023 3:00:00 AM 1.14 34.052 0.111 7.01 98.38 10.97
2/27/2023 3:15:00 AM 1.1 33.98 0.112 7 98.51 11
2/27/2023 3:30:00 AM 1.06 33.908 0.11 6.98 98.4 11
2/27/2023 3:45:00 AM 1.03 33.854 0.11 7 98.33 10.95
2/27/2023 4:00:00 AM 0.99 33.782 0.111 6.99 98.66 11.02
2/27/2023 4:15:00 AM 0.96 33.728 0.113 6.98 98.38 11.04
2/27/2023 4:30:00 AM 0.93 33.674 0.112 6.98 98.47 11.06
2/27/2023 4:45:00 AM 0.9 33.62 0.11 7 98.45 11.06
2/27/2023 5:00:00 AM 0.87 33.566 0.111 6.99 98.52 11.1
2/27/2023 5:15:00 AM 0.83 33.494 0.11 7 98.48 11.1
2/27/2023 5:30:00 AM 0.81 33.458 0.112 7 98.61 11.09
2/27/2023 5:45:00 AM 0.78 33.404 0.11 6.99 98.47 11.11
2/27/2023 6:00:00 AM 0.75 33.35 0.108 6.99 98.55 11.17
2/27/2023 6:15:00 AM 0.73 33.314 0.109 6.99 98.53 11.16
2/27/2023 6:30:00 AM 0.72 33.296 0.113 6.99 98.54 11.17
2/27/2023 6:45:00 AM 0.71 33.278 0.107 6.98 98.53 11.21
2/27/2023 7:00:00 AM 0.71 33.278 0.108 6.99 98.25 11.17
2/27/2023 7:15:00 AM 0.72 33.296 0.108 6.99 98.43 11.19
2/27/2023 7:30:00 AM 0.72 33.296 0.108 6.99 98.47 11.18
2/27/2023 7:45:00 AM 0.73 33.314 0.107 7 98.39 11.18
2/27/2023 8:00:00 AM 0.74 33.332 0.105 6.99 98.45 11.2
2/27/2023 8:15:00 AM 0.75 33.35 0.106 6.98 98.3 11.2
2/27/2023 8:30:00 AM 0.76 33.368 0.107 6.98 98.31 11.21
2/27/2023 8:45:00 AM 0.77 33.386 0.107 6.98 98.37 11.15
2/27/2023 9:00:00 AM 0.8 33.44 0.108 6.99 98.43 11.19
2/27/2023 9:15:00 AM 0.83 33.494 0.108 6.98 98.43 11.16
2/27/2023 9:30:00 AM 0.88 33.584 0.107 7 98.37 11.12
2/27/2023 9:45:00 AM 0.94 33.692 0.107 6.98 98.37 11.12
2/27/2023 10:00:00 AM 1.02 33.836 0.108 6.98 98.19 11.08
2/27/2023 10:15:00 AM 1.11 33.998 0.107 6.99 98.51 11.05
2/27/2023 10:30:00 AM 1.21 34.178 0.107 7 98.14 10.98
2/27/2023 10:45:00 AM 1.32 34.376 0.109 7 98.27 11.01
2/27/2023 11:00:00 AM 1.45 34.61 0.109 7 98.34 11.01
2/27/2023 11:15:00 AM 1.57 34.826 0.108 6.99 98.28 11.03
2/27/2023 11:30:00 AM 1.69 35.042 0.108 7 98.3 11.01
2/27/2023 11:45:00 AM 1.82 35.276 0.108 7 98.38 10.99
2/27/2023 12:00:00 PM 1.97 35.546 0.108 6.99 98.26 10.92
2/27/2023 12:15:00 PM 2.11 35.798 0.108 6.99 98.35 10.91
2/27/2023 12:30:00 PM 2.25 36.05 0.108 7 98.33 10.88
2/27/2023 12:45:00 PM 2.39 36.302 0.106 6.99 98.19 10.8
2/27/2023 1:00:00 PM 2.52 36.536 0.107 7 98.12 10.86
2/27/2023 1:15:00 PM 2.66 36.788 0.107 7 98.07 10.8
2/27/2023 1:30:00 PM 2.79 37.022 0.106 6.98 98.06 10.85
2/27/2023 1:45:00 PM 2.92 37.256 0.106 6.98 98.02 10.86
2/27/2023 2:00:00 PM 3.04 37.472 0.107 6.98 97.88 10.76
2/27/2023 2:15:00 PM 3.15 37.67 0.107 6.98 98.26 10.75
2/27/2023 2:30:00 PM 3.25 37.85 0.108 6.98 98.28 10.73
2/27/2023 2:45:00 PM 3.36 38.048 0.108 6.97 98.31 10.73
2/27/2023 3:00:00 PM 3.44 38.192 0.106 7 98.54 10.72
2/27/2023 3:15:00 PM 3.53 38.354 0.106 6.98 98.41 10.72
2/27/2023 3:30:00 PM 3.59 38.462 0.108 6.98 98.5 10.74
2/27/2023 3:45:00 PM 3.63 38.534 0.107 7 98.31 10.79
2/27/2023 4:00:00 PM 3.68 38.624 0.105 6.99 98.15 10.79
2/27/2023 4:15:00 PM 3.72 38.696 0.107 6.99 98.3 10.82
2/27/2023 4:30:00 PM 3.75 38.75 0.107 6.98 97.98 10.79
2/27/2023 4:45:00 PM 3.77 38.786 0.108 6.99 97.9 10.74
2/27/2023 5:00:00 PM 3.78 38.804 0.108 6.99 97.53 10.77
2/27/2023 5:15:00 PM 3.77 38.786 0.109 6.98 97.15 10.75
2/27/2023 5:30:00 PM 3.74 38.732 0.106 6.98 97.26 10.81
2/27/2023 5:45:00 PM 3.7 38.66 0.108 6.97 96.86 10.77
2/27/2023 6:00:00 PM 3.65 38.57 0.108 6.97 97.02 10.76
2/27/2023 6:15:00 PM 3.59 38.462 0.11 6.95 96.99 10.76
2/27/2023 6:30:00 PM 3.54 38.372 0.111 6.97 97.27 10.74
2/27/2023 6:45:00 PM 3.49 38.282 0.111 6.97 97.98 10.78
2/27/2023 7:00:00 PM 3.44 38.192 0.11 6.97 98.54 10.72
2/27/2023 7:15:00 PM 3.39 38.102 0.11 6.96 97.97 10.69
2/27/2023 7:30:00 PM 3.33 37.994 0.108 6.97 98.3 10.66
2/27/2023 7:45:00 PM 3.25 37.85 0.109 6.98 98.4 10.63
2/27/2023 8:00:00 PM 3.17 37.706 0.109 6.97 98.19 10.68
2/27/2023 8:15:00 PM 3.07 37.526 0.109 6.96 98.37 10.68
2/27/2023 8:30:00 PM 2.98 37.364 0.109 6.97 98.54 10.68
2/27/2023 8:45:00 PM 2.87 37.166 0.11 6.97 98.4 10.69
2/27/2023 9:00:00 PM 2.79 37.022 0.11 6.96 98.38 10.7
2/27/2023 9:15:00 PM 2.68 36.824 0.111 6.95 98.47 10.73
2/27/2023 9:30:00 PM 2.57 36.626 0.109 6.96 98.37 10.7
2/27/2023 9:45:00 PM 2.46 36.428 0.109 6.95 98.55 10.67
2/27/2023 10:00:00 PM 2.34 36.212 0.11 6.95 98.36 10.67
2/27/2023 10:15:00 PM 2.23 36.014 0.109 6.96 98.36 10.63
2/27/2023 10:30:00 PM 2.12 35.816 0.109 6.95 98.37 10.68
2/27/2023 10:45:00 PM 2 35.6 0.109 6.95 98.49 10.62
2/27/2023 11:00:00 PM 1.91 35.438 0.107 6.95 98.61 10.63
2/27/2023 11:15:00 PM 1.8 35.24 0.107 6.94 98.48 10.71
2/27/2023 11:30:00 PM 1.69 35.042 0.106 6.93 98.65 10.78
2/27/2023 11:45:00 PM 1.6 34.88 0.107 6.94 98.77 10.72
2/28/2023 12:00:00 AM 1.5 34.7 0.107 6.94 98.7 10.63
2/28/2023 12:15:00 AM 1.41 34.538 0.107 6.92 98.65 10.72
2/28/2023 12:30:00 AM 1.33 34.394 0.107 6.92 98.36 10.71
2/28/2023 12:45:00 AM 1.23 34.214 0.107 6.93 98.31 10.73
2/28/2023 1:00:00 AM 1.14 34.052 0.107 6.93 98.31 10.73
2/28/2023 1:15:00 AM 1.04 33.872 0.107 6.92 98.41 10.73
2/28/2023 1:30:00 AM 0.95 33.71 0.108 6.93 98.05 10.77
2/28/2023 1:45:00 AM 0.86 33.548 0.105 6.92 98 10.85
2/28/2023 2:00:00 AM 0.78 33.404 0.106 6.91 98.08 10.89
2/28/2023 2:15:00 AM 0.71 33.278 0.109 6.91 98.3 10.87
2/28/2023 2:30:00 AM 0.65 33.17 0.112 6.9 98.61 10.9
2/28/2023 2:45:00 AM 0.61 33.098 0.111 6.92 98.77 10.93
2/28/2023 3:00:00 AM 0.58 33.044 0.11 6.92 98.64 10.94
2/28/2023 3:15:00 AM 0.56 33.008 0.11 6.91 98.63 11
2/28/2023 3:30:00 AM 0.56 33.008 0.109 6.92 98.48 10.96
2/28/2023 3:45:00 AM 0.56 33.008 0.11 6.9 98.49 10.97
2/28/2023 4:00:00 AM 0.55 32.99 0.112 6.92 98.76 10.95
2/28/2023 4:15:00 AM 0.55 32.99 0.108 6.9 98.81 10.98
2/28/2023 4:30:00 AM 0.55 32.99 0.109 6.9 99.17 11.03
2/28/2023 4:45:00 AM 0.55 32.99 0.117 6.89 99.39 11.01
2/28/2023 5:00:00 AM 0.56 33.008 0.115 6.91 98.92 10.97
2/28/2023 5:15:00 AM 0.56 33.008 0.117 6.93 98.61 10.9
2/28/2023 5:30:00 AM 0.58 33.044 0.121 6.92 98.49 10.94
2/28/2023 5:45:00 AM 0.59 33.062 0.122 6.91 98.33 10.99
2/28/2023 6:00:00 AM 0.6 33.08 0.114 6.92 98.86 11
2/28/2023 6:15:00 AM 0.62 33.116 0.116 6.91 99.41 10.99
2/28/2023 6:30:00 AM 0.63 33.134 0.121 6.93 98.64 10.94
2/28/2023 6:45:00 AM 0.64 33.152 0.116 6.92 99.06 10.93
2/28/2023 7:00:00 AM 0.64 33.152 0.117 6.93 98.94 10.92
2/28/2023 7:15:00 AM 0.64 33.152 0.124 6.93 98.79 10.9
2/28/2023 7:30:00 AM 0.65 33.17 0.124 6.94 98.73 10.89
2/28/2023 7:45:00 AM 0.65 33.17 0.116 6.92 99.15 10.9
2/28/2023 8:00:00 AM 0.66 33.188 0.117 6.94 99.31 10.84
2/28/2023 8:15:00 AM 0.67 33.206 0.125 6.94 99.13 10.79
2/28/2023 8:30:00 AM 0.68 33.224 0.127 6.95 99.45 10.77
2/28/2023 8:45:00 AM 0.69 33.242 0.129 6.95 99.51 10.79
2/28/2023 9:00:00 AM 0.7 33.26 0.131 6.94 99.31 10.81
2/28/2023 9:15:00 AM 0.72 33.296 0.129 6.93 99.31 10.8
2/28/2023 9:30:00 AM 0.74 33.332 0.125 6.94 99.9 10.84
2/28/2023 9:45:00 AM 0.76 33.368 0.133 6.94 100.39 10.86
2/28/2023 10:00:00 AM 0.78 33.404 0.134 6.95 99.83 10.87
2/28/2023 10:15:00 AM 0.8 33.44 0.133 6.96 99.94 10.88
2/28/2023 10:30:00 AM 0.83 33.494 0.128 6.94 100.2 10.9
2/28/2023 10:45:00 AM 0.86 33.548 0.129 6.95 100.41 10.91
2/28/2023 11:00:00 AM 0.91 33.638 0.127 6.96 99.8 10.94
2/28/2023 11:15:00 AM 0.97 33.746 0.16 6.95 100.54 10.9
2/28/2023 11:30:00 AM 1.03 33.854 0.127 6.95 100.39 10.93
2/28/2023 11:45:00 AM 1.09 33.962 0.133 6.96 99.75 10.95
2/28/2023 12:00:00 PM 1.15 34.07 0.136 6.94 99.45 10.96
2/28/2023 12:15:00 PM 1.21 34.178 0.131 6.94 99.45 10.94
2/28/2023 12:30:00 PM 1.27 34.286 0.13 6.95 99.64 10.96
2/28/2023 12:45:00 PM 1.34 34.412 0.129 6.94 99.8 10.95
2/28/2023 1:00:00 PM 1.42 34.556 0.142 6.94 99.6 10.97
2/28/2023 1:15:00 PM 1.49 34.682 0.136 6.94 99.47 10.98
2/28/2023 1:30:00 PM 1.56 34.808 0.138 6.96 99.48 10.97
2/28/2023 1:45:00 PM 1.63 34.934 0.127 6.94 100.61 10.98
2/28/2023 2:00:00 PM 1.7 35.06 0.15 6.94 99.79 10.99
2/28/2023 2:15:00 PM 1.77 35.186 0.142 6.93 99.46 10.97
2/28/2023 2:30:00 PM 1.84 35.312 0.138 6.93 100.33 10.96
2/28/2023 2:45:00 PM 1.91 35.438 0.154 6.94 99.93 10.91
2/28/2023 3:00:00 PM 1.97 35.546 0.207 6.94 100.65 10.92
2/28/2023 3:15:00 PM 2.03 35.654 0.32 6.93 100.82 10.88
2/28/2023 3:30:00 PM 2.1 35.78 0.179 6.93 100.45 10.86
2/28/2023 3:45:00 PM 2.17 35.906 0.175 6.93 100.98 10.88
2/28/2023 4:00:00 PM 2.23 36.014 0.177 6.94 100.77 10.94
2/28/2023 4:15:00 PM 2.28 36.104 0.194 6.92 100.13 10.96
2/28/2023 4:30:00 PM 2.33 36.194 0.182 6.93 100.01 10.94
2/28/2023 4:45:00 PM 2.38 36.284 0.194 6.92 99.85 10.93
2/28/2023 5:00:00 PM 2.43 36.374 0.179 6.93 99.66 11.01
2/28/2023 5:15:00 PM 2.47 36.446 0.174 6.92 99.88 10.97
2/28/2023 5:30:00 PM 2.51 36.518 0.243 6.93 99.68 11.02
2/28/2023 5:45:00 PM 2.54 36.572 0.17 6.92 101.77 11.01
2/28/2023 6:00:00 PM 2.57 36.626 0.198 6.93 100.98 10.99
2/28/2023 6:15:00 PM 2.59 36.662 0.189 6.94 100.66 11.02
2/28/2023 6:30:00 PM 2.61 36.698 0.194 6.93 100.45 10.99
2/28/2023 6:45:00 PM 2.61 36.698 0.188 6.94 100.4 11.04
2/28/2023 7:00:00 PM 2.61 36.698 0.166 6.94 99.9 11.02
2/28/2023 7:15:00 PM 2.61 36.698 0.164 6.93 99.78 11.04
2/28/2023 7:30:00 PM 2.6 36.68 0.159 6.92 101.39 11.05
2/28/2023 7:45:00 PM 2.59 36.662 0.163 6.92 100.41 11
2/28/2023 8:00:00 PM 2.58 36.644 0.173 6.92 100.47 11
2/28/2023 8:15:00 PM 2.57 36.626 0.163 6.91 99.99 10.97
2/28/2023 8:30:00 PM 2.56 36.608 0.713 6.91 101.34 10.96
2/28/2023 8:45:00 PM 2.55 36.59 0.218 6.93 100.28 10.88
2/28/2023 9:00:00 PM 2.54 36.572 0.487 6.92 99.89 10.88
2/28/2023 9:15:00 PM 2.53 36.554 0.6 6.92 99.97 10.81
2/28/2023 9:30:00 PM 2.51 36.518 0.214 6.92 100.32 10.78
2/28/2023 9:45:00 PM 2.5 36.5 0.195 6.92 100.18 10.8
2/28/2023 10:00:00 PM 2.48 36.464 0.203 6.92 100.45 10.76
2/28/2023 10:15:00 PM 2.46 36.428 0.161 6.91 100.55 10.8
2/28/2023 10:30:00 PM 2.44 36.392 0.17 6.91 100.48 10.78
2/28/2023 10:45:00 PM 2.42 36.356 0.184 6.93 100.51 10.72
2/28/2023 11:00:00 PM 2.39 36.302 0.179 6.92 100.31 10.71
2/28/2023 11:15:00 PM 2.36 36.248 0.158 6.91 100.18 10.78
2/28/2023 11:30:00 PM 2.33 36.194 0.194 6.91 100.25 10.77
2/28/2023 11:45:00 PM 2.3 36.14 0.165 6.91 100.1 10.79
3/1/2023 12:00:00 AM 2.26 36.068 0.184 6.91 100.1 10.78
3/1/2023 12:15:00 AM 2.23 36.014 0.166 6.91 99.91 10.77
3/1/2023 12:30:00 AM 2.19 35.942 0.162 6.91 100.1 10.78
3/1/2023 12:45:00 AM 2.15 35.87 0.143 6.9 100.06 10.76
3/1/2023 1:00:00 AM 2.11 35.798 0.153 6.91 99.98 10.77
3/1/2023 1:15:00 AM 2.08 35.744 0.149 6.9 99.96 10.72
3/1/2023 1:30:00 AM 2.04 35.672 0.15 6.9 99.74 10.72
3/1/2023 1:45:00 AM 2 35.6 0.155 6.91 99.71 10.74
3/1/2023 2:00:00 AM 1.97 35.546 0.149 6.91 99.46 10.73
3/1/2023 2:15:00 AM 1.93 35.474 0.144 6.9 99.64 10.72
3/1/2023 2:30:00 AM 1.9 35.42 0.13 6.9 99.37 10.73
3/1/2023 2:45:00 AM 1.87 35.366 0.131 6.91 99.58 10.64
3/1/2023 3:00:00 AM 1.84 35.312 0.128 6.91 99.55 10.62
3/1/2023 3:15:00 AM 1.8 35.24 0.129 6.9 99.58 10.65
3/1/2023 3:30:00 AM 1.76 35.168 0.137 6.9 99.64 10.66
3/1/2023 3:45:00 AM 1.73 35.114 0.133 6.9 99.64 10.64
3/1/2023 4:00:00 AM 1.69 35.042 0.135 6.91 99.64 10.66
3/1/2023 4:15:00 AM 1.66 34.988 0.143 6.9 99.58 10.66
3/1/2023 4:30:00 AM 1.63 34.934 0.147 6.91 99.65 10.64
3/1/2023 4:45:00 AM 1.6 34.88 0.148 6.9 99.5 10.61
3/1/2023 5:00:00 AM 1.57 34.826 0.141 6.92 99.56 10.58
3/1/2023 5:15:00 AM 1.54 34.772 0.133 6.92 99.51 10.55
3/1/2023 5:30:00 AM 1.52 34.736 0.133 6.91 99.67 10.58
3/1/2023 5:45:00 AM 1.49 34.682 0.134 6.91 99.63 10.66
3/1/2023 6:00:00 AM 1.46 34.628 0.126 6.91 99.34 10.65
3/1/2023 6:15:00 AM 1.44 34.592 0.126 6.9 99.36 10.7
3/1/2023 6:30:00 AM 1.42 34.556 0.113 6.9 99.45 10.64
3/1/2023 6:45:00 AM 1.39 34.502 0.115 6.9 99.32 10.69
3/1/2023 7:00:00 AM 1.36 34.448 0.112 6.89 99.34 10.73
3/1/2023 7:15:00 AM 1.33 34.394 0.115 6.9 99.34 10.71
3/1/2023 7:30:00 AM 1.3 34.34 0.117 6.9 99.1 10.72
3/1/2023 7:45:00 AM 1.27 34.286 0.122 6.88 99.1 10.75
3/1/2023 8:00:00 AM 1.25 34.25 0.124 6.9 99.13 10.74
3/1/2023 8:15:00 AM 1.21 34.178 0.122 6.89 99.24 10.79
3/1/2023 8:30:00 AM 1.18 34.124 0.121 6.89 99.1 10.86
3/1/2023 8:45:00 AM 1.16 34.088 0.124 6.89 99.51 10.86
3/1/2023 9:00:00 AM 1.17 34.106 0.121 6.89 99.45 10.89
3/1/2023 9:15:00 AM 1.18 34.124 0.125 6.89 99.01 10.91
3/1/2023 9:30:00 AM 1.19 34.142 0.126 6.89 99.14 10.94
3/1/2023 9:45:00 AM 1.22 34.196 0.125 6.91 99.04 10.93
3/1/2023 10:00:00 AM 1.26 34.268 0.129 6.91 98.87 10.89
3/1/2023 10:15:00 AM 1.31 34.358 0.129 6.91 98.9 10.8
3/1/2023 10:30:00 AM 1.37 34.466 0.125 6.92 98.86 10.8
3/1/2023 10:45:00 AM 1.44 34.592 0.129 6.92 98.69 10.83
3/1/2023 11:00:00 AM 1.53 34.754 0.129 6.92 98.64 10.85
3/1/2023 11:15:00 AM 1.61 34.898 0.13 6.92 98.77 10.86
3/1/2023 11:30:00 AM 1.69 35.042 0.131 6.92 98.82 10.88
3/1/2023 11:45:00 AM 1.78 35.204 0.134 6.91 99.26 10.91
3/1/2023 12:00:00 PM 1.86 35.348 0.134 6.93 98.9 10.93
3/1/2023 12:15:00 PM 1.93 35.474 0.134 6.92 98.99 10.92
3/1/2023 12:30:00 PM 2.03 35.654 0.133 6.93 98.79 10.9
3/1/2023 12:45:00 PM 2.14 35.852 0.133 6.92 98.58 10.85
3/1/2023 1:00:00 PM 2.24 36.032 0.132 6.94 98.74 10.8
3/1/2023 1:15:00 PM 2.34 36.212 0.128 6.94 98.87 10.77
3/1/2023 1:30:00 PM 2.42 36.356 0.133 6.92 98.96 10.76
3/1/2023 1:45:00 PM 2.5 36.5 0.132 6.93 98.82 10.79
3/1/2023 2:00:00 PM 2.57 36.626 0.133 6.93 98.91 10.79
3/1/2023 2:15:00 PM 2.63 36.734 0.131 6.93 99 10.83
3/1/2023 2:30:00 PM 2.69 36.842 0.136 6.94 98.92 10.81
3/1/2023 2:45:00 PM 2.75 36.95 0.143 6.94 98.95 10.87
3/1/2023 3:00:00 PM 2.81 37.058 0.138 6.93 98.79 10.88
3/1/2023 3:15:00 PM 2.87 37.166 0.138 6.92 98.67 10.84
3/1/2023 3:30:00 PM 2.94 37.292 0.139 6.93 98.49 10.89
3/1/2023 3:45:00 PM 3 37.4 0.141 6.94 98.48 10.91
3/1/2023 4:00:00 PM 3.04 37.472 0.141 6.93 98.47 10.94
3/1/2023 4:15:00 PM 3.08 37.544 0.138 6.95 98.48 10.8
3/1/2023 4:30:00 PM 3.1 37.58 0.141 6.93 98.7 10.92
3/1/2023 4:45:00 PM 3.12 37.616 0.141 6.93 98.51 10.91
3/1/2023 5:00:00 PM 3.14 37.652 0.141 6.92 98.56 10.79
3/1/2023 5:15:00 PM 3.15 37.67 0.142 6.93 98.5 10.78
3/1/2023 5:30:00 PM 3.17 37.706 0.144 6.93 98.63 10.8
3/1/2023 5:45:00 PM 3.18 37.724 0.143 6.94 98.48 10.81
3/1/2023 6:00:00 PM 3.19 37.742 0.143 6.93 98.44 10.76
3/1/2023 6:15:00 PM 3.18 37.724 0.146 6.94 98.4 10.73
3/1/2023 6:30:00 PM 3.17 37.706 0.147 6.93 98.44 10.79
3/1/2023 6:45:00 PM 3.14 37.652 0.145 6.93 98.44 10.79
3/1/2023 7:00:00 PM 3.1 37.58 0.141 6.92 98.38 10.7
3/1/2023 7:15:00 PM 3.06 37.508 0.146 6.92 98.58 10.72
3/1/2023 7:30:00 PM 3.01 37.418 0.144 6.93 98.53 10.67
3/1/2023 7:45:00 PM 2.97 37.346 0.148 6.93 98.61 10.62
3/1/2023 8:00:00 PM 2.92 37.256 0.147 6.93 98.67 10.6
3/1/2023 8:15:00 PM 2.88 37.184 0.148 6.92 98.56 10.61
3/1/2023 8:30:00 PM 2.84 37.112 0.144 6.94 98.49 10.69
3/1/2023 8:45:00 PM 2.79 37.022 0.149 6.93 98.48 10.66
3/1/2023 9:00:00 PM 2.74 36.932 0.15 6.94 98.46 10.68
3/1/2023 9:15:00 PM 2.69 36.842 0.145 6.94 98.73 10.67
3/1/2023 9:30:00 PM 2.63 36.734 0.148 6.92 98.76 10.63
3/1/2023 9:45:00 PM 2.57 36.626 0.15 6.92 98.95 10.73
3/1/2023 10:00:00 PM 2.52 36.536 0.15 6.94 99.06 10.59
3/1/2023 10:15:00 PM 2.45 36.41 0.147 6.92 99.09 10.6
3/1/2023 10:30:00 PM 2.4 36.32 0.148 6.92 99.05 10.66
3/1/2023 10:45:00 PM 2.34 36.212 0.146 6.91 99.05 10.6
3/1/2023 11:00:00 PM 2.29 36.122 0.145 6.92 98.94 10.59
3/1/2023 11:15:00 PM 2.23 36.014 0.145 6.93 99.03 10.54
3/1/2023 11:30:00 PM 2.17 35.906 0.147 6.92 99 10.51
3/1/2023 11:45:00 PM 2.12 35.816 0.138 6.9 99.07 10.51
3/2/2023 12:00:00 AM 2.07 35.726 0.145 6.91 99.03 10.43
3/2/2023 12:15:00 AM 2.02 35.636 0.14 6.92 99.01 10.33
3/2/2023 12:30:00 AM 1.98 35.564 0.145 6.9 99.04 10.33
3/2/2023 12:45:00 AM 1.95 35.51 0.141 6.92 99.18 10.35
3/2/2023 1:00:00 AM 1.92 35.456 0.139 6.9 99.08 10.4
3/2/2023 1:15:00 AM 1.89 35.402 0.143 6.91 99.18 10.31
3/2/2023 1:30:00 AM 1.86 35.348 0.147 6.91 99.01 10.34
3/2/2023 1:45:00 AM 1.84 35.312 0.145 6.91 99.23 10.37
3/2/2023 2:00:00 AM 1.83 35.294 0.14 6.91 99.25 10.36
3/2/2023 2:15:00 AM 1.81 35.258 0.138 6.88 99.75 10.39
3/2/2023 2:30:00 AM 1.79 35.222 0.134 6.89 99.68 10.39
3/2/2023 2:45:00 AM 1.78 35.204 0.135 6.91 99.59 10.34
3/2/2023 3:00:00 AM 1.77 35.186 0.138 6.89 99.33 10.32
3/2/2023 3:15:00 AM 1.77 35.186 0.14 6.91 99.42 10.36
3/2/2023 3:30:00 AM 1.77 35.186 0.13 6.89 99.41 10.35
3/2/2023 3:45:00 AM 1.76 35.168 0.141 6.9 98.75 10.33
3/2/2023 4:00:00 AM 1.76 35.168 0.148 6.9 98.7 10.36
3/2/2023 4:15:00 AM 1.76 35.168 0.142 6.91 98.66 10.39
3/2/2023 4:30:00 AM 1.75 35.15 0.143 6.91 98.69 10.36
3/2/2023 4:45:00 AM 1.76 35.168 0.141 6.92 99.23 10.33
3/2/2023 5:00:00 AM 1.76 35.168 0.123 6.91 98.67 10.38
3/2/2023 5:15:00 AM 1.76 35.168 0.126 6.89 99.19 10.37
3/2/2023 5:30:00 AM 1.77 35.186 0.127 6.91 99.26 10.4
3/2/2023 5:45:00 AM 1.78 35.204 0.125 6.88 99.6 10.36
3/2/2023 6:00:00 AM 1.79 35.222 0.131 6.9 99.12 10.23
3/2/2023 6:15:00 AM 1.8 35.24 0.125 6.88 99.46 10.2
3/2/2023 6:30:00 AM 1.81 35.258 0.135 6.91 98.93 10.12
3/2/2023 6:45:00 AM 1.82 35.276 0.132 6.89 99.51 10.18
3/2/2023 7:00:00 AM 1.83 35.294 0.145 6.92 99.22 10.25
3/2/2023 7:15:00 AM 1.84 35.312 0.129 6.89 100.38 10.23
3/2/2023 7:30:00 AM 1.86 35.348 0.126 6.91 99.32 10.21
3/2/2023 7:45:00 AM 1.87 35.366 0.129 6.9 99.1 10.24
3/2/2023 8:00:00 AM 1.89 35.402 0.121 6.91 98.81 10.25
3/2/2023 8:15:00 AM 1.9 35.42 0.12 6.88 99.69 10.26
3/2/2023 8:30:00 AM 1.92 35.456 0.128 6.91 99.25 10.19
3/2/2023 8:45:00 AM 1.93 35.474 0.126 6.89 99.02 10.25
3/2/2023 9:00:00 AM 1.94 35.492 0.123 6.9 98.94 10.2
3/2/2023 9:15:00 AM 1.95 35.51 0.118 6.89 99.9 10.14
3/2/2023 9:30:00 AM 1.97 35.546 0.143 6.89 99.47 10.12
3/2/2023 9:45:00 AM 1.99 35.582 0.113 6.9 100.72 10.13
3/2/2023 10:00:00 AM 2.01 35.618 0.13 6.9 99.72 10.22
3/2/2023 10:15:00 AM 2.04 35.672 0.123 6.92 99.42 10.2
3/2/2023 10:30:00 AM 2.09 35.762 0.12 6.91 100.83 10.19
3/2/2023 10:45:00 AM 2.14 35.852 0.123 6.88 100.81 10.21
3/2/2023 11:00:00 AM 2.21 35.978 0.117 6.88 100.73 10.18
3/2/2023 11:15:00 AM 2.29 36.122 0.12 6.91 98.76 10.16
3/2/2023 11:30:00 AM 2.38 36.284 0.117 6.92 98.07 10.12
3/2/2023 11:45:00 AM 2.49 36.482 0.104 6.91 99.01 10.18
3/2/2023 12:00:00 PM 2.64 36.752 0.12 6.93 98.57 10.11
3/2/2023 12:15:00 PM 2.75 36.95 0.133 6.91 100.17 10.07
3/2/2023 12:30:00 PM 2.9 37.22 0.128 6.91 101.8 9.94
3/2/2023 12:45:00 PM 3.06 37.508 0.136 6.92 100.53 10.01
3/2/2023 1:00:00 PM 3.21 37.778 0.129 6.93 100.38 9.95
3/2/2023 1:15:00 PM 3.37 38.066 0.127 6.93 100.4 10
3/2/2023 1:30:00 PM 3.54 38.372 0.127 6.93 100.71 10.02
3/2/2023 1:45:00 PM 3.69 38.642 0.123 6.94 100.46 10.01
3/2/2023 2:00:00 PM 3.82 38.876 0.122 6.93 100.18 10.01
3/2/2023 2:15:00 PM 3.95 39.11 0.122 6.95 100.09 9.91
3/2/2023 2:30:00 PM 4.08 39.344 0.122 6.95 100.22 9.9
3/2/2023 2:45:00 PM 4.23 39.614 0.124 6.94 99.8 9.8
3/2/2023 3:00:00 PM 4.36 39.848 0.122 6.93 99.21 9.76
3/2/2023 3:15:00 PM 4.44 39.992 0.123 6.91 99.97 9.77
3/2/2023 3:30:00 PM 4.5 40.1 0.124 6.92 99.63 9.78
3/2/2023 3:45:00 PM 4.52 40.136 0.125 6.91 99.47 9.75
3/2/2023 4:00:00 PM 4.55 40.19 0.124 6.9 99.31 9.7
3/2/2023 4:15:00 PM 4.61 40.298 0.122 6.92 99.19 9.66
3/2/2023 4:30:00 PM 4.65 40.37 0.122 6.92 99.26 9.64
3/2/2023 4:45:00 PM 4.68 40.424 0.123 6.92 99.78 9.65
3/2/2023 5:00:00 PM 4.68 40.424 0.121 6.92 99.37 9.67
3/2/2023 5:15:00 PM 4.67 40.406 0.122 6.91 98.97 9.72
3/2/2023 5:30:00 PM 4.63 40.334 0.12 6.9 99 9.72
3/2/2023 5:45:00 PM 4.58 40.244 0.123 6.92 99.13 9.7
3/2/2023 6:00:00 PM 4.52 40.136 0.12 6.9 99.24 9.72
3/2/2023 6:15:00 PM 4.46 40.028 0.122 6.89 98.95 9.75
3/2/2023 6:30:00 PM 4.39 39.902 0.126 6.9 98.61 9.74
3/2/2023 6:45:00 PM 4.32 39.776 0.135 6.9 97.87 9.78
3/2/2023 7:00:00 PM 4.24 39.632 0.125 6.9 98.17 9.82
3/2/2023 7:15:00 PM 4.15 39.47 0.121 6.91 97.75 9.76
3/2/2023 7:30:00 PM 4.03 39.254 0.122 6.91 98.25 9.81
3/2/2023 7:45:00 PM 3.91 39.038 0.123 6.91 97.89 9.82
3/2/2023 8:00:00 PM 3.81 38.858 0.122 6.9 97.64 9.88
3/2/2023 8:15:00 PM 3.71 38.678 0.124 6.91 97.24 9.92
3/2/2023 8:30:00 PM 3.6 38.48 0.123 6.91 97.28 9.93
3/2/2023 8:45:00 PM 3.49 38.282 0.123 6.92 97.57 9.99
3/2/2023 9:00:00 PM 3.38 38.084 0.122 6.91 97.53 9.96
3/2/2023 9:15:00 PM 3.28 37.904 0.124 6.92 97.45 10.05
3/2/2023 9:30:00 PM 3.19 37.742 0.124 6.92 97.74 10.06
3/2/2023 9:45:00 PM 3.1 37.58 0.123 6.92 97.75 10.08
3/2/2023 10:00:00 PM 3.02 37.436 0.126 6.91 97.97 10.13
3/2/2023 10:15:00 PM 2.9 37.22 0.126 6.93 98.05 10.13
3/2/2023 10:30:00 PM 2.82 37.076 0.127 6.92 97.58 10.11
3/2/2023 10:45:00 PM 2.75 36.95 0.126 6.91 98.06 10.1
3/2/2023 11:00:00 PM 2.67 36.806 0.125 6.92 97.6 10.06
3/2/2023 11:15:00 PM 2.59 36.662 0.126 6.91 97.91 10.16
3/2/2023 11:30:00 PM 2.53 36.554 0.125 6.92 97.13 10.16
3/2/2023 11:45:00 PM 2.47 36.446 0.128 6.91 96.68 10.12
3/3/2023 12:00:00 AM 2.43 36.374 0.131 6.92 96.58 10.1
3/3/2023 12:15:00 AM 2.38 36.284 0.129 6.93 96.73 10.25
3/3/2023 12:30:00 AM 2.33 36.194 0.132 6.91 96.09 10.27
3/3/2023 12:45:00 AM 2.28 36.104 0.132 6.91 96.23 10.3
3/3/2023 1:00:00 AM 2.24 36.032 0.129 6.91 96.33 10.28
3/3/2023 1:15:00 AM 2.2 35.96 0.128 6.91 96.02 10.23
3/3/2023 1:30:00 AM 2.16 35.888 0.128 6.92 96.29 10.27
3/3/2023 1:45:00 AM 2.13 35.834 0.128 6.92 96.37 10.23
3/3/2023 2:00:00 AM 2.09 35.762 0.127 6.91 96.38 10.32
3/3/2023 2:15:00 AM 2.06 35.708 0.127 6.91 96.15 10.31
3/3/2023 2:30:00 AM 2.03 35.654 0.127 6.91 95.65 10.32
3/3/2023 2:45:00 AM 2 35.6 0.127 6.9 95.76 10.34
3/3/2023 3:00:00 AM 1.98 35.564 0.119 6.88 97.01 10.35
3/3/2023 3:15:00 AM 1.97 35.546 0.124 6.86 96.66 10.35
3/3/2023 3:30:00 AM 1.94 35.492 0.134 6.87 96.17 10.36
3/3/2023 3:45:00 AM 1.92 35.456 0.144 6.88 97.76 10.37
3/3/2023 4:00:00 AM 1.9 35.42 0.152 6.89 96.84 10.44
3/3/2023 4:15:00 AM 1.88 35.384 0.154 6.92 95.98 10.42
3/3/2023 4:30:00 AM 1.86 35.348 0.152 6.9 95.85 10.52
3/3/2023 4:45:00 AM 1.84 35.312 0.165 6.91 95.7 10.42
3/3/2023 5:00:00 AM 1.82 35.276 0.159 6.9 95.52 10.49
3/3/2023 5:15:00 AM 1.81 35.258 0.162 6.89 95.28 10.53
3/3/2023 5:30:00 AM 1.8 35.24 0.134 6.87 96.24 10.59
3/3/2023 5:45:00 AM 1.78 35.204 0.146 6.91 96 10.6
3/3/2023 6:00:00 AM 1.77 35.186 0.142 6.9 95.42 10.6
3/3/2023 6:15:00 AM 1.76 35.168 0.136 6.89 95.35 10.57
3/3/2023 6:30:00 AM 1.74 35.132 0.139 6.89 94.72 10.61
3/3/2023 6:45:00 AM 1.73 35.114 0.133 6.9 94.74 10.58
3/3/2023 7:00:00 AM 1.73 35.114 0.114 6.88 95.79 10.57
3/3/2023 7:15:00 AM 1.72 35.096 0.136 6.88 96.02 10.63
3/3/2023 7:30:00 AM 1.72 35.096 0.134 6.9 95.99 10.64
3/3/2023 7:45:00 AM 1.72 35.096 0.132 6.87 94.91 10.7
3/3/2023 8:00:00 AM 1.72 35.096 0.138 6.93 95.07 10.53
3/3/2023 8:15:00 AM 1.72 35.096 0.128 6.93 95.19 10.59
3/3/2023 8:30:00 AM 1.74 35.132 0.131 6.96 95.22 10.56
3/3/2023 8:45:00 AM 1.76 35.168 0.131 6.95 95.2 10.61
3/3/2023 9:00:00 AM 1.79 35.222 0.133 6.93 95.23 10.57
3/3/2023 9:15:00 AM 1.83 35.294 0.137 6.95 94.53 10.62
3/3/2023 9:30:00 AM 1.88 35.384 0.134 6.92 94.83 10.64
3/3/2023 9:45:00 AM 1.94 35.492 0.134 6.94 94.57 10.53
3/3/2023 10:00:00 AM 2.01 35.618 0.134 6.93 94.72 10.7
3/3/2023 10:15:00 AM 2.09 35.762 0.14 6.92 94.75 10.64
3/3/2023 10:30:00 AM 2.19 35.942 0.137 6.92 94.87 10.56
3/3/2023 10:45:00 AM 2.3 36.14 0.134 6.9 94.94 10.48
3/3/2023 11:00:00 AM 2.42 36.356 0.128 6.96 94.61 10.55
3/3/2023 11:15:00 AM 2.55 36.59 0.134 6.93 94.89 10.51
3/3/2023 11:30:00 AM 2.66 36.788 0.134 6.95 94.84 10.51
3/3/2023 11:45:00 AM 2.8 37.04 0.138 6.96 95.22 10.39
3/3/2023 12:00:00 PM 2.93 37.274 0.14 7 95.33 10.45
3/3/2023 12:15:00 PM 3.05 37.49 0.143 6.99 96.62 10.47
3/3/2023 12:30:00 PM 3.17 37.706 0.141 6.98 95.59 10.64
3/3/2023 12:45:00 PM 3.27 37.886 0.138 6.98 95.61 10.67
3/3/2023 1:00:00 PM 3.39 38.102 0.136 6.99 95.07 10.59
3/3/2023 1:15:00 PM 3.51 38.318 0.136 6.96 95.32 10.62
3/3/2023 1:30:00 PM 3.6 38.48 0.136 6.98 95.31 10.72
3/3/2023 1:45:00 PM 3.7 38.66 0.138 6.98 95.45 10.76
3/3/2023 2:00:00 PM 3.76 38.768 0.136 6.98 95.08 10.82
3/3/2023 2:15:00 PM 3.81 38.858 0.138 6.99 95.29 10.81
3/3/2023 2:30:00 PM 3.85 38.93 0.136 6.98 95.53 10.96
3/3/2023 2:45:00 PM 3.86 38.948 0.133 6.94 96.53 10.97
3/3/2023 3:00:00 PM 3.89 39.002 0.137 6.98 96.71 10.82
3/3/2023 3:15:00 PM 3.91 39.038 0.145 6.97 95.68 10.85
3/3/2023 3:30:00 PM 3.92 39.056 0.143 7 95.66 10.85
3/3/2023 3:45:00 PM 3.93 39.074 0.147 7.01 95.56 10.98
3/3/2023 4:00:00 PM 3.92 39.056 0.139 6.99 96.58 11.06
3/3/2023 4:15:00 PM 3.91 39.038 0.157 6.98 95.89 11.14
3/3/2023 4:30:00 PM 3.89 39.002 0.154 6.96 96.04 11.06
3/3/2023 4:45:00 PM 3.86 38.948 0.142 6.96 95.97 10.91
3/3/2023 5:00:00 PM 3.84 38.912 0.124 6.96 97.08 10.99
3/3/2023 5:15:00 PM 3.81 38.858 0.132 6.95 97.05 10.96
3/3/2023 5:30:00 PM 3.77 38.786 0.136 6.96 96.12 11.02
3/3/2023 5:45:00 PM 3.73 38.714 0.132 6.96 95.58 11
3/3/2023 6:00:00 PM 3.68 38.624 0.147 6.96 95.5 10.96
3/3/2023 6:15:00 PM 3.64 38.552 0.145 6.97 95.42 10.86
3/3/2023 6:30:00 PM 3.58 38.444 0.144 6.96 95.63 10.95
3/3/2023 6:45:00 PM 3.51 38.318 0.142 6.95 95.71 10.88
3/3/2023 7:00:00 PM 3.44 38.192 0.152 6.95 95.63 10.92
3/3/2023 7:15:00 PM 3.35 38.03 0.125 6.94 96.04 10.78
3/3/2023 7:30:00 PM 3.24 37.832 0.122 6.95 95.77 10.78
3/3/2023 7:45:00 PM 3.12 37.616 0.131 6.96 95.67 10.74
3/3/2023 8:00:00 PM 2.99 37.382 0.134 6.97 95.67 10.71
3/3/2023 8:15:00 PM 2.88 37.184 0.134 6.97 95.41 10.78
3/3/2023 8:30:00 PM 2.78 37.004 0.123 6.95 96.4 10.76
3/3/2023 8:45:00 PM 2.69 36.842 0.13 6.96 96.09 10.64
3/3/2023 9:00:00 PM 2.59 36.662 0.131 6.98 96.26 10.68
3/3/2023 9:15:00 PM 2.49 36.482 0.132 6.97 96.44 10.79
3/3/2023 9:30:00 PM 2.38 36.284 0.134 7 96.44 10.73
3/3/2023 9:45:00 PM 2.27 36.086 0.135 6.99 95.76 10.75
3/3/2023 10:00:00 PM 2.17 35.906 0.139 6.98 96.19 10.82
3/3/2023 10:15:00 PM 2.08 35.744 0.142 6.98 96.21 10.75
3/3/2023 10:30:00 PM 2.01 35.618 0.144 6.97 96.11 10.8
3/3/2023 10:45:00 PM 1.93 35.474 0.145 6.95 96.24 10.74
3/3/2023 11:00:00 PM 1.84 35.312 0.145 6.95 96.1 10.72
3/3/2023 11:15:00 PM 1.75 35.15 0.141 6.96 95.85 10.7
3/3/2023 11:30:00 PM 1.65 34.97 0.14 6.95 96.09 10.69
3/3/2023 11:45:00 PM 1.54 34.772 0.143 6.96 96.02 10.85
3/4/2023 12:00:00 AM 1.42 34.556 0.142 6.94 95.47 10.9
3/4/2023 12:15:00 AM 1.3 34.34 0.142 6.94 95.42 10.83
3/4/2023 12:30:00 AM 1.19 34.142 0.143 6.93 95.57 10.93
3/4/2023 12:45:00 AM 1.09 33.962 0.146 6.93 95.56 10.92
3/4/2023 1:00:00 AM 1.01 33.818 0.146 6.94 95.48 10.88
3/4/2023 1:15:00 AM 0.94 33.692 0.144 6.93 95.6 10.93
3/4/2023 1:30:00 AM 0.86 33.548 0.145 6.94 95.66 11
3/4/2023 1:45:00 AM 0.79 33.422 0.143 6.94 95.84 11.08
3/4/2023 2:00:00 AM 0.74 33.332 0.143 6.94 95.82 10.96
3/4/2023 2:15:00 AM 0.71 33.278 0.14 6.95 95.89 11.01
3/4/2023 2:30:00 AM 0.67 33.206 0.143 6.96 95.66 10.92
3/4/2023 2:45:00 AM 0.63 33.134 0.144 6.97 95.87 10.96
3/4/2023 3:00:00 AM 0.59 33.062 0.145 6.96 95.86 11.05
3/4/2023 3:15:00 AM 0.55 32.99 0.144 6.95 95.94 10.97
3/4/2023 3:30:00 AM 0.5 32.9 0.146 6.95 95.99 11.03
3/4/2023 3:45:00 AM 0.46 32.828 0.145 6.96 95.99 10.97
3/4/2023 4:00:00 AM 0.44 32.792 0.143 6.96 95.99 10.98
3/4/2023 4:15:00 AM 0.44 32.792 0.147 6.98 95.84 10.91
3/4/2023 4:30:00 AM 0.45 32.81 0.147 6.97 95.88 10.9
3/4/2023 4:45:00 AM 0.45 32.81 0.147 6.98 95.99 10.87
3/4/2023 5:00:00 AM 0.45 32.81 0.145 6.99 96.34 10.96
3/4/2023 5:15:00 AM 0.44 32.792 0.148 7 96.43 10.9
3/4/2023 5:30:00 AM 0.47 32.846 0.146 6.98 96.69 10.93
3/4/2023 5:45:00 AM 0.51 32.918 0.149 6.99 96.54 10.9
3/4/2023 6:00:00 AM 0.55 32.99 0.149 7 96.28 10.86
3/4/2023 6:15:00 AM 0.59 33.062 0.15 7.01 96.22 10.9
3/4/2023 6:30:00 AM 0.64 33.152 0.147 7.01 96.29 10.91
3/4/2023 6:45:00 AM 0.66 33.188 0.147 7.01 96.17 10.88
3/4/2023 7:00:00 AM 0.7 33.26 0.146 7.01 96.41 10.9
3/4/2023 7:15:00 AM 0.76 33.368 0.147 7 96.56 10.9
3/4/2023 7:30:00 AM 0.83 33.494 0.147 7.04 96.33 10.85
3/4/2023 7:45:00 AM 0.9 33.62 0.155 7.04 96.6 10.89
3/4/2023 8:00:00 AM 0.98 33.764 0.147 7.04 96.12 10.87
3/4/2023 8:15:00 AM 1.07 33.926 0.152 7.03 96.13 10.93
3/4/2023 8:30:00 AM 1.15 34.07 0.152 7.02 96.27 10.89
3/4/2023 8:45:00 AM 1.22 34.196 0.151 7.01 96.26 10.83
3/4/2023 9:00:00 AM 1.3 34.34 0.152 7.01 96.34 10.87
3/4/2023 9:15:00 AM 1.38 34.484 0.153 7.01 96.21 10.85
3/4/2023 9:30:00 AM 1.44 34.592 0.154 7.03 96.33 10.8
3/4/2023 9:45:00 AM 1.5 34.7 0.153 7.01 96.35 10.86
3/4/2023 10:00:00 AM 1.57 34.826 0.155 7.03 96.44 10.87
3/4/2023 10:15:00 AM 1.65 34.97 0.156 7.01 96.34 10.93
3/4/2023 10:30:00 AM 1.73 35.114 0.154 7.02 96.2 10.9
3/4/2023 10:45:00 AM 1.8 35.24 0.159 7.03 96.18 10.89
3/4/2023 11:00:00 AM 1.87 35.366 0.155 7.02 96.35 10.9
3/4/2023 11:15:00 AM 1.94 35.492 0.149 7.04 96.42 10.92
3/4/2023 11:30:00 AM 2.01 35.618 0.149 7.04 96.52 10.92
3/4/2023 11:45:00 AM 2.08 35.744 0.157 7.04 96.49 10.97
3/4/2023 12:00:00 PM 2.12 35.816 0.156 7.04 96.95 11.06
3/4/2023 12:15:00 PM 2.17 35.906 0.153 7.04 96.87 11.17
3/4/2023 12:30:00 PM 2.22 35.996 0.152 7.04 96.77 11.23
3/4/2023 12:45:00 PM 2.27 36.086 0.151 7.04 96.98 11.3
3/4/2023 1:00:00 PM 2.33 36.194 0.15 7.04 96.77 11.34
3/4/2023 1:15:00 PM 2.37 36.266 0.152 7.05 96.96 11.38
3/4/2023 1:30:00 PM 2.41 36.338 0.153 7.05 97.07 11.44
3/4/2023 1:45:00 PM 2.51 36.518 0.145 7.04 97.25 11.48
3/4/2023 2:00:00 PM 2.55 36.59 0.15 7.05 97.09 11.59
3/4/2023 2:15:00 PM 2.58 36.644 0.15 7.06 97.32 11.61
3/4/2023 2:30:00 PM 2.6 36.68 0.151 7.07 96.97 11.62
3/4/2023 2:45:00 PM 2.63 36.734 0.149 7.06 96.78 11.62
3/4/2023 3:00:00 PM 2.64 36.752 0.153 7.05 96.73 11.57
3/4/2023 3:15:00 PM 2.65 36.77 0.156 7.05 96.77 11.56
3/4/2023 3:30:00 PM 2.66 36.788 0.148 7.05 96.66 11.59
3/4/2023 3:45:00 PM 2.68 36.824 0.152 7.04 96.77 11.62
3/4/2023 4:00:00 PM 2.7 36.86 0.152 7.06 96.76 11.63
3/4/2023 4:15:00 PM 2.71 36.878 0.153 7.04 96.75 11.64
3/4/2023 4:30:00 PM 2.71 36.878 0.157 7.04 96.86 11.63
3/4/2023 4:45:00 PM 2.7 36.86 0.154 7.05 97.26 11.68
3/4/2023 5:00:00 PM 2.7 36.86 0.266 7.02 97.61 11.69
3/4/2023 5:15:00 PM 2.7 36.86 0.231 7.03 97.8 11.69
3/4/2023 5:30:00 PM 2.68 36.824 0.222 7.03 98.79 11.68
3/4/2023 5:45:00 PM 2.66 36.788 0.139 7.03 97.25 11.59
3/4/2023 6:00:00 PM 2.63 36.734 0.205 7.01 97.71 11.53
3/4/2023 6:15:00 PM 2.61 36.698 0.149 7.03 96.91 11.47
3/4/2023 6:30:00 PM 2.59 36.662 0.218 7.03 98.44 11.45
3/4/2023 6:45:00 PM 2.57 36.626 0.147 7.04 97.67 11.37
3/4/2023 7:00:00 PM 2.55 36.59 0.211 7.01 98.36 11.39
3/4/2023 7:15:00 PM 2.51 36.518 0.221 7.02 97.31 11.36
3/4/2023 7:30:00 PM 2.48 36.464 0.204 7.01 98.46 11.33
3/4/2023 7:45:00 PM 2.45 36.41 0.211 6.98 98.25 11.39
3/4/2023 8:00:00 PM 2.41 36.338 0.165 7.03 97.31 11.34
3/4/2023 8:15:00 PM 2.38 36.284 0.316 6.99 98.12 11.31
3/4/2023 8:30:00 PM 2.35 36.23 0.166 7.01 97.31 11.29
3/4/2023 8:45:00 PM 2.32 36.176 0.16 7.02 97.39 11.26
3/4/2023 9:00:00 PM 2.29 36.122 0.162 7.02 97.16 11.26
3/4/2023 9:15:00 PM 2.25 36.05 0.161 7.03 97.02 11.23
3/4/2023 9:30:00 PM 2.22 35.996 0.165 7.03 96.86 11.24
3/4/2023 9:45:00 PM 2.18 35.924 0.167 7.04 97.09 11.34
3/4/2023 10:00:00 PM 2.13 35.834 0.168 7.02 96.33 11.28
3/4/2023 10:15:00 PM 2.1 35.78 0.168 7.02 96.56 11.26
3/4/2023 10:30:00 PM 2.06 35.708 0.166 7.03 96.96 11.24
3/4/2023 10:45:00 PM 2.03 35.654 0.169 7.02 97 11.22
3/4/2023 11:00:00 PM 2 35.6 0.339 7.03 97.92 11.18
3/4/2023 11:15:00 PM 1.97 35.546 0.235 7.02 97.47 11.36
3/4/2023 11:30:00 PM 1.95 35.51 0.239 7.01 97.54 11.32
3/4/2023 11:45:00 PM 1.92 35.456 0.24 7.03 97.56 11.33
3/5/2023 12:00:00 AM 1.91 35.438 0.235 7.01 97.07 11.33
3/5/2023 12:15:00 AM 1.89 35.402 0.232 7.03 97.57 11.28
3/5/2023 12:30:00 AM 1.88 35.384 0.239 7.05 97.44 11.3
3/5/2023 12:45:00 AM 1.87 35.366 0.231 7.03 97.2 11.37
3/5/2023 1:00:00 AM 1.85 35.33 0.228 7.03 97.51 11.45
3/5/2023 1:15:00 AM 1.84 35.312 0.228 7.03 97.25 11.42
3/5/2023 1:30:00 AM 1.83 35.294 0.229 7.02 97.31 11.46
3/5/2023 1:45:00 AM 1.82 35.276 0.229 7.03 97.11 11.3
3/5/2023 2:00:00 AM 1.82 35.276 0.243 6.99 98.18 11.36
3/5/2023 2:15:00 AM 1.81 35.258 0.177 7.01 97.7 11.37
3/5/2023 2:30:00 AM 1.8 35.24 0.208 7.03 97.78 11.31
3/5/2023 2:45:00 AM 1.8 35.24 0.212 7.04 97.96 11.3
3/5/2023 3:00:00 AM 1.79 35.222 0.158 7.02 98 11.38
3/5/2023 3:15:00 AM 1.78 35.204 0.205 6.99 99.34 11.28
3/5/2023 3:30:00 AM 1.78 35.204 0.153 7 98.47 11.23
3/5/2023 3:45:00 AM 1.77 35.186 0.151 7 98.69 11.22
3/5/2023 4:00:00 AM 1.76 35.168 0.153 7 98.57 11.27
3/5/2023 4:15:00 AM 1.75 35.15 0.151 7.01 98.48 11.29
3/5/2023 4:30:00 AM 1.74 35.132 0.276 6.96 99.44 11.33
3/5/2023 4:45:00 AM 1.73 35.114 0.207 6.97 99.68 11.3
3/5/2023 5:00:00 AM 1.72 35.096 0.208 6.99 99.49 11.31
3/5/2023 5:15:00 AM 1.71 35.078 0.204 6.98 99.19 11.33
3/5/2023 5:30:00 AM 1.71 35.078 0.169 6.97 99.63 11.27
3/5/2023 5:45:00 AM 1.69 35.042 0.148 6.99 100.53 11.11
3/5/2023 6:00:00 AM 1.67 35.006 0.16 6.96 100.66 11.27
3/5/2023 6:15:00 AM 1.65 34.97 0.154 6.96 100.82 11.25
3/5/2023 6:30:00 AM 1.63 34.934 0.176 6.93 100.96 11.33
3/5/2023 6:45:00 AM 1.6 34.88 0.217 6.94 101.28 11.32
3/5/2023 7:00:00 AM 1.58 34.844 0.43 6.96 101.78 11.2
3/5/2023 7:15:00 AM 1.56 34.808 0.384 6.94 101.77 11.28
3/5/2023 7:30:00 AM 1.54 34.772 0.305 6.95 101.73 11.29
3/5/2023 7:45:00 AM 1.53 34.754 0.423 6.93 101.73 11.29
3/5/2023 8:00:00 AM 1.52 34.736 0.203 6.95 99.98 11.26
3/5/2023 8:15:00 AM 1.53 34.754 0.448 6.95 101.64 11.23
3/5/2023 8:30:00 AM 1.54 34.772 0.216 6.96 101.17 11.25
3/5/2023 8:45:00 AM 1.55 34.79 0.542 6.95 102.09 11.2
3/5/2023 9:00:00 AM 1.58 34.844 0.223 6.96 100.88 11.26
3/5/2023 9:15:00 AM 1.6 34.88 0.325 6.93 102.06 11.29
3/5/2023 9:30:00 AM 1.64 34.952 0.217 6.96 100.52 11.3
3/5/2023 9:45:00 AM 1.68 35.024 0.209 6.98 100.9 11.32
3/5/2023 10:00:00 AM 1.72 35.096 0.5 6.96 102.81 11.31
3/5/2023 10:15:00 AM 1.77 35.186 0.23 6.97 101.17 11.42
3/5/2023 10:30:00 AM 1.81 35.258 0.202 6.96 102.69 11.4
3/5/2023 10:45:00 AM 1.86 35.348 0.197 6.96 103.12 11.42
3/5/2023 11:00:00 AM 1.91 35.438 0.219 6.99 101.98 11.43
3/5/2023 11:15:00 AM 1.94 35.492 0.208 6.99 101.95 11.49
3/5/2023 11:30:00 AM 1.97 35.546 0.211 7.01 102 11.54
3/5/2023 11:45:00 AM 2 35.6 0.212 6.99 102.18 11.58
3/5/2023 12:00:00 PM 2.04 35.672 0.245 6.97 103.37 11.53
3/5/2023 12:15:00 PM 2.09 35.762 0.23 6.99 102.12 11.66
3/5/2023 12:30:00 PM 2.12 35.816 0.198 6.94 103.26 11.79
3/5/2023 12:45:00 PM 2.16 35.888 0.227 7 102.52 11.72
3/5/2023 1:00:00 PM 2.19 35.942 0.201 6.99 102.91 11.76
3/5/2023 1:15:00 PM 2.24 36.032 0.225 6.98 102.73 11.78
3/5/2023 1:30:00 PM 2.27 36.086 0.214 6.98 104.2 11.76
3/5/2023 1:45:00 PM 2.32 36.176 0.318 6.97 104.7 11.81
3/5/2023 2:00:00 PM 2.37 36.266 0.205 6.97 104.44 11.81
3/5/2023 2:15:00 PM 2.41 36.338 0.18 6.98 104.45 11.91
3/5/2023 2:30:00 PM 2.46 36.428 0.184 6.98 104.52 11.94
3/5/2023 2:45:00 PM 2.52 36.536 0.178 6.98 103.84 12.03
3/5/2023 3:00:00 PM 2.58 36.644 0.231 6.97 104.01 12.05
3/5/2023 3:15:00 PM 2.64 36.752 0.249 6.99 104.74 12.04
3/5/2023 3:30:00 PM 2.68 36.824 0.23 6.97 104.92 12.01
3/5/2023 3:45:00 PM 2.74 36.932 0.234 6.98 104.66 12.01
3/5/2023 4:00:00 PM 2.78 37.004 0.232 6.98 104.13 12.04
3/5/2023 4:15:00 PM 2.83 37.094 0.184 6.99 103.02 12.09
3/5/2023 4:30:00 PM 2.86 37.148 0.216 6.99 104.09 11.96
3/5/2023 4:45:00 PM 2.89 37.202 0.182 6.98 103.84 11.94
3/5/2023 5:00:00 PM 2.91 37.238 0.177 6.99 103.83 11.87
3/5/2023 5:15:00 PM 2.9 37.22 0.139 6.98 103.62 11.83
3/5/2023 5:30:00 PM 2.88 37.184 0.151 6.99 103.64 11.9
3/5/2023 5:45:00 PM 2.85 37.13 0.141 7 103.79 11.98
3/5/2023 6:00:00 PM 2.8 37.04 0.151 7.01 103.71 11.95
3/5/2023 6:15:00 PM 2.77 36.986 0.156 6.99 103.95 12.01
3/5/2023 6:30:00 PM 2.73 36.914 0.16 7 103.7 12.03
3/5/2023 6:45:00 PM 2.69 36.842 0.158 7 103.69 12
3/5/2023 7:00:00 PM 2.66 36.788 0.155 7 103.97 11.93
3/5/2023 7:15:00 PM 2.63 36.734 0.153 6.99 104.54 11.96
3/5/2023 7:30:00 PM 2.6 36.68 0.151 6.99 104.41 11.91
3/5/2023 7:45:00 PM 2.56 36.608 0.153 7 104.21 11.88
3/5/2023 8:00:00 PM 2.53 36.554 0.157 7.01 103.91 11.84
3/5/2023 8:15:00 PM 2.5 36.5 0.155 6.99 104.02 11.7
3/5/2023 8:30:00 PM 2.47 36.446 0.144 7.01 103.14 11.67
3/5/2023 8:45:00 PM 2.45 36.41 0.14 7.02 103.23 11.78
3/5/2023 9:00:00 PM 2.42 36.356 0.14 7.06 102.93 11.75
3/5/2023 9:15:00 PM 2.38 36.284 0.142 7.03 102.52 11.75
3/5/2023 9:30:00 PM 2.35 36.23 0.143 7.02 102.31 11.77
3/5/2023 9:45:00 PM 2.32 36.176 0.145 7.02 102.33 11.77
3/5/2023 10:00:00 PM 2.28 36.104 0.145 7.03 102.12 11.7
3/5/2023 10:15:00 PM 2.24 36.032 0.145 7.02 102.19 11.67
3/5/2023 10:30:00 PM 2.2 35.96 0.145 7.02 102.19 11.68
3/5/2023 10:45:00 PM 2.16 35.888 0.146 7.01 102.59 11.65
3/5/2023 11:00:00 PM 2.13 35.834 0.152 7 103.51 11.66
3/5/2023 11:15:00 PM 2.09 35.762 0.149 7.01 102.61 11.58
3/5/2023 11:30:00 PM 2.06 35.708 0.142 7.02 102.66 11.61
3/5/2023 11:45:00 PM 2.03 35.654 0.151 6.98 103.91 11.55
3/6/2023 12:00:00 AM 2 35.6 0.146 7.01 103.07 11.47
3/6/2023 12:15:00 AM 1.98 35.564 0.143 7.03 102.85 11.48
3/6/2023 12:30:00 AM 1.95 35.51 0.143 7.02 102.54 11.54
3/6/2023 12:45:00 AM 1.93 35.474 0.139 7.01 103.87 11.55
3/6/2023 1:00:00 AM 1.9 35.42 0.118 7.02 103.69 11.6
3/6/2023 1:15:00 AM 1.88 35.384 0.142 7.01 103.76 11.62
3/6/2023 1:30:00 AM 1.86 35.348 0.141 7.01 103.93 11.56
3/6/2023 1:45:00 AM 1.84 35.312 0.123 7.02 103.85 11.54
3/6/2023 2:00:00 AM 1.83 35.294 0.118 7 103.51 11.56
3/6/2023 2:15:00 AM 1.81 35.258 0.133 7 103.94 11.57
3/6/2023 2:30:00 AM 1.8 35.24 0.127 6.98 105.2 11.65
3/6/2023 2:45:00 AM 1.79 35.222 0.109 6.99 105.43 11.64
3/6/2023 3:00:00 AM 1.77 35.186 0.11 6.98 105.6 11.61
3/6/2023 3:15:00 AM 1.76 35.168 0.109 6.99 105.65 11.65
3/6/2023 3:30:00 AM 1.75 35.15 0.123 7 105.11 11.63
3/6/2023 3:45:00 AM 1.74 35.132 0.122 7 105.21 11.67
3/6/2023 4:00:00 AM 1.73 35.114 0.127 7.01 105.33 11.62
3/6/2023 4:15:00 AM 1.72 35.096 0.125 7 105.45 11.64
3/6/2023 4:30:00 AM 1.71 35.078 0.13 6.97 105.83 11.64
3/6/2023 4:45:00 AM 1.7 35.06 0.126 6.99 105.34 11.71
3/6/2023 5:00:00 AM 1.7 35.06 0.114 6.99 105.69 11.64
3/6/2023 5:15:00 AM 1.69 35.042 0.123 6.98 105.08 11.58
3/6/2023 5:30:00 AM 1.69 35.042 0.124 6.98 104.69 11.61
3/6/2023 5:45:00 AM 1.68 35.024 0.124 6.98 104.54 11.65
3/6/2023 6:00:00 AM 1.67 35.006 0.123 6.97 104.6 11.71
3/6/2023 6:15:00 AM 1.66 34.988 0.12 6.98 105.02 11.67
3/6/2023 6:30:00 AM 1.65 34.97 0.119 6.99 104.61 11.67
3/6/2023 6:45:00 AM 1.64 34.952 0.123 6.99 104.41 11.67
3/6/2023 7:00:00 AM 1.63 34.934 0.124 6.99 104.85 11.67
3/6/2023 7:15:00 AM 1.62 34.916 0.123 6.98 104.4 11.65
3/6/2023 7:30:00 AM 1.62 34.916 0.121 6.98 104.48 11.66
3/6/2023 7:45:00 AM 1.62 34.916 0.119 6.99 104.77 11.68
3/6/2023 8:00:00 AM 1.62 34.916 0.12 6.98 104.19 11.61
3/6/2023 8:15:00 AM 1.62 34.916 0.119 6.99 104.45 11.64
3/6/2023 8:30:00 AM 1.62 34.916 0.116 6.99 104.9 11.61
3/6/2023 8:45:00 AM 1.62 34.916 0.115 6.99 105.4 11.68
3/6/2023 9:00:00 AM 1.64 34.952 0.114 6.99 104.7 11.74
3/6/2023 9:15:00 AM 1.67 35.006 0.121 6.98 104.35 11.74
3/6/2023 9:30:00 AM 1.72 35.096 0.115 6.98 104.49 11.81
3/6/2023 9:45:00 AM 1.78 35.204 0.12 6.99 104.34 11.82
3/6/2023 10:00:00 AM 1.84 35.312 0.117 6.98 104.61 11.95
3/6/2023 10:15:00 AM 1.92 35.456 0.118 6.98 104.82 12.01
3/6/2023 10:30:00 AM 2 35.6 0.102 6.99 104.51 12
3/6/2023 10:45:00 AM 2.08 35.744 0.121 6.98 104.77 12.05
3/6/2023 11:00:00 AM 2.16 35.888 0.109 6.98 104.82 12.11
3/6/2023 11:15:00 AM 2.23 36.014 0.124 6.99 104.69 12.03
3/6/2023 11:30:00 AM 2.3 36.14 0.1 6.99 104.77 12.03
3/6/2023 11:45:00 AM 2.36 36.248 0.131 7 104.4 12.05
3/6/2023 12:00:00 PM 2.42 36.356 0.104 6.99 104.11 12.07
3/6/2023 12:15:00 PM 2.48 36.464 0.092 6.99 104.42 12.07
3/6/2023 12:30:00 PM 2.57 36.626 0.123 7.02 103.47 12.13
3/6/2023 12:45:00 PM 2.64 36.752 0.107 7.01 104.64 12.16
3/6/2023 1:00:00 PM 2.75 36.95 0.098 7 104.46 12.13
3/6/2023 1:15:00 PM 2.86 37.148 0.102 6.99 103.96 12.1
3/6/2023 1:30:00 PM 2.96 37.328 0.099 7 105.02 12.14
3/6/2023 1:45:00 PM 3.08 37.544 0.09 7 104.08 12.08
3/6/2023 2:00:00 PM 3.2 37.76 0.081 7 104.35 12.1
3/6/2023 2:15:00 PM 3.33 37.994 0.083 6.99 104.7 12.02
3/6/2023 2:30:00 PM 3.47 38.246 0.083 7.01 104.19 12.07
3/6/2023 2:45:00 PM 3.61 38.498 0.103 7 104.75 12.12
3/6/2023 3:00:00 PM 3.74 38.732 0.11 6.99 104.59 12.14
3/6/2023 3:15:00 PM 3.88 38.984 0.099 6.99 104.98 11.99
3/6/2023 3:30:00 PM 3.98 39.164 0.093 6.99 104.42 12.09
3/6/2023 3:45:00 PM 4.06 39.308 0.079 6.97 104.87 12.08
3/6/2023 4:00:00 PM 4.12 39.416 0.087 6.97 104.5 11.95
3/6/2023 4:15:00 PM 4.17 39.506 0.078 6.97 104.49 11.9
3/6/2023 4:30:00 PM 4.18 39.524 0.073 6.96 104.17 11.94
3/6/2023 4:45:00 PM 4.19 39.542 0.076 6.98 103.31 11.89
3/6/2023 5:00:00 PM 4.2 39.56 0.073 6.98 104.08 11.83
3/6/2023 5:15:00 PM 4.18 39.524 0.073 6.99 103.83 11.84
3/6/2023 5:30:00 PM 4.14 39.452 0.101 6.99 103.6 11.79
3/6/2023 5:45:00 PM 4.1 39.38 0.076 6.98 103.91 11.61
3/6/2023 6:00:00 PM 4.06 39.308 0.075 7 104.04 11.57
3/6/2023 6:15:00 PM 4 39.2 0.069 6.98 103.69 11.59
3/6/2023 6:30:00 PM 3.94 39.092 0.083 6.98 103.74 11.52
3/6/2023 6:45:00 PM 3.87 38.966 0.081 7 104.11 11.53
3/6/2023 7:00:00 PM 3.79 38.822 0.084 6.97 104.82 11.49
3/6/2023 7:15:00 PM 3.71 38.678 0.082 6.96 104.72 11.56
3/6/2023 7:30:00 PM 3.64 38.552 0.09 6.97 104.48 11.44
3/6/2023 7:45:00 PM 3.59 38.462 0.095 6.98 104.41 11.59
3/6/2023 8:00:00 PM 3.54 38.372 0.09 6.95 104.86 11.59
3/6/2023 8:15:00 PM 3.5 38.3 0.081 6.95 104.39 11.65
3/6/2023 8:30:00 PM 3.44 38.192 0.105 6.97 103.02 11.61
3/6/2023 8:45:00 PM 3.41 38.138 0.108 6.97 103.22 11.49
3/6/2023 9:00:00 PM 3.36 38.048 0.085 6.95 103.44 11.56
3/6/2023 9:15:00 PM 3.3 37.94 0.093 6.97 103.17 11.58
3/6/2023 9:30:00 PM 3.25 37.85 0.096 6.96 103.54 11.62
3/6/2023 9:45:00 PM 3.19 37.742 0.082 6.96 103.21 11.55
3/6/2023 10:00:00 PM 3.13 37.634 0.092 6.96 102.79 11.59
3/6/2023 10:15:00 PM 3.06 37.508 0.096 6.95 103.17 11.57
3/6/2023 10:30:00 PM 3.01 37.418 0.101 6.95 103.67 11.5
3/6/2023 10:45:00 PM 2.96 37.328 0.081 6.97 103.38 11.54
3/6/2023 11:00:00 PM 2.92 37.256 0.1 6.97 103.41 11.5
3/6/2023 11:15:00 PM 2.87 37.166 0.109 6.99 102.99 11.56
3/6/2023 11:30:00 PM 2.82 37.076 0.084 6.95 103.22 11.5
3/6/2023 11:45:00 PM 2.78 37.004 0.086 6.95 103.41 11.53
3/7/2023 12:00:00 AM 2.73 36.914 0.082 6.95 103.04 11.52
3/7/2023 12:15:00 AM 2.68 36.824 0.085 6.93 103.26 11.55
3/7/2023 12:30:00 AM 2.64 36.752 0.1 6.94 102.5 11.48
3/7/2023 12:45:00 AM 2.6 36.68 0.098 6.94 102.59 11.44
3/7/2023 1:00:00 AM 2.56 36.608 0.094 6.94 102.1 11.49
3/7/2023 1:15:00 AM 2.52 36.536 0.104 6.94 102.72 11.4
3/7/2023 1:30:00 AM 2.48 36.464 0.089 6.95 102.92 11.4
3/7/2023 1:45:00 AM 2.45 36.41 0.086 6.95 102.79 11.47
3/7/2023 2:00:00 AM 2.41 36.338 0.109 6.95 101.19 11.46
3/7/2023 2:15:00 AM 2.38 36.284 0.097 6.95 102.64 11.47
3/7/2023 2:30:00 AM 2.35 36.23 0.087 6.94 102.07 11.49
3/7/2023 2:45:00 AM 2.32 36.176 0.087 6.93 101.75 11.43
3/7/2023 3:00:00 AM 2.3 36.14 0.088 6.94 101.16 11.41
3/7/2023 3:15:00 AM 2.28 36.104 0.086 6.93 100.84 11.42
3/7/2023 3:30:00 AM 2.26 36.068 0.095 6.94 100.73 11.32
3/7/2023 3:45:00 AM 2.25 36.05 0.101 6.96 100.85 11.28
3/7/2023 4:00:00 AM 2.23 36.014 0.097 6.94 101.04 11.38
3/7/2023 4:15:00 AM 2.21 35.978 0.088 6.93 100.91 11.35
3/7/2023 4:30:00 AM 2.19 35.942 0.091 6.94 101 11.32
3/7/2023 4:45:00 AM 2.17 35.906 0.12 6.93 100.14 11.38
3/7/2023 5:00:00 AM 2.16 35.888 0.099 6.96 100.87 11.29
3/7/2023 5:15:00 AM 2.14 35.852 0.105 6.96 101.15 11.36
3/7/2023 5:30:00 AM 2.12 35.816 0.095 6.95 101.19 11.37
3/7/2023 5:45:00 AM 2.1 35.78 0.092 6.94 101.02 11.42
3/7/2023 6:00:00 AM 2.07 35.726 0.103 6.93 101.05 11.28
3/7/2023 6:15:00 AM 2.04 35.672 0.091 6.94 100.75 11.28
3/7/2023 6:30:00 AM 2.01 35.618 0.092 6.95 100.33 11.41
3/7/2023 6:45:00 AM 1.98 35.564 0.094 6.94 100.18 11.46
3/7/2023 7:00:00 AM 1.94 35.492 0.098 6.94 100.3 11.35
3/7/2023 7:15:00 AM 1.9 35.42 0.098 6.94 100.15 11.36
3/7/2023 7:30:00 AM 1.85 35.33 0.119 6.95 98.98 11.39
3/7/2023 7:45:00 AM 1.82 35.276 0.1 6.96 99.83 11.37
3/7/2023 8:00:00 AM 1.77 35.186 0.087 6.88 100.45 11.44
3/7/2023 8:15:00 AM 1.73 35.114 0.094 6.89 100.95 11.42
3/7/2023 8:30:00 AM 1.7 35.06 0.088 6.91 100.65 11.36
3/7/2023 8:45:00 AM 1.67 35.006 0.089 6.94 101 11.44
3/7/2023 9:00:00 AM 1.66 34.988 0.082 6.96 101.11 11.45
3/7/2023 9:15:00 AM 1.67 35.006 0.094 6.94 101.4 11.54
3/7/2023 9:30:00 AM 1.7 35.06 0.089 6.94 100.95 11.59
3/7/2023 9:45:00 AM 1.74 35.132 0.094 6.95 101.12 11.64
3/7/2023 10:00:00 AM 1.8 35.24 0.1 6.94 100.57 11.65
3/7/2023 10:15:00 AM 1.87 35.366 0.123 6.95 98.77 11.69
3/7/2023 10:30:00 AM 1.95 35.51 0.101 6.91 100.05 11.76
3/7/2023 10:45:00 AM 2.05 35.69 0.104 6.91 100.36 11.81
3/7/2023 11:00:00 AM 2.16 35.888 0.099 6.92 100.64 11.94
3/7/2023 11:15:00 AM 2.27 36.086 0.094 6.92 100.56 11.93
3/7/2023 11:30:00 AM 2.39 36.302 0.094 6.93 100.29 12
3/7/2023 11:45:00 AM 2.53 36.554 0.102 6.93 100.34 11.99
3/7/2023 12:00:00 PM 2.68 36.824 0.104 6.93 100.64 11.98
3/7/2023 12:15:00 PM 2.81 37.058 0.099 6.94 100.26 12
3/7/2023 12:30:00 PM 2.95 37.31 0.1 6.94 99.77 12.02
3/7/2023 12:45:00 PM 3.09 37.562 0.094 6.95 99.59 11.95
3/7/2023 1:00:00 PM 3.24 37.832 0.114 6.97 97.67 11.82
3/7/2023 1:15:00 PM 3.32 37.976 0.096 6.95 99.86 11.82
3/7/2023 1:30:00 PM 3.44 38.192 0.097 6.95 99.49 11.71
3/7/2023 1:45:00 PM 3.54 38.372 0.1 6.94 99.51 11.71
3/7/2023 2:00:00 PM 3.63 38.534 0.078 6.95 99.8 11.7
3/7/2023 2:15:00 PM 3.7 38.66 0.097 6.95 100 11.7
3/7/2023 2:30:00 PM 3.76 38.768 0.098 6.94 100.03 11.68
3/7/2023 2:45:00 PM 3.82 38.876 0.098 6.94 100.35 11.64
3/7/2023 3:00:00 PM 3.87 38.966 0.102 6.94 100.54 11.61
3/7/2023 3:15:00 PM 3.87 38.966 0.093 6.95 99.86 11.57
3/7/2023 3:30:00 PM 3.89 39.002 0.099 6.95 99.73 11.57
3/7/2023 3:45:00 PM 3.87 38.966 0.128 6.98 97.8 11.47
3/7/2023 4:00:00 PM 3.84 38.912 0.103 6.95 98.52 11.46
3/7/2023 4:15:00 PM 3.8 38.84 0.089 6.96 98.18 11.5
3/7/2023 4:30:00 PM 3.75 38.75 0.084 6.95 98.14 11.51
3/7/2023 4:45:00 PM 3.68 38.624 0.086 6.96 98.65 11.52
3/7/2023 5:00:00 PM 3.6 38.48 0.101 6.95 98.4 11.5
3/7/2023 5:15:00 PM 3.53 38.354 0.101 6.95 98.44 11.48
3/7/2023 5:30:00 PM 3.45 38.21 0.099 6.94 98.06 11.47
3/7/2023 5:45:00 PM 3.38 38.084 0.098 6.95 98.43 11.49
3/7/2023 6:00:00 PM 3.29 37.922 0.1 6.95 99.07 11.48
3/7/2023 6:15:00 PM 3.21 37.778 0.103 6.94 98.68 11.51
3/7/2023 6:30:00 PM 3.11 37.598 0.125 6.95 97.42 11.51
3/7/2023 6:45:00 PM 3.04 37.472 0.097 6.91 98.52 11.66
3/7/2023 7:00:00 PM 2.95 37.31 0.097 6.92 98.88 11.66
3/7/2023 7:15:00 PM 2.85 37.13 0.096 6.89 99.47 11.76
3/7/2023 7:30:00 PM 2.77 36.986 0.097 6.91 99.34 11.73
3/7/2023 7:45:00 PM 2.7 36.86 0.091 6.88 99.48 11.77
3/7/2023 8:00:00 PM 2.63 36.734 0.093 6.9 100.41 11.81
3/7/2023 8:15:00 PM 2.56 36.608 0.095 6.91 101.28 11.81
3/7/2023 8:30:00 PM 2.49 36.482 0.094 6.88 100.61 11.84
3/7/2023 8:45:00 PM 2.43 36.374 0.097 6.87 100.93 11.89
3/7/2023 9:00:00 PM 2.38 36.284 0.096 6.91 100.53 11.84
3/7/2023 9:15:00 PM 2.32 36.176 0.128 6.92 99.11 11.8
3/7/2023 9:30:00 PM 2.29 36.122 0.093 6.92 100.62 11.76
3/7/2023 9:45:00 PM 2.24 36.032 0.093 6.92 101.22 11.76
3/7/2023 10:00:00 PM 2.18 35.924 0.091 6.88 101.02 11.87
3/7/2023 10:15:00 PM 2.12 35.816 0.094 6.88 101.22 11.84
3/7/2023 10:30:00 PM 2.07 35.726 0.088 6.88 101.21 11.81
3/7/2023 10:45:00 PM 2.03 35.654 0.093 6.85 101.32 11.81
3/7/2023 11:00:00 PM 2 35.6 0.097 6.87 100.76 11.88
3/7/2023 11:15:00 PM 1.96 35.528 0.097 6.85 101.62 11.82
3/7/2023 11:30:00 PM 1.92 35.456 0.096 6.88 102.24 11.8
3/7/2023 11:45:00 PM 1.88 35.384 0.098 6.87 102.27 11.87
3/8/2023 12:00:00 AM 1.83 35.294 0.11 6.88 98.69 11.82
3/8/2023 12:15:00 AM 1.8 35.24 0.093 6.87 100.92 11.85
3/8/2023 12:30:00 AM 1.78 35.204 0.094 6.87 101.03 11.9
3/8/2023 12:45:00 AM 1.74 35.132 0.095 6.85 101.38 11.93
3/8/2023 1:00:00 AM 1.71 35.078 0.095 6.84 101.14 11.92
3/8/2023 1:15:00 AM 1.68 35.024 0.093 6.83 101.25 11.99
3/8/2023 1:30:00 AM 1.65 34.97 0.095 6.84 101.01 11.97
3/8/2023 1:45:00 AM 1.62 34.916 0.094 6.85 100.84 11.98
3/8/2023 2:00:00 AM 1.59 34.862 0.094 6.86 102.03 12.08
3/8/2023 2:15:00 AM 1.55 34.79 0.093 6.84 101.79 12.07
3/8/2023 2:30:00 AM 1.51 34.718 0.094 6.85 101.93 12.05
3/8/2023 2:45:00 AM 1.47 34.646 0.127 6.89 99.68 12.07
3/8/2023 3:00:00 AM 1.46 34.628 0.09 6.86 101.77 12.06
3/8/2023 3:15:00 AM 1.42 34.556 0.073 6.83 101.84 12.08
3/8/2023 3:30:00 AM 1.38 34.484 0.096 6.86 102.05 12.08
3/8/2023 3:45:00 AM 1.35 34.43 0.097 6.85 101.92 12.06
3/8/2023 4:00:00 AM 1.32 34.376 0.098 6.87 101.86 12.01
3/8/2023 4:15:00 AM 1.29 34.322 0.097 6.86 102.82 11.97
3/8/2023 4:30:00 AM 1.25 34.25 0.096 6.87 102.01 11.95
3/8/2023 4:45:00 AM 1.21 34.178 0.097 6.86 102.31 11.96
3/8/2023 5:00:00 AM 1.17 34.106 0.096 6.85 102.33 11.96
3/8/2023 5:15:00 AM 1.14 34.052 0.097 6.84 102.76 11.99
3/8/2023 5:30:00 AM 1.1 33.98 0.124 6.85 99.04 12.02
3/8/2023 5:45:00 AM 1.07 33.926 0.096 6.84 101.84 11.98
3/8/2023 6:00:00 AM 1.05 33.89 0.097 6.84 101.25 12.03
3/8/2023 6:15:00 AM 1.02 33.836 0.096 6.84 100.21 12.07
3/8/2023 6:30:00 AM 1 33.8 0.096 6.86 99.95 12.1
3/8/2023 6:45:00 AM 0.99 33.782 0.095 6.84 99.49 12.02
3/8/2023 7:00:00 AM 0.97 33.746 0.095 6.85 99.31 11.96
3/8/2023 7:15:00 AM 0.96 33.728 0.094 6.84 100 11.99
3/8/2023 7:30:00 AM 0.94 33.692 0.095 6.83 100.49 11.98
3/8/2023 7:45:00 AM 0.92 33.656 0.094 6.85 100.18 11.97
3/8/2023 8:00:00 AM 0.91 33.638 0.094 6.85 100.19 11.94
3/8/2023 8:15:00 AM 0.89 33.602 0.134 6.87 98 12.04
3/8/2023 8:30:00 AM 0.89 33.602 0.093 6.84 100.3 12.1
3/8/2023 8:45:00 AM 0.89 33.602 0.094 6.84 100.43 12.19
3/8/2023 9:00:00 AM 0.91 33.638 0.094 6.85 100.4 12.17
3/8/2023 9:15:00 AM 0.93 33.674 0.094 6.84 100.18 12.16
3/8/2023 9:30:00 AM 0.95 33.71 0.093 6.84 100.53 12.13
3/8/2023 9:45:00 AM 0.98 33.764 0.094 6.83 100.25 12.1
3/8/2023 10:00:00 AM 1 33.8 0.092 6.85 100.15 11.94
3/8/2023 10:15:00 AM 1.03 33.854 0.086 6.86 100.28 11.83
3/8/2023 10:30:00 AM 1.07 33.926 0.098 6.87 99.88 11.93
3/8/2023 10:45:00 AM 1.13 34.034 0.095 6.88 99.75 11.96
3/8/2023 11:00:00 AM 1.2 34.16 0.115 6.92 97.29 11.87
3/8/2023 11:15:00 AM 1.24 34.232 0.067 6.91 99.22 11.82
3/8/2023 11:30:00 AM 1.3 34.34 0.067 6.93 98.84 11.81
3/8/2023 11:45:00 AM 1.35 34.43 0.066 6.93 98.56 11.8
3/8/2023 12:00:00 PM 1.4 34.52 0.066 6.92 98.39 11.86
3/8/2023 12:15:00 PM 1.47 34.646 0.066 6.96 98.5 11.81
3/8/2023 12:30:00 PM 1.55 34.79 0.066 6.96 98.27 11.89
3/8/2023 12:45:00 PM 1.62 34.916 0.066 6.98 97.85 11.98
3/8/2023 1:00:00 PM 1.7 35.06 0.066 6.97 98.67 12.01
3/8/2023 1:15:00 PM 1.8 35.24 0.067 6.95 98.36 12
3/8/2023 1:30:00 PM 1.89 35.402 0.067 6.95 97.97 12.02
3/8/2023 1:45:00 PM 1.98 35.564 0.101 6.98 96.51 11.97
3/8/2023 2:00:00 PM 2.05 35.69 0.066 6.96 97.48 11.9
3/8/2023 2:15:00 PM 2.15 35.87 0.066 6.94 97.78 11.98
3/8/2023 2:30:00 PM 2.23 36.014 0.068 6.93 97.73 12.11
3/8/2023 2:45:00 PM 2.3 36.14 0.068 6.93 97.64 12.13
3/8/2023 3:00:00 PM 2.38 36.284 0.066 6.93 97.55 12.06
3/8/2023 3:15:00 PM 2.44 36.392 0.067 6.94 97.25 11.96
3/8/2023 3:30:00 PM 2.51 36.518 0.068 6.92 97.54 12.05
3/8/2023 3:45:00 PM 2.56 36.608 0.066 6.93 96.93 12.05
3/8/2023 4:00:00 PM 2.6 36.68 0.065 6.94 97.27 12.04
3/8/2023 4:15:00 PM 2.62 36.716 0.066 6.93 97.2 12.14
3/8/2023 4:30:00 PM 2.64 36.752 0.101 6.95 94.76 12.18
3/8/2023 4:45:00 PM 2.64 36.752 0.066 6.95 96.52 12.18
3/8/2023 5:00:00 PM 2.64 36.752 0.066 6.97 96.7 12.03
3/8/2023 5:15:00 PM 2.63 36.734 0.065 6.97 97 12
3/8/2023 5:30:00 PM 2.61 36.698 0.065 6.96 97.31 12.02
3/8/2023 5:45:00 PM 2.58 36.644 0.065 6.94 97.02 12.16
3/8/2023 6:00:00 PM 2.54 36.572 0.064 6.95 97.08 12.08
3/8/2023 6:15:00 PM 2.5 36.5 0.065 6.96 97.46 12.11
3/8/2023 6:30:00 PM 2.46 36.428 0.063 6.94 97.51 12.13
3/8/2023 6:45:00 PM 2.42 36.356 0.063 6.94 97.27 12.04
3/8/2023 7:00:00 PM 2.38 36.284 0.063 6.94 97.79 12.13
3/8/2023 7:15:00 PM 2.33 36.194 0.099 6.95 94.88 12.08
3/8/2023 7:30:00 PM 2.3 36.14 0.064 6.96 97.83 12.07

These are provisional data and have not been subject to a quality assurance process, but rather are the raw data reported by the instrument.
H: value is above sensor operating range
L: value is below sensor operating range
Offline: station is not reporting data
NC: parameter is not collected at site

Data Availability & Limitations

Uncertainty and potential for error can be associated with environmental monitoring data. Provisional data have not been subject to a quality assurance process, but rather are the raw data reported by the instrument. Data users are cautioned to consider carefully the provisional nature of the information before using it for decisions that concern personal or public safety or the conduct of business that involves substantial monetary or operational consequences.

Approved data are currently available by request by emailing: [email protected]. Approved data have been subject to a quality assurance process to correct for equipment or fouling drift. Data recorded during equipment malfunctions have been removed.

View Historical Stations that have been discontinued.